<?xml version="1.0" encoding="UTF-8" standalone="no" ?>
<gpx xmlns="http://www.topografix.com/GPX/1/1" xmlns:xsi="http://www.w3.org/2001/XMLSchema-instance" xsi:schemaLocation="http://www.topografix.com/GPX/1/1 http://www.topografix.com/GPX/1/1/gpx.xsd" version="1.1" creator="VisuGPX - https://www.visugpx.com">
  <metadata>
    <name>VTT GRABELS XC/AM</name>
    <desc><![CDATA[Sortie typée XC/AM autour de Grabels. C'est le tour en sens inverse avec une petite variante sur la 2éme montée du plateau de la Goule. C'est la meilleure saison pour rouler en ce moment alors faut en profiter. Sur ce parcours on a 3 cotes à franchir, la dernière (celle qui arrive sur les hauts de Massane) étant la plus complète.]]></desc>
  </metadata>
  <trk>
    <name><![CDATA[VTT GRABELS XC/AM_1]]></name>
    <trkseg>
      <trkpt lat="43.63767" lon="3.82845">
        <ele>157.4</ele>
        <time>2017-10-17T10:11:12Z</time>
      </trkpt>
      <trkpt lat="43.63767" lon="3.82845">
        <ele>157.4</ele>
        <time>2017-10-17T10:11:13Z</time>
      </trkpt>
      <trkpt lat="43.6376" lon="3.82819">
        <ele>140.1</ele>
        <time>2017-10-17T10:11:20Z</time>
      </trkpt>
      <trkpt lat="43.63763" lon="3.82833">
        <ele>145.5</ele>
        <time>2017-10-17T10:11:23Z</time>
      </trkpt>
      <trkpt lat="43.63763" lon="3.82845">
        <ele>142.2</ele>
        <time>2017-10-17T10:11:26Z</time>
      </trkpt>
      <trkpt lat="43.63763" lon="3.82855">
        <ele>137.3</ele>
        <time>2017-10-17T10:11:32Z</time>
      </trkpt>
      <trkpt lat="43.63763" lon="3.82858">
        <ele>132.6</ele>
        <time>2017-10-17T10:11:39Z</time>
      </trkpt>
      <trkpt lat="43.63759" lon="3.8286">
        <ele>125.4</ele>
        <time>2017-10-17T10:12:10Z</time>
      </trkpt>
      <trkpt lat="43.6376" lon="3.82859">
        <ele>125.3</ele>
        <time>2017-10-17T10:12:17Z</time>
      </trkpt>
      <trkpt lat="43.6376" lon="3.82857">
        <ele>125.2</ele>
        <time>2017-10-17T10:12:28Z</time>
      </trkpt>
      <trkpt lat="43.6376" lon="3.82855">
        <ele>125.2</ele>
        <time>2017-10-17T10:12:35Z</time>
      </trkpt>
      <trkpt lat="43.63763" lon="3.82851">
        <ele>125.4</ele>
        <time>2017-10-17T10:12:42Z</time>
      </trkpt>
      <trkpt lat="43.63765" lon="3.82849">
        <ele>127</ele>
        <time>2017-10-17T10:12:49Z</time>
      </trkpt>
      <trkpt lat="43.63763" lon="3.82838">
        <ele>128.7</ele>
        <time>2017-10-17T10:12:54Z</time>
      </trkpt>
      <trkpt lat="43.63759" lon="3.8283">
        <ele>129.2</ele>
        <time>2017-10-17T10:12:56Z</time>
      </trkpt>
      <trkpt lat="43.63762" lon="3.82818">
        <ele>129.7</ele>
        <time>2017-10-17T10:12:58Z</time>
      </trkpt>
      <trkpt lat="43.63765" lon="3.82808">
        <ele>129.9</ele>
        <time>2017-10-17T10:12:59Z</time>
      </trkpt>
      <trkpt lat="43.6377" lon="3.82802">
        <ele>130.2</ele>
        <time>2017-10-17T10:13:00Z</time>
      </trkpt>
      <trkpt lat="43.63777" lon="3.82796">
        <ele>130.6</ele>
        <time>2017-10-17T10:13:02Z</time>
      </trkpt>
      <trkpt lat="43.6379" lon="3.82798">
        <ele>131.1</ele>
        <time>2017-10-17T10:13:04Z</time>
      </trkpt>
      <trkpt lat="43.638" lon="3.82796">
        <ele>131.7</ele>
        <time>2017-10-17T10:13:06Z</time>
      </trkpt>
      <trkpt lat="43.63811" lon="3.82793">
        <ele>132</ele>
        <time>2017-10-17T10:13:08Z</time>
      </trkpt>
      <trkpt lat="43.63822" lon="3.8279">
        <ele>132.5</ele>
        <time>2017-10-17T10:13:11Z</time>
      </trkpt>
      <trkpt lat="43.63829" lon="3.82791">
        <ele>132.8</ele>
        <time>2017-10-17T10:13:13Z</time>
      </trkpt>
      <trkpt lat="43.63837" lon="3.82792">
        <ele>133.4</ele>
        <time>2017-10-17T10:13:15Z</time>
      </trkpt>
      <trkpt lat="43.63846" lon="3.8279">
        <ele>134.8</ele>
        <time>2017-10-17T10:13:17Z</time>
      </trkpt>
      <trkpt lat="43.63853" lon="3.82786">
        <ele>135.4</ele>
        <time>2017-10-17T10:13:19Z</time>
      </trkpt>
      <trkpt lat="43.63862" lon="3.82781">
        <ele>135.4</ele>
        <time>2017-10-17T10:13:21Z</time>
      </trkpt>
      <trkpt lat="43.6387" lon="3.82777">
        <ele>135.4</ele>
        <time>2017-10-17T10:13:23Z</time>
      </trkpt>
      <trkpt lat="43.63877" lon="3.82773">
        <ele>135.3</ele>
        <time>2017-10-17T10:13:25Z</time>
      </trkpt>
      <trkpt lat="43.63884" lon="3.82771">
        <ele>135.1</ele>
        <time>2017-10-17T10:13:27Z</time>
      </trkpt>
      <trkpt lat="43.63891" lon="3.82779">
        <ele>134.9</ele>
        <time>2017-10-17T10:13:30Z</time>
      </trkpt>
      <trkpt lat="43.63894" lon="3.8279">
        <ele>134.6</ele>
        <time>2017-10-17T10:13:32Z</time>
      </trkpt>
      <trkpt lat="43.63901" lon="3.828">
        <ele>134.4</ele>
        <time>2017-10-17T10:13:36Z</time>
      </trkpt>
      <trkpt lat="43.63909" lon="3.82802">
        <ele>133.9</ele>
        <time>2017-10-17T10:13:39Z</time>
      </trkpt>
      <trkpt lat="43.63918" lon="3.82809">
        <ele>132.4</ele>
        <time>2017-10-17T10:13:41Z</time>
      </trkpt>
      <trkpt lat="43.63925" lon="3.82819">
        <ele>132.2</ele>
        <time>2017-10-17T10:13:44Z</time>
      </trkpt>
      <trkpt lat="43.63925" lon="3.82825">
        <ele>132.3</ele>
        <time>2017-10-17T10:13:51Z</time>
      </trkpt>
      <trkpt lat="43.63933" lon="3.82819">
        <ele>132.3</ele>
        <time>2017-10-17T10:13:54Z</time>
      </trkpt>
      <trkpt lat="43.63942" lon="3.82814">
        <ele>132.3</ele>
        <time>2017-10-17T10:13:57Z</time>
      </trkpt>
      <trkpt lat="43.63948" lon="3.82809">
        <ele>132.1</ele>
        <time>2017-10-17T10:13:59Z</time>
      </trkpt>
      <trkpt lat="43.63955" lon="3.82804">
        <ele>132.1</ele>
        <time>2017-10-17T10:14:01Z</time>
      </trkpt>
      <trkpt lat="43.63964" lon="3.828">
        <ele>132.1</ele>
        <time>2017-10-17T10:14:04Z</time>
      </trkpt>
      <trkpt lat="43.63973" lon="3.82798">
        <ele>132</ele>
        <time>2017-10-17T10:14:06Z</time>
      </trkpt>
      <trkpt lat="43.63982" lon="3.82792">
        <ele>132.1</ele>
        <time>2017-10-17T10:14:08Z</time>
      </trkpt>
      <trkpt lat="43.63993" lon="3.82789">
        <ele>132.2</ele>
        <time>2017-10-17T10:14:10Z</time>
      </trkpt>
      <trkpt lat="43.64" lon="3.82788">
        <ele>132.2</ele>
        <time>2017-10-17T10:14:12Z</time>
      </trkpt>
      <trkpt lat="43.64011" lon="3.82784">
        <ele>132.2</ele>
        <time>2017-10-17T10:14:15Z</time>
      </trkpt>
      <trkpt lat="43.64018" lon="3.8278">
        <ele>132.2</ele>
        <time>2017-10-17T10:14:17Z</time>
      </trkpt>
      <trkpt lat="43.64025" lon="3.82776">
        <ele>132.2</ele>
        <time>2017-10-17T10:14:19Z</time>
      </trkpt>
      <trkpt lat="43.64032" lon="3.82772">
        <ele>132.1</ele>
        <time>2017-10-17T10:14:21Z</time>
      </trkpt>
      <trkpt lat="43.64039" lon="3.82768">
        <ele>132</ele>
        <time>2017-10-17T10:14:23Z</time>
      </trkpt>
      <trkpt lat="43.64048" lon="3.82763">
        <ele>130.4</ele>
        <time>2017-10-17T10:14:25Z</time>
      </trkpt>
      <trkpt lat="43.64055" lon="3.82758">
        <ele>129.3</ele>
        <time>2017-10-17T10:14:27Z</time>
      </trkpt>
      <trkpt lat="43.64062" lon="3.82753">
        <ele>127.8</ele>
        <time>2017-10-17T10:14:29Z</time>
      </trkpt>
      <trkpt lat="43.64069" lon="3.82747">
        <ele>127.7</ele>
        <time>2017-10-17T10:14:31Z</time>
      </trkpt>
      <trkpt lat="43.64076" lon="3.82741">
        <ele>127.1</ele>
        <time>2017-10-17T10:14:33Z</time>
      </trkpt>
      <trkpt lat="43.64084" lon="3.82734">
        <ele>126.5</ele>
        <time>2017-10-17T10:14:35Z</time>
      </trkpt>
      <trkpt lat="43.64091" lon="3.82728">
        <ele>126.2</ele>
        <time>2017-10-17T10:14:37Z</time>
      </trkpt>
      <trkpt lat="43.64098" lon="3.82722">
        <ele>125.7</ele>
        <time>2017-10-17T10:14:39Z</time>
      </trkpt>
      <trkpt lat="43.64105" lon="3.82715">
        <ele>125.3</ele>
        <time>2017-10-17T10:14:41Z</time>
      </trkpt>
      <trkpt lat="43.64112" lon="3.82709">
        <ele>125.3</ele>
        <time>2017-10-17T10:14:43Z</time>
      </trkpt>
      <trkpt lat="43.64118" lon="3.82702">
        <ele>125.6</ele>
        <time>2017-10-17T10:14:45Z</time>
      </trkpt>
      <trkpt lat="43.64124" lon="3.82696">
        <ele>126</ele>
        <time>2017-10-17T10:14:47Z</time>
      </trkpt>
      <trkpt lat="43.64131" lon="3.82689">
        <ele>126.3</ele>
        <time>2017-10-17T10:14:49Z</time>
      </trkpt>
      <trkpt lat="43.64138" lon="3.82682">
        <ele>126.5</ele>
        <time>2017-10-17T10:14:51Z</time>
      </trkpt>
      <trkpt lat="43.64144" lon="3.82674">
        <ele>126.7</ele>
        <time>2017-10-17T10:14:53Z</time>
      </trkpt>
      <trkpt lat="43.64151" lon="3.82667">
        <ele>126.4</ele>
        <time>2017-10-17T10:14:55Z</time>
      </trkpt>
      <trkpt lat="43.64158" lon="3.82657">
        <ele>126.4</ele>
        <time>2017-10-17T10:14:58Z</time>
      </trkpt>
      <trkpt lat="43.64164" lon="3.82649">
        <ele>126.4</ele>
        <time>2017-10-17T10:15:01Z</time>
      </trkpt>
      <trkpt lat="43.64171" lon="3.82644">
        <ele>126.5</ele>
        <time>2017-10-17T10:15:06Z</time>
      </trkpt>
      <trkpt lat="43.64177" lon="3.82634">
        <ele>126.7</ele>
        <time>2017-10-17T10:15:10Z</time>
      </trkpt>
      <trkpt lat="43.64184" lon="3.82632">
        <ele>127.4</ele>
        <time>2017-10-17T10:15:15Z</time>
      </trkpt>
      <trkpt lat="43.64189" lon="3.82639">
        <ele>127.9</ele>
        <time>2017-10-17T10:15:17Z</time>
      </trkpt>
      <trkpt lat="43.64198" lon="3.82644">
        <ele>128.5</ele>
        <time>2017-10-17T10:15:20Z</time>
      </trkpt>
      <trkpt lat="43.64205" lon="3.82646">
        <ele>132.2</ele>
        <time>2017-10-17T10:15:22Z</time>
      </trkpt>
      <trkpt lat="43.64216" lon="3.82649">
        <ele>134.8</ele>
        <time>2017-10-17T10:15:24Z</time>
      </trkpt>
      <trkpt lat="43.64224" lon="3.82651">
        <ele>135.8</ele>
        <time>2017-10-17T10:15:25Z</time>
      </trkpt>
      <trkpt lat="43.64231" lon="3.82655">
        <ele>136.3</ele>
        <time>2017-10-17T10:15:26Z</time>
      </trkpt>
      <trkpt lat="43.64239" lon="3.82659">
        <ele>136.7</ele>
        <time>2017-10-17T10:15:27Z</time>
      </trkpt>
      <trkpt lat="43.6425" lon="3.82666">
        <ele>136.7</ele>
        <time>2017-10-17T10:15:29Z</time>
      </trkpt>
      <trkpt lat="43.6426" lon="3.82671">
        <ele>136.8</ele>
        <time>2017-10-17T10:15:31Z</time>
      </trkpt>
      <trkpt lat="43.64269" lon="3.82671">
        <ele>136.7</ele>
        <time>2017-10-17T10:15:33Z</time>
      </trkpt>
      <trkpt lat="43.64277" lon="3.82671">
        <ele>136.6</ele>
        <time>2017-10-17T10:15:35Z</time>
      </trkpt>
      <trkpt lat="43.64285" lon="3.82674">
        <ele>136.6</ele>
        <time>2017-10-17T10:15:38Z</time>
      </trkpt>
      <trkpt lat="43.64293" lon="3.82678">
        <ele>136.5</ele>
        <time>2017-10-17T10:15:41Z</time>
      </trkpt>
      <trkpt lat="43.64302" lon="3.82689">
        <ele>137.4</ele>
        <time>2017-10-17T10:15:44Z</time>
      </trkpt>
      <trkpt lat="43.64309" lon="3.82696">
        <ele>137.8</ele>
        <time>2017-10-17T10:15:46Z</time>
      </trkpt>
      <trkpt lat="43.64317" lon="3.82705">
        <ele>138</ele>
        <time>2017-10-17T10:15:49Z</time>
      </trkpt>
      <trkpt lat="43.64323" lon="3.8271">
        <ele>138.1</ele>
        <time>2017-10-17T10:15:51Z</time>
      </trkpt>
      <trkpt lat="43.64331" lon="3.82713">
        <ele>138.4</ele>
        <time>2017-10-17T10:15:56Z</time>
      </trkpt>
      <trkpt lat="43.64339" lon="3.82714">
        <ele>139.1</ele>
        <time>2017-10-17T10:16:02Z</time>
      </trkpt>
      <trkpt lat="43.64346" lon="3.82716">
        <ele>139.4</ele>
        <time>2017-10-17T10:16:05Z</time>
      </trkpt>
      <trkpt lat="43.64354" lon="3.82721">
        <ele>139.9</ele>
        <time>2017-10-17T10:16:09Z</time>
      </trkpt>
      <trkpt lat="43.64362" lon="3.82725">
        <ele>140.2</ele>
        <time>2017-10-17T10:16:12Z</time>
      </trkpt>
      <trkpt lat="43.64369" lon="3.82729">
        <ele>140.4</ele>
        <time>2017-10-17T10:16:15Z</time>
      </trkpt>
      <trkpt lat="43.6438" lon="3.82731">
        <ele>140.8</ele>
        <time>2017-10-17T10:16:18Z</time>
      </trkpt>
      <trkpt lat="43.6439" lon="3.8273">
        <ele>141.5</ele>
        <time>2017-10-17T10:16:21Z</time>
      </trkpt>
      <trkpt lat="43.64399" lon="3.82729">
        <ele>142.3</ele>
        <time>2017-10-17T10:16:24Z</time>
      </trkpt>
      <trkpt lat="43.64409" lon="3.82729">
        <ele>143.1</ele>
        <time>2017-10-17T10:16:27Z</time>
      </trkpt>
      <trkpt lat="43.64417" lon="3.82728">
        <ele>144.1</ele>
        <time>2017-10-17T10:16:31Z</time>
      </trkpt>
      <trkpt lat="43.64427" lon="3.82728">
        <ele>145</ele>
        <time>2017-10-17T10:16:35Z</time>
      </trkpt>
      <trkpt lat="43.64438" lon="3.82729">
        <ele>145.7</ele>
        <time>2017-10-17T10:16:38Z</time>
      </trkpt>
      <trkpt lat="43.64445" lon="3.82729">
        <ele>146.1</ele>
        <time>2017-10-17T10:16:40Z</time>
      </trkpt>
      <trkpt lat="43.64454" lon="3.82728">
        <ele>146.7</ele>
        <time>2017-10-17T10:16:43Z</time>
      </trkpt>
      <trkpt lat="43.64463" lon="3.82727">
        <ele>147.3</ele>
        <time>2017-10-17T10:16:46Z</time>
      </trkpt>
      <trkpt lat="43.64472" lon="3.82727">
        <ele>147.8</ele>
        <time>2017-10-17T10:16:49Z</time>
      </trkpt>
      <trkpt lat="43.64482" lon="3.82724">
        <ele>148.3</ele>
        <time>2017-10-17T10:16:52Z</time>
      </trkpt>
      <trkpt lat="43.6449" lon="3.82724">
        <ele>148.9</ele>
        <time>2017-10-17T10:16:55Z</time>
      </trkpt>
      <trkpt lat="43.645" lon="3.82722">
        <ele>149.7</ele>
        <time>2017-10-17T10:16:59Z</time>
      </trkpt>
      <trkpt lat="43.6451" lon="3.82723">
        <ele>150.3</ele>
        <time>2017-10-17T10:17:02Z</time>
      </trkpt>
      <trkpt lat="43.64518" lon="3.82724">
        <ele>151.1</ele>
        <time>2017-10-17T10:17:07Z</time>
      </trkpt>
      <trkpt lat="43.64526" lon="3.82718">
        <ele>151.4</ele>
        <time>2017-10-17T10:17:10Z</time>
      </trkpt>
      <trkpt lat="43.64532" lon="3.82713">
        <ele>151.6</ele>
        <time>2017-10-17T10:17:13Z</time>
      </trkpt>
      <trkpt lat="43.6454" lon="3.82712">
        <ele>151.8</ele>
        <time>2017-10-17T10:17:16Z</time>
      </trkpt>
      <trkpt lat="43.64549" lon="3.82713">
        <ele>152.1</ele>
        <time>2017-10-17T10:17:19Z</time>
      </trkpt>
      <trkpt lat="43.64557" lon="3.82708">
        <ele>152.3</ele>
        <time>2017-10-17T10:17:22Z</time>
      </trkpt>
      <trkpt lat="43.64565" lon="3.82702">
        <ele>152.5</ele>
        <time>2017-10-17T10:17:26Z</time>
      </trkpt>
      <trkpt lat="43.64573" lon="3.82695">
        <ele>152.7</ele>
        <time>2017-10-17T10:17:29Z</time>
      </trkpt>
      <trkpt lat="43.64581" lon="3.82689">
        <ele>152.8</ele>
        <time>2017-10-17T10:17:32Z</time>
      </trkpt>
      <trkpt lat="43.64589" lon="3.82682">
        <ele>153</ele>
        <time>2017-10-17T10:17:35Z</time>
      </trkpt>
      <trkpt lat="43.64598" lon="3.82673">
        <ele>154.9</ele>
        <time>2017-10-17T10:17:38Z</time>
      </trkpt>
      <trkpt lat="43.64605" lon="3.82667">
        <ele>155.6</ele>
        <time>2017-10-17T10:17:40Z</time>
      </trkpt>
      <trkpt lat="43.64615" lon="3.82668">
        <ele>155.7</ele>
        <time>2017-10-17T10:17:42Z</time>
      </trkpt>
      <trkpt lat="43.64622" lon="3.8267">
        <ele>155.9</ele>
        <time>2017-10-17T10:17:44Z</time>
      </trkpt>
      <trkpt lat="43.64632" lon="3.82667">
        <ele>156.4</ele>
        <time>2017-10-17T10:17:47Z</time>
      </trkpt>
      <trkpt lat="43.64641" lon="3.82664">
        <ele>156.9</ele>
        <time>2017-10-17T10:17:50Z</time>
      </trkpt>
      <trkpt lat="43.6465" lon="3.82658">
        <ele>157.4</ele>
        <time>2017-10-17T10:17:53Z</time>
      </trkpt>
      <trkpt lat="43.64656" lon="3.82651">
        <ele>157.8</ele>
        <time>2017-10-17T10:17:56Z</time>
      </trkpt>
      <trkpt lat="43.64662" lon="3.82644">
        <ele>158.3</ele>
        <time>2017-10-17T10:17:59Z</time>
      </trkpt>
      <trkpt lat="43.64669" lon="3.82644">
        <ele>160.5</ele>
        <time>2017-10-17T10:18:06Z</time>
      </trkpt>
      <trkpt lat="43.64682" lon="3.82647">
        <ele>161.5</ele>
        <time>2017-10-17T10:18:08Z</time>
      </trkpt>
      <trkpt lat="43.64694" lon="3.82647">
        <ele>162.9</ele>
        <time>2017-10-17T10:18:10Z</time>
      </trkpt>
      <trkpt lat="43.64704" lon="3.82642">
        <ele>163.4</ele>
        <time>2017-10-17T10:18:12Z</time>
      </trkpt>
      <trkpt lat="43.64713" lon="3.82639">
        <ele>162.7</ele>
        <time>2017-10-17T10:18:14Z</time>
      </trkpt>
      <trkpt lat="43.64723" lon="3.82637">
        <ele>162.6</ele>
        <time>2017-10-17T10:18:16Z</time>
      </trkpt>
      <trkpt lat="43.64731" lon="3.82634">
        <ele>162.6</ele>
        <time>2017-10-17T10:18:18Z</time>
      </trkpt>
      <trkpt lat="43.6474" lon="3.82629">
        <ele>162.6</ele>
        <time>2017-10-17T10:18:20Z</time>
      </trkpt>
      <trkpt lat="43.6475" lon="3.82624">
        <ele>162.7</ele>
        <time>2017-10-17T10:18:23Z</time>
      </trkpt>
      <trkpt lat="43.64758" lon="3.82621">
        <ele>162.8</ele>
        <time>2017-10-17T10:18:27Z</time>
      </trkpt>
      <trkpt lat="43.64765" lon="3.82617">
        <ele>162.9</ele>
        <time>2017-10-17T10:18:29Z</time>
      </trkpt>
      <trkpt lat="43.64772" lon="3.82614">
        <ele>163.8</ele>
        <time>2017-10-17T10:18:31Z</time>
      </trkpt>
      <trkpt lat="43.64783" lon="3.8261">
        <ele>166.2</ele>
        <time>2017-10-17T10:18:34Z</time>
      </trkpt>
      <trkpt lat="43.64793" lon="3.82602">
        <ele>167.1</ele>
        <time>2017-10-17T10:18:37Z</time>
      </trkpt>
      <trkpt lat="43.648" lon="3.82599">
        <ele>166.7</ele>
        <time>2017-10-17T10:18:39Z</time>
      </trkpt>
      <trkpt lat="43.64808" lon="3.82599">
        <ele>166.4</ele>
        <time>2017-10-17T10:18:41Z</time>
      </trkpt>
      <trkpt lat="43.64818" lon="3.82598">
        <ele>166.7</ele>
        <time>2017-10-17T10:18:43Z</time>
      </trkpt>
      <trkpt lat="43.64829" lon="3.82597">
        <ele>167.5</ele>
        <time>2017-10-17T10:18:46Z</time>
      </trkpt>
      <trkpt lat="43.64837" lon="3.82595">
        <ele>168</ele>
        <time>2017-10-17T10:18:48Z</time>
      </trkpt>
      <trkpt lat="43.64847" lon="3.82592">
        <ele>168.1</ele>
        <time>2017-10-17T10:18:50Z</time>
      </trkpt>
      <trkpt lat="43.64855" lon="3.82592">
        <ele>168</ele>
        <time>2017-10-17T10:18:52Z</time>
      </trkpt>
      <trkpt lat="43.64864" lon="3.82592">
        <ele>166.7</ele>
        <time>2017-10-17T10:18:54Z</time>
      </trkpt>
      <trkpt lat="43.64874" lon="3.82595">
        <ele>165.8</ele>
        <time>2017-10-17T10:18:56Z</time>
      </trkpt>
      <trkpt lat="43.64883" lon="3.82597">
        <ele>165.2</ele>
        <time>2017-10-17T10:18:58Z</time>
      </trkpt>
      <trkpt lat="43.64895" lon="3.82598">
        <ele>165.1</ele>
        <time>2017-10-17T10:19:00Z</time>
      </trkpt>
      <trkpt lat="43.64905" lon="3.82598">
        <ele>165.2</ele>
        <time>2017-10-17T10:19:02Z</time>
      </trkpt>
      <trkpt lat="43.64915" lon="3.82597">
        <ele>165.4</ele>
        <time>2017-10-17T10:19:04Z</time>
      </trkpt>
      <trkpt lat="43.64927" lon="3.82597">
        <ele>166</ele>
        <time>2017-10-17T10:19:06Z</time>
      </trkpt>
      <trkpt lat="43.64937" lon="3.82594">
        <ele>166.2</ele>
        <time>2017-10-17T10:19:08Z</time>
      </trkpt>
      <trkpt lat="43.64947" lon="3.82595">
        <ele>166.3</ele>
        <time>2017-10-17T10:19:11Z</time>
      </trkpt>
      <trkpt lat="43.64955" lon="3.82597">
        <ele>166.4</ele>
        <time>2017-10-17T10:19:14Z</time>
      </trkpt>
      <trkpt lat="43.64963" lon="3.82594">
        <ele>166.4</ele>
        <time>2017-10-17T10:19:19Z</time>
      </trkpt>
      <trkpt lat="43.64971" lon="3.8259">
        <ele>166.5</ele>
        <time>2017-10-17T10:19:22Z</time>
      </trkpt>
      <trkpt lat="43.6498" lon="3.82589">
        <ele>166.7</ele>
        <time>2017-10-17T10:19:25Z</time>
      </trkpt>
      <trkpt lat="43.64987" lon="3.82587">
        <ele>166.9</ele>
        <time>2017-10-17T10:19:27Z</time>
      </trkpt>
      <trkpt lat="43.64997" lon="3.82587">
        <ele>167</ele>
        <time>2017-10-17T10:19:29Z</time>
      </trkpt>
      <trkpt lat="43.65006" lon="3.82587">
        <ele>167.3</ele>
        <time>2017-10-17T10:19:32Z</time>
      </trkpt>
      <trkpt lat="43.65014" lon="3.82586">
        <ele>167.5</ele>
        <time>2017-10-17T10:19:34Z</time>
      </trkpt>
      <trkpt lat="43.65021" lon="3.82585">
        <ele>167.7</ele>
        <time>2017-10-17T10:19:36Z</time>
      </trkpt>
      <trkpt lat="43.6503" lon="3.82585">
        <ele>167.8</ele>
        <time>2017-10-17T10:19:38Z</time>
      </trkpt>
      <trkpt lat="43.65041" lon="3.82585">
        <ele>167.8</ele>
        <time>2017-10-17T10:19:41Z</time>
      </trkpt>
      <trkpt lat="43.6505" lon="3.82583">
        <ele>167.8</ele>
        <time>2017-10-17T10:19:44Z</time>
      </trkpt>
      <trkpt lat="43.65057" lon="3.82582">
        <ele>167.7</ele>
        <time>2017-10-17T10:19:46Z</time>
      </trkpt>
      <trkpt lat="43.65065" lon="3.82582">
        <ele>167.5</ele>
        <time>2017-10-17T10:19:48Z</time>
      </trkpt>
      <trkpt lat="43.65073" lon="3.82581">
        <ele>167.7</ele>
        <time>2017-10-17T10:19:51Z</time>
      </trkpt>
      <trkpt lat="43.6508" lon="3.82579">
        <ele>167.7</ele>
        <time>2017-10-17T10:19:53Z</time>
      </trkpt>
      <trkpt lat="43.65087" lon="3.82575">
        <ele>167.8</ele>
        <time>2017-10-17T10:19:55Z</time>
      </trkpt>
      <trkpt lat="43.65094" lon="3.82571">
        <ele>167.4</ele>
        <time>2017-10-17T10:19:57Z</time>
      </trkpt>
      <trkpt lat="43.65102" lon="3.8256">
        <ele>167.4</ele>
        <time>2017-10-17T10:19:59Z</time>
      </trkpt>
      <trkpt lat="43.65106" lon="3.82551">
        <ele>166.9</ele>
        <time>2017-10-17T10:20:01Z</time>
      </trkpt>
      <trkpt lat="43.65111" lon="3.82544">
        <ele>165.8</ele>
        <time>2017-10-17T10:20:03Z</time>
      </trkpt>
      <trkpt lat="43.65124" lon="3.82527">
        <ele>164.5</ele>
        <time>2017-10-17T10:20:07Z</time>
      </trkpt>
      <trkpt lat="43.65131" lon="3.82517">
        <ele>163.8</ele>
        <time>2017-10-17T10:20:09Z</time>
      </trkpt>
      <trkpt lat="43.65136" lon="3.82509">
        <ele>163</ele>
        <time>2017-10-17T10:20:11Z</time>
      </trkpt>
      <trkpt lat="43.65142" lon="3.82501">
        <ele>162.9</ele>
        <time>2017-10-17T10:20:13Z</time>
      </trkpt>
      <trkpt lat="43.65149" lon="3.82494">
        <ele>162.8</ele>
        <time>2017-10-17T10:20:15Z</time>
      </trkpt>
      <trkpt lat="43.65157" lon="3.82492">
        <ele>162.7</ele>
        <time>2017-10-17T10:20:18Z</time>
      </trkpt>
      <trkpt lat="43.65165" lon="3.82499">
        <ele>163.4</ele>
        <time>2017-10-17T10:20:21Z</time>
      </trkpt>
      <trkpt lat="43.65173" lon="3.8251">
        <ele>164.3</ele>
        <time>2017-10-17T10:20:23Z</time>
      </trkpt>
      <trkpt lat="43.6518" lon="3.82521">
        <ele>165.7</ele>
        <time>2017-10-17T10:20:26Z</time>
      </trkpt>
      <trkpt lat="43.65187" lon="3.82532">
        <ele>167.3</ele>
        <time>2017-10-17T10:20:27Z</time>
      </trkpt>
      <trkpt lat="43.65196" lon="3.82546">
        <ele>168.4</ele>
        <time>2017-10-17T10:20:29Z</time>
      </trkpt>
      <trkpt lat="43.65199" lon="3.82555">
        <ele>169</ele>
        <time>2017-10-17T10:20:30Z</time>
      </trkpt>
      <trkpt lat="43.65205" lon="3.8257">
        <ele>168.6</ele>
        <time>2017-10-17T10:20:32Z</time>
      </trkpt>
      <trkpt lat="43.65214" lon="3.82581">
        <ele>168.7</ele>
        <time>2017-10-17T10:20:34Z</time>
      </trkpt>
      <trkpt lat="43.65222" lon="3.82587">
        <ele>168.8</ele>
        <time>2017-10-17T10:20:36Z</time>
      </trkpt>
      <trkpt lat="43.65232" lon="3.82591">
        <ele>169.1</ele>
        <time>2017-10-17T10:20:38Z</time>
      </trkpt>
      <trkpt lat="43.65238" lon="3.82596">
        <ele>169.1</ele>
        <time>2017-10-17T10:20:40Z</time>
      </trkpt>
      <trkpt lat="43.65245" lon="3.82601">
        <ele>169.1</ele>
        <time>2017-10-17T10:20:43Z</time>
      </trkpt>
      <trkpt lat="43.65252" lon="3.82607">
        <ele>169.1</ele>
        <time>2017-10-17T10:20:47Z</time>
      </trkpt>
      <trkpt lat="43.65258" lon="3.82613">
        <ele>169.2</ele>
        <time>2017-10-17T10:20:50Z</time>
      </trkpt>
      <trkpt lat="43.65263" lon="3.82621">
        <ele>169.5</ele>
        <time>2017-10-17T10:20:52Z</time>
      </trkpt>
      <trkpt lat="43.6527" lon="3.8263">
        <ele>169.9</ele>
        <time>2017-10-17T10:20:55Z</time>
      </trkpt>
      <trkpt lat="43.65275" lon="3.8264">
        <ele>170.4</ele>
        <time>2017-10-17T10:20:58Z</time>
      </trkpt>
      <trkpt lat="43.65282" lon="3.82647">
        <ele>171.2</ele>
        <time>2017-10-17T10:21:03Z</time>
      </trkpt>
      <trkpt lat="43.65294" lon="3.82657">
        <ele>171.8</ele>
        <time>2017-10-17T10:21:07Z</time>
      </trkpt>
      <trkpt lat="43.653" lon="3.82664">
        <ele>172.1</ele>
        <time>2017-10-17T10:21:09Z</time>
      </trkpt>
      <trkpt lat="43.65308" lon="3.82668">
        <ele>172.3</ele>
        <time>2017-10-17T10:21:11Z</time>
      </trkpt>
      <trkpt lat="43.65316" lon="3.82673">
        <ele>172.6</ele>
        <time>2017-10-17T10:21:14Z</time>
      </trkpt>
      <trkpt lat="43.65325" lon="3.82678">
        <ele>172.8</ele>
        <time>2017-10-17T10:21:16Z</time>
      </trkpt>
      <trkpt lat="43.65331" lon="3.82685">
        <ele>173.1</ele>
        <time>2017-10-17T10:21:18Z</time>
      </trkpt>
      <trkpt lat="43.65338" lon="3.82687">
        <ele>173.4</ele>
        <time>2017-10-17T10:21:20Z</time>
      </trkpt>
      <trkpt lat="43.65347" lon="3.82694">
        <ele>173.6</ele>
        <time>2017-10-17T10:21:23Z</time>
      </trkpt>
      <trkpt lat="43.65352" lon="3.82702">
        <ele>173.7</ele>
        <time>2017-10-17T10:21:25Z</time>
      </trkpt>
      <trkpt lat="43.65362" lon="3.82706">
        <ele>173.9</ele>
        <time>2017-10-17T10:21:27Z</time>
      </trkpt>
      <trkpt lat="43.6537" lon="3.82709">
        <ele>174.1</ele>
        <time>2017-10-17T10:21:29Z</time>
      </trkpt>
      <trkpt lat="43.65382" lon="3.82715">
        <ele>174.4</ele>
        <time>2017-10-17T10:21:32Z</time>
      </trkpt>
      <trkpt lat="43.65389" lon="3.8272">
        <ele>174.6</ele>
        <time>2017-10-17T10:21:34Z</time>
      </trkpt>
      <trkpt lat="43.65396" lon="3.82727">
        <ele>175</ele>
        <time>2017-10-17T10:21:37Z</time>
      </trkpt>
      <trkpt lat="43.65405" lon="3.82731">
        <ele>175.3</ele>
        <time>2017-10-17T10:21:39Z</time>
      </trkpt>
      <trkpt lat="43.65412" lon="3.82735">
        <ele>175.6</ele>
        <time>2017-10-17T10:21:42Z</time>
      </trkpt>
      <trkpt lat="43.6542" lon="3.82742">
        <ele>175.8</ele>
        <time>2017-10-17T10:21:45Z</time>
      </trkpt>
      <trkpt lat="43.65428" lon="3.82752">
        <ele>176.1</ele>
        <time>2017-10-17T10:21:47Z</time>
      </trkpt>
      <trkpt lat="43.65435" lon="3.82758">
        <ele>176.4</ele>
        <time>2017-10-17T10:21:49Z</time>
      </trkpt>
      <trkpt lat="43.65443" lon="3.82758">
        <ele>176.8</ele>
        <time>2017-10-17T10:21:52Z</time>
      </trkpt>
      <trkpt lat="43.6545" lon="3.8276">
        <ele>177.1</ele>
        <time>2017-10-17T10:21:54Z</time>
      </trkpt>
      <trkpt lat="43.65459" lon="3.82762">
        <ele>177.6</ele>
        <time>2017-10-17T10:21:57Z</time>
      </trkpt>
      <trkpt lat="43.65467" lon="3.82766">
        <ele>178</ele>
        <time>2017-10-17T10:22:00Z</time>
      </trkpt>
      <trkpt lat="43.65473" lon="3.82775">
        <ele>178.2</ele>
        <time>2017-10-17T10:22:02Z</time>
      </trkpt>
      <trkpt lat="43.65478" lon="3.82782">
        <ele>178.3</ele>
        <time>2017-10-17T10:22:03Z</time>
      </trkpt>
      <trkpt lat="43.65489" lon="3.82789">
        <ele>179.2</ele>
        <time>2017-10-17T10:22:05Z</time>
      </trkpt>
      <trkpt lat="43.65495" lon="3.82799">
        <ele>179.3</ele>
        <time>2017-10-17T10:22:07Z</time>
      </trkpt>
      <trkpt lat="43.65499" lon="3.82812">
        <ele>179.5</ele>
        <time>2017-10-17T10:22:09Z</time>
      </trkpt>
      <trkpt lat="43.65501" lon="3.82822">
        <ele>179.7</ele>
        <time>2017-10-17T10:22:11Z</time>
      </trkpt>
      <trkpt lat="43.65505" lon="3.82833">
        <ele>180.2</ele>
        <time>2017-10-17T10:22:16Z</time>
      </trkpt>
      <trkpt lat="43.65517" lon="3.8283">
        <ele>180.7</ele>
        <time>2017-10-17T10:22:20Z</time>
      </trkpt>
      <trkpt lat="43.6553" lon="3.82828">
        <ele>181</ele>
        <time>2017-10-17T10:22:23Z</time>
      </trkpt>
      <trkpt lat="43.65542" lon="3.82823">
        <ele>181</ele>
        <time>2017-10-17T10:22:24Z</time>
      </trkpt>
      <trkpt lat="43.6555" lon="3.82821">
        <ele>181</ele>
        <time>2017-10-17T10:22:26Z</time>
      </trkpt>
      <trkpt lat="43.65562" lon="3.82827">
        <ele>180.8</ele>
        <time>2017-10-17T10:22:29Z</time>
      </trkpt>
      <trkpt lat="43.65572" lon="3.82836">
        <ele>179.6</ele>
        <time>2017-10-17T10:22:31Z</time>
      </trkpt>
      <trkpt lat="43.65585" lon="3.8284">
        <ele>179.3</ele>
        <time>2017-10-17T10:22:33Z</time>
      </trkpt>
      <trkpt lat="43.65593" lon="3.82842">
        <ele>179</ele>
        <time>2017-10-17T10:22:34Z</time>
      </trkpt>
      <trkpt lat="43.65606" lon="3.82854">
        <ele>177.2</ele>
        <time>2017-10-17T10:22:36Z</time>
      </trkpt>
      <trkpt lat="43.65614" lon="3.8286">
        <ele>176.1</ele>
        <time>2017-10-17T10:22:37Z</time>
      </trkpt>
      <trkpt lat="43.65621" lon="3.82864">
        <ele>174.1</ele>
        <time>2017-10-17T10:22:38Z</time>
      </trkpt>
      <trkpt lat="43.65628" lon="3.8287">
        <ele>172</ele>
        <time>2017-10-17T10:22:39Z</time>
      </trkpt>
      <trkpt lat="43.65636" lon="3.82877">
        <ele>170</ele>
        <time>2017-10-17T10:22:40Z</time>
      </trkpt>
      <trkpt lat="43.65644" lon="3.82884">
        <ele>168</ele>
        <time>2017-10-17T10:22:41Z</time>
      </trkpt>
      <trkpt lat="43.65652" lon="3.82888">
        <ele>166.6</ele>
        <time>2017-10-17T10:22:42Z</time>
      </trkpt>
      <trkpt lat="43.6566" lon="3.82891">
        <ele>165.5</ele>
        <time>2017-10-17T10:22:43Z</time>
      </trkpt>
      <trkpt lat="43.65668" lon="3.82896">
        <ele>164.3</ele>
        <time>2017-10-17T10:22:44Z</time>
      </trkpt>
      <trkpt lat="43.65676" lon="3.82899">
        <ele>162.9</ele>
        <time>2017-10-17T10:22:45Z</time>
      </trkpt>
      <trkpt lat="43.65684" lon="3.82902">
        <ele>162.1</ele>
        <time>2017-10-17T10:22:46Z</time>
      </trkpt>
      <trkpt lat="43.65691" lon="3.82905">
        <ele>161.9</ele>
        <time>2017-10-17T10:22:47Z</time>
      </trkpt>
      <trkpt lat="43.65702" lon="3.8291">
        <ele>160.6</ele>
        <time>2017-10-17T10:22:49Z</time>
      </trkpt>
      <trkpt lat="43.65713" lon="3.82911">
        <ele>159.3</ele>
        <time>2017-10-17T10:22:51Z</time>
      </trkpt>
      <trkpt lat="43.65721" lon="3.82917">
        <ele>158.9</ele>
        <time>2017-10-17T10:22:56Z</time>
      </trkpt>
      <trkpt lat="43.65732" lon="3.82917">
        <ele>158.2</ele>
        <time>2017-10-17T10:23:01Z</time>
      </trkpt>
      <trkpt lat="43.65735" lon="3.82928">
        <ele>154.5</ele>
        <time>2017-10-17T10:23:03Z</time>
      </trkpt>
      <trkpt lat="43.6574" lon="3.82944">
        <ele>151.2</ele>
        <time>2017-10-17T10:23:05Z</time>
      </trkpt>
      <trkpt lat="43.65747" lon="3.8296">
        <ele>148.3</ele>
        <time>2017-10-17T10:23:07Z</time>
      </trkpt>
      <trkpt lat="43.6575" lon="3.82969">
        <ele>147</ele>
        <time>2017-10-17T10:23:08Z</time>
      </trkpt>
      <trkpt lat="43.65751" lon="3.8298">
        <ele>145.9</ele>
        <time>2017-10-17T10:23:09Z</time>
      </trkpt>
      <trkpt lat="43.65755" lon="3.8299">
        <ele>144.6</ele>
        <time>2017-10-17T10:23:10Z</time>
      </trkpt>
      <trkpt lat="43.65763" lon="3.83004">
        <ele>142.4</ele>
        <time>2017-10-17T10:23:12Z</time>
      </trkpt>
      <trkpt lat="43.65773" lon="3.83018">
        <ele>141.5</ele>
        <time>2017-10-17T10:23:14Z</time>
      </trkpt>
      <trkpt lat="43.65782" lon="3.83024">
        <ele>141.4</ele>
        <time>2017-10-17T10:23:16Z</time>
      </trkpt>
      <trkpt lat="43.65791" lon="3.83022">
        <ele>141.2</ele>
        <time>2017-10-17T10:23:19Z</time>
      </trkpt>
      <trkpt lat="43.65799" lon="3.83016">
        <ele>140.9</ele>
        <time>2017-10-17T10:23:22Z</time>
      </trkpt>
      <trkpt lat="43.65806" lon="3.83012">
        <ele>140.6</ele>
        <time>2017-10-17T10:23:25Z</time>
      </trkpt>
      <trkpt lat="43.65812" lon="3.83006">
        <ele>140.3</ele>
        <time>2017-10-17T10:23:28Z</time>
      </trkpt>
      <trkpt lat="43.6582" lon="3.82999">
        <ele>140.1</ele>
        <time>2017-10-17T10:23:31Z</time>
      </trkpt>
      <trkpt lat="43.65825" lon="3.82989">
        <ele>139.9</ele>
        <time>2017-10-17T10:23:34Z</time>
      </trkpt>
      <trkpt lat="43.65829" lon="3.82978">
        <ele>138.8</ele>
        <time>2017-10-17T10:23:36Z</time>
      </trkpt>
      <trkpt lat="43.65831" lon="3.82965">
        <ele>138.4</ele>
        <time>2017-10-17T10:23:38Z</time>
      </trkpt>
      <trkpt lat="43.65831" lon="3.8295">
        <ele>137.7</ele>
        <time>2017-10-17T10:23:40Z</time>
      </trkpt>
      <trkpt lat="43.65834" lon="3.82935">
        <ele>137.4</ele>
        <time>2017-10-17T10:23:42Z</time>
      </trkpt>
      <trkpt lat="43.65839" lon="3.82921">
        <ele>137.1</ele>
        <time>2017-10-17T10:23:44Z</time>
      </trkpt>
      <trkpt lat="43.65846" lon="3.8291">
        <ele>137.1</ele>
        <time>2017-10-17T10:23:46Z</time>
      </trkpt>
      <trkpt lat="43.65854" lon="3.82903">
        <ele>137.5</ele>
        <time>2017-10-17T10:23:48Z</time>
      </trkpt>
      <trkpt lat="43.65863" lon="3.82897">
        <ele>137.8</ele>
        <time>2017-10-17T10:23:50Z</time>
      </trkpt>
      <trkpt lat="43.65873" lon="3.82895">
        <ele>138.1</ele>
        <time>2017-10-17T10:23:52Z</time>
      </trkpt>
      <trkpt lat="43.65883" lon="3.82893">
        <ele>138.5</ele>
        <time>2017-10-17T10:23:54Z</time>
      </trkpt>
      <trkpt lat="43.65891" lon="3.8289">
        <ele>138.8</ele>
        <time>2017-10-17T10:23:56Z</time>
      </trkpt>
      <trkpt lat="43.65898" lon="3.82887">
        <ele>138.9</ele>
        <time>2017-10-17T10:23:58Z</time>
      </trkpt>
      <trkpt lat="43.65905" lon="3.82884">
        <ele>138.9</ele>
        <time>2017-10-17T10:24:00Z</time>
      </trkpt>
      <trkpt lat="43.65913" lon="3.82884">
        <ele>138.9</ele>
        <time>2017-10-17T10:24:02Z</time>
      </trkpt>
      <trkpt lat="43.65921" lon="3.82882">
        <ele>139</ele>
        <time>2017-10-17T10:24:05Z</time>
      </trkpt>
      <trkpt lat="43.6593" lon="3.82879">
        <ele>139.2</ele>
        <time>2017-10-17T10:24:08Z</time>
      </trkpt>
      <trkpt lat="43.65939" lon="3.82874">
        <ele>139.5</ele>
        <time>2017-10-17T10:24:11Z</time>
      </trkpt>
      <trkpt lat="43.65944" lon="3.82864">
        <ele>139.8</ele>
        <time>2017-10-17T10:24:14Z</time>
      </trkpt>
      <trkpt lat="43.65947" lon="3.82854">
        <ele>140.1</ele>
        <time>2017-10-17T10:24:17Z</time>
      </trkpt>
      <trkpt lat="43.65952" lon="3.82842">
        <ele>140.5</ele>
        <time>2017-10-17T10:24:20Z</time>
      </trkpt>
      <trkpt lat="43.65956" lon="3.82834">
        <ele>141.6</ele>
        <time>2017-10-17T10:24:22Z</time>
      </trkpt>
      <trkpt lat="43.65959" lon="3.82823">
        <ele>141.7</ele>
        <time>2017-10-17T10:24:24Z</time>
      </trkpt>
      <trkpt lat="43.65967" lon="3.82816">
        <ele>142</ele>
        <time>2017-10-17T10:24:27Z</time>
      </trkpt>
      <trkpt lat="43.65974" lon="3.82822">
        <ele>142.2</ele>
        <time>2017-10-17T10:24:30Z</time>
      </trkpt>
      <trkpt lat="43.65979" lon="3.82833">
        <ele>142.8</ele>
        <time>2017-10-17T10:24:36Z</time>
      </trkpt>
      <trkpt lat="43.65986" lon="3.82828">
        <ele>143.2</ele>
        <time>2017-10-17T10:24:39Z</time>
      </trkpt>
      <trkpt lat="43.65992" lon="3.8282">
        <ele>143.6</ele>
        <time>2017-10-17T10:24:42Z</time>
      </trkpt>
      <trkpt lat="43.65998" lon="3.82814">
        <ele>144</ele>
        <time>2017-10-17T10:24:45Z</time>
      </trkpt>
      <trkpt lat="43.66005" lon="3.82805">
        <ele>144.5</ele>
        <time>2017-10-17T10:24:48Z</time>
      </trkpt>
      <trkpt lat="43.66013" lon="3.82798">
        <ele>145.1</ele>
        <time>2017-10-17T10:24:52Z</time>
      </trkpt>
      <trkpt lat="43.66021" lon="3.82792">
        <ele>145.7</ele>
        <time>2017-10-17T10:24:55Z</time>
      </trkpt>
      <trkpt lat="43.66028" lon="3.82783">
        <ele>146.2</ele>
        <time>2017-10-17T10:24:58Z</time>
      </trkpt>
      <trkpt lat="43.66034" lon="3.82775">
        <ele>147.8</ele>
        <time>2017-10-17T10:25:00Z</time>
      </trkpt>
      <trkpt lat="43.66042" lon="3.82767">
        <ele>149.5</ele>
        <time>2017-10-17T10:25:02Z</time>
      </trkpt>
      <trkpt lat="43.6605" lon="3.82755">
        <ele>150.8</ele>
        <time>2017-10-17T10:25:04Z</time>
      </trkpt>
      <trkpt lat="43.66058" lon="3.82743">
        <ele>151</ele>
        <time>2017-10-17T10:25:06Z</time>
      </trkpt>
      <trkpt lat="43.66065" lon="3.82729">
        <ele>150.7</ele>
        <time>2017-10-17T10:25:08Z</time>
      </trkpt>
      <trkpt lat="43.66075" lon="3.82713">
        <ele>150.1</ele>
        <time>2017-10-17T10:25:10Z</time>
      </trkpt>
      <trkpt lat="43.6608" lon="3.82705">
        <ele>150</ele>
        <time>2017-10-17T10:25:11Z</time>
      </trkpt>
      <trkpt lat="43.66087" lon="3.82698">
        <ele>149.9</ele>
        <time>2017-10-17T10:25:12Z</time>
      </trkpt>
      <trkpt lat="43.66094" lon="3.82694">
        <ele>149.8</ele>
        <time>2017-10-17T10:25:13Z</time>
      </trkpt>
      <trkpt lat="43.66105" lon="3.82687">
        <ele>149.2</ele>
        <time>2017-10-17T10:25:15Z</time>
      </trkpt>
      <trkpt lat="43.66117" lon="3.82685">
        <ele>149.1</ele>
        <time>2017-10-17T10:25:17Z</time>
      </trkpt>
      <trkpt lat="43.66126" lon="3.82685">
        <ele>149.2</ele>
        <time>2017-10-17T10:25:19Z</time>
      </trkpt>
      <trkpt lat="43.66135" lon="3.82685">
        <ele>149.5</ele>
        <time>2017-10-17T10:25:21Z</time>
      </trkpt>
      <trkpt lat="43.66143" lon="3.82684">
        <ele>149.6</ele>
        <time>2017-10-17T10:25:24Z</time>
      </trkpt>
      <trkpt lat="43.66153" lon="3.8269">
        <ele>149.8</ele>
        <time>2017-10-17T10:25:27Z</time>
      </trkpt>
      <trkpt lat="43.66162" lon="3.82698">
        <ele>149.9</ele>
        <time>2017-10-17T10:25:30Z</time>
      </trkpt>
      <trkpt lat="43.66169" lon="3.82704">
        <ele>150.1</ele>
        <time>2017-10-17T10:25:33Z</time>
      </trkpt>
      <trkpt lat="43.66175" lon="3.82709">
        <ele>150.3</ele>
        <time>2017-10-17T10:25:35Z</time>
      </trkpt>
      <trkpt lat="43.66184" lon="3.82705">
        <ele>150.7</ele>
        <time>2017-10-17T10:25:39Z</time>
      </trkpt>
      <trkpt lat="43.66188" lon="3.8269">
        <ele>151.5</ele>
        <time>2017-10-17T10:25:42Z</time>
      </trkpt>
      <trkpt lat="43.66192" lon="3.82676">
        <ele>152.1</ele>
        <time>2017-10-17T10:25:44Z</time>
      </trkpt>
      <trkpt lat="43.66198" lon="3.8266">
        <ele>152</ele>
        <time>2017-10-17T10:25:46Z</time>
      </trkpt>
      <trkpt lat="43.66202" lon="3.82645">
        <ele>151.7</ele>
        <time>2017-10-17T10:25:48Z</time>
      </trkpt>
      <trkpt lat="43.66207" lon="3.82631">
        <ele>151</ele>
        <time>2017-10-17T10:25:50Z</time>
      </trkpt>
      <trkpt lat="43.66215" lon="3.82619">
        <ele>150.3</ele>
        <time>2017-10-17T10:25:52Z</time>
      </trkpt>
      <trkpt lat="43.66222" lon="3.82612">
        <ele>150.1</ele>
        <time>2017-10-17T10:25:54Z</time>
      </trkpt>
      <trkpt lat="43.66228" lon="3.82605">
        <ele>151</ele>
        <time>2017-10-17T10:25:56Z</time>
      </trkpt>
      <trkpt lat="43.66238" lon="3.82601">
        <ele>151.5</ele>
        <time>2017-10-17T10:25:58Z</time>
      </trkpt>
      <trkpt lat="43.66248" lon="3.82597">
        <ele>151.7</ele>
        <time>2017-10-17T10:26:01Z</time>
      </trkpt>
      <trkpt lat="43.66255" lon="3.82594">
        <ele>151.8</ele>
        <time>2017-10-17T10:26:03Z</time>
      </trkpt>
      <trkpt lat="43.66263" lon="3.8259">
        <ele>152.1</ele>
        <time>2017-10-17T10:26:06Z</time>
      </trkpt>
      <trkpt lat="43.66272" lon="3.82588">
        <ele>152.4</ele>
        <time>2017-10-17T10:26:09Z</time>
      </trkpt>
      <trkpt lat="43.6628" lon="3.82585">
        <ele>152.5</ele>
        <time>2017-10-17T10:26:12Z</time>
      </trkpt>
      <trkpt lat="43.66288" lon="3.82579">
        <ele>152.6</ele>
        <time>2017-10-17T10:26:15Z</time>
      </trkpt>
      <trkpt lat="43.66296" lon="3.82572">
        <ele>152.7</ele>
        <time>2017-10-17T10:26:18Z</time>
      </trkpt>
      <trkpt lat="43.66302" lon="3.82566">
        <ele>152.8</ele>
        <time>2017-10-17T10:26:21Z</time>
      </trkpt>
      <trkpt lat="43.66302" lon="3.82553">
        <ele>152.9</ele>
        <time>2017-10-17T10:26:25Z</time>
      </trkpt>
      <trkpt lat="43.663" lon="3.82543">
        <ele>153</ele>
        <time>2017-10-17T10:26:27Z</time>
      </trkpt>
      <trkpt lat="43.66298" lon="3.82532">
        <ele>152.9</ele>
        <time>2017-10-17T10:26:29Z</time>
      </trkpt>
      <trkpt lat="43.66296" lon="3.82522">
        <ele>152.6</ele>
        <time>2017-10-17T10:26:31Z</time>
      </trkpt>
      <trkpt lat="43.66296" lon="3.82511">
        <ele>152.5</ele>
        <time>2017-10-17T10:26:34Z</time>
      </trkpt>
      <trkpt lat="43.66297" lon="3.82501">
        <ele>152.3</ele>
        <time>2017-10-17T10:26:36Z</time>
      </trkpt>
      <trkpt lat="43.66298" lon="3.82489">
        <ele>151.9</ele>
        <time>2017-10-17T10:26:39Z</time>
      </trkpt>
      <trkpt lat="43.663" lon="3.82476">
        <ele>151.7</ele>
        <time>2017-10-17T10:26:42Z</time>
      </trkpt>
      <trkpt lat="43.66301" lon="3.82466">
        <ele>151.1</ele>
        <time>2017-10-17T10:26:44Z</time>
      </trkpt>
      <trkpt lat="43.66304" lon="3.82454">
        <ele>151.2</ele>
        <time>2017-10-17T10:26:46Z</time>
      </trkpt>
      <trkpt lat="43.6631" lon="3.82447">
        <ele>151.3</ele>
        <time>2017-10-17T10:26:49Z</time>
      </trkpt>
      <trkpt lat="43.66317" lon="3.82439">
        <ele>151.6</ele>
        <time>2017-10-17T10:26:52Z</time>
      </trkpt>
      <trkpt lat="43.66324" lon="3.82432">
        <ele>151.7</ele>
        <time>2017-10-17T10:26:54Z</time>
      </trkpt>
      <trkpt lat="43.66332" lon="3.82429">
        <ele>151.8</ele>
        <time>2017-10-17T10:26:56Z</time>
      </trkpt>
      <trkpt lat="43.66339" lon="3.82424">
        <ele>151.9</ele>
        <time>2017-10-17T10:26:58Z</time>
      </trkpt>
      <trkpt lat="43.66347" lon="3.8242">
        <ele>152</ele>
        <time>2017-10-17T10:27:00Z</time>
      </trkpt>
      <trkpt lat="43.66355" lon="3.82414">
        <ele>152.2</ele>
        <time>2017-10-17T10:27:03Z</time>
      </trkpt>
      <trkpt lat="43.66361" lon="3.82408">
        <ele>152.5</ele>
        <time>2017-10-17T10:27:08Z</time>
      </trkpt>
      <trkpt lat="43.6636" lon="3.82397">
        <ele>152.8</ele>
        <time>2017-10-17T10:27:12Z</time>
      </trkpt>
      <trkpt lat="43.66356" lon="3.82389">
        <ele>152.9</ele>
        <time>2017-10-17T10:27:14Z</time>
      </trkpt>
      <trkpt lat="43.6635" lon="3.82378">
        <ele>153.1</ele>
        <time>2017-10-17T10:27:17Z</time>
      </trkpt>
      <trkpt lat="43.66346" lon="3.82368">
        <ele>153.2</ele>
        <time>2017-10-17T10:27:19Z</time>
      </trkpt>
      <trkpt lat="43.66342" lon="3.82359">
        <ele>153.3</ele>
        <time>2017-10-17T10:27:21Z</time>
      </trkpt>
      <trkpt lat="43.66335" lon="3.82354">
        <ele>153.5</ele>
        <time>2017-10-17T10:27:23Z</time>
      </trkpt>
      <trkpt lat="43.66329" lon="3.8234">
        <ele>155.1</ele>
        <time>2017-10-17T10:27:25Z</time>
      </trkpt>
      <trkpt lat="43.66322" lon="3.82325">
        <ele>157.2</ele>
        <time>2017-10-17T10:27:27Z</time>
      </trkpt>
      <trkpt lat="43.66317" lon="3.82311">
        <ele>158.1</ele>
        <time>2017-10-17T10:27:29Z</time>
      </trkpt>
      <trkpt lat="43.66316" lon="3.82301">
        <ele>158.2</ele>
        <time>2017-10-17T10:27:31Z</time>
      </trkpt>
      <trkpt lat="43.66313" lon="3.82292">
        <ele>158.3</ele>
        <time>2017-10-17T10:27:33Z</time>
      </trkpt>
      <trkpt lat="43.66312" lon="3.8228">
        <ele>158.4</ele>
        <time>2017-10-17T10:27:35Z</time>
      </trkpt>
      <trkpt lat="43.66311" lon="3.8227">
        <ele>158.4</ele>
        <time>2017-10-17T10:27:37Z</time>
      </trkpt>
      <trkpt lat="43.6631" lon="3.82256">
        <ele>158.5</ele>
        <time>2017-10-17T10:27:40Z</time>
      </trkpt>
      <trkpt lat="43.66308" lon="3.82245">
        <ele>158.5</ele>
        <time>2017-10-17T10:27:42Z</time>
      </trkpt>
      <trkpt lat="43.66309" lon="3.82234">
        <ele>158.5</ele>
        <time>2017-10-17T10:27:44Z</time>
      </trkpt>
      <trkpt lat="43.6631" lon="3.82222">
        <ele>158.5</ele>
        <time>2017-10-17T10:27:47Z</time>
      </trkpt>
      <trkpt lat="43.66309" lon="3.8221">
        <ele>158.5</ele>
        <time>2017-10-17T10:27:50Z</time>
      </trkpt>
      <trkpt lat="43.66307" lon="3.82197">
        <ele>158.5</ele>
        <time>2017-10-17T10:27:53Z</time>
      </trkpt>
      <trkpt lat="43.66304" lon="3.82183">
        <ele>158.6</ele>
        <time>2017-10-17T10:27:56Z</time>
      </trkpt>
      <trkpt lat="43.66297" lon="3.82172">
        <ele>158.6</ele>
        <time>2017-10-17T10:27:59Z</time>
      </trkpt>
      <trkpt lat="43.6629" lon="3.82162">
        <ele>158.6</ele>
        <time>2017-10-17T10:28:01Z</time>
      </trkpt>
      <trkpt lat="43.66282" lon="3.82148">
        <ele>158.4</ele>
        <time>2017-10-17T10:28:03Z</time>
      </trkpt>
      <trkpt lat="43.66279" lon="3.82139">
        <ele>158.2</ele>
        <time>2017-10-17T10:28:04Z</time>
      </trkpt>
      <trkpt lat="43.66272" lon="3.82123">
        <ele>157.6</ele>
        <time>2017-10-17T10:28:06Z</time>
      </trkpt>
      <trkpt lat="43.66268" lon="3.8211">
        <ele>156.8</ele>
        <time>2017-10-17T10:28:08Z</time>
      </trkpt>
      <trkpt lat="43.66264" lon="3.82097">
        <ele>156.1</ele>
        <time>2017-10-17T10:28:10Z</time>
      </trkpt>
      <trkpt lat="43.66258" lon="3.82082">
        <ele>155.2</ele>
        <time>2017-10-17T10:28:12Z</time>
      </trkpt>
      <trkpt lat="43.66254" lon="3.82073">
        <ele>154.9</ele>
        <time>2017-10-17T10:28:13Z</time>
      </trkpt>
      <trkpt lat="43.6625" lon="3.82063">
        <ele>154.9</ele>
        <time>2017-10-17T10:28:14Z</time>
      </trkpt>
      <trkpt lat="43.66246" lon="3.82054">
        <ele>154.6</ele>
        <time>2017-10-17T10:28:15Z</time>
      </trkpt>
      <trkpt lat="43.66245" lon="3.82039">
        <ele>154.4</ele>
        <time>2017-10-17T10:28:17Z</time>
      </trkpt>
      <trkpt lat="43.66244" lon="3.82028">
        <ele>154.2</ele>
        <time>2017-10-17T10:28:19Z</time>
      </trkpt>
      <trkpt lat="43.66237" lon="3.82025">
        <ele>154</ele>
        <time>2017-10-17T10:28:21Z</time>
      </trkpt>
      <trkpt lat="43.66228" lon="3.82017">
        <ele>152.8</ele>
        <time>2017-10-17T10:28:23Z</time>
      </trkpt>
      <trkpt lat="43.66215" lon="3.82014">
        <ele>152.7</ele>
        <time>2017-10-17T10:28:25Z</time>
      </trkpt>
      <trkpt lat="43.66207" lon="3.8201">
        <ele>152.8</ele>
        <time>2017-10-17T10:28:26Z</time>
      </trkpt>
      <trkpt lat="43.66202" lon="3.81996">
        <ele>153</ele>
        <time>2017-10-17T10:28:28Z</time>
      </trkpt>
      <trkpt lat="43.66207" lon="3.81984">
        <ele>153.4</ele>
        <time>2017-10-17T10:28:31Z</time>
      </trkpt>
      <trkpt lat="43.66208" lon="3.81974">
        <ele>153.5</ele>
        <time>2017-10-17T10:28:34Z</time>
      </trkpt>
      <trkpt lat="43.66207" lon="3.81961">
        <ele>153.6</ele>
        <time>2017-10-17T10:28:37Z</time>
      </trkpt>
      <trkpt lat="43.66206" lon="3.81948">
        <ele>153.7</ele>
        <time>2017-10-17T10:28:40Z</time>
      </trkpt>
      <trkpt lat="43.66207" lon="3.81934">
        <ele>153.8</ele>
        <time>2017-10-17T10:28:43Z</time>
      </trkpt>
      <trkpt lat="43.66208" lon="3.81922">
        <ele>153.8</ele>
        <time>2017-10-17T10:28:46Z</time>
      </trkpt>
      <trkpt lat="43.6621" lon="3.81909">
        <ele>153.7</ele>
        <time>2017-10-17T10:28:49Z</time>
      </trkpt>
      <trkpt lat="43.66213" lon="3.81897">
        <ele>153.8</ele>
        <time>2017-10-17T10:28:52Z</time>
      </trkpt>
      <trkpt lat="43.66212" lon="3.81885">
        <ele>153.8</ele>
        <time>2017-10-17T10:28:55Z</time>
      </trkpt>
      <trkpt lat="43.66213" lon="3.81875">
        <ele>153.7</ele>
        <time>2017-10-17T10:28:57Z</time>
      </trkpt>
      <trkpt lat="43.66214" lon="3.81864">
        <ele>153.7</ele>
        <time>2017-10-17T10:28:59Z</time>
      </trkpt>
      <trkpt lat="43.66215" lon="3.81853">
        <ele>153.7</ele>
        <time>2017-10-17T10:29:02Z</time>
      </trkpt>
      <trkpt lat="43.6622" lon="3.81842">
        <ele>153.8</ele>
        <time>2017-10-17T10:29:05Z</time>
      </trkpt>
      <trkpt lat="43.66218" lon="3.81831">
        <ele>153.9</ele>
        <time>2017-10-17T10:29:08Z</time>
      </trkpt>
      <trkpt lat="43.66217" lon="3.8182">
        <ele>154</ele>
        <time>2017-10-17T10:29:10Z</time>
      </trkpt>
      <trkpt lat="43.66219" lon="3.8181">
        <ele>154.1</ele>
        <time>2017-10-17T10:29:12Z</time>
      </trkpt>
      <trkpt lat="43.6622" lon="3.81798">
        <ele>154.3</ele>
        <time>2017-10-17T10:29:15Z</time>
      </trkpt>
      <trkpt lat="43.66219" lon="3.81788">
        <ele>154.4</ele>
        <time>2017-10-17T10:29:18Z</time>
      </trkpt>
      <trkpt lat="43.6622" lon="3.81777">
        <ele>154.8</ele>
        <time>2017-10-17T10:29:22Z</time>
      </trkpt>
      <trkpt lat="43.6622" lon="3.81764">
        <ele>155</ele>
        <time>2017-10-17T10:29:26Z</time>
      </trkpt>
      <trkpt lat="43.66219" lon="3.81752">
        <ele>155.2</ele>
        <time>2017-10-17T10:29:29Z</time>
      </trkpt>
      <trkpt lat="43.66219" lon="3.81737">
        <ele>155.4</ele>
        <time>2017-10-17T10:29:32Z</time>
      </trkpt>
      <trkpt lat="43.6622" lon="3.81727">
        <ele>155.5</ele>
        <time>2017-10-17T10:29:35Z</time>
      </trkpt>
      <trkpt lat="43.66221" lon="3.81715">
        <ele>155.6</ele>
        <time>2017-10-17T10:29:38Z</time>
      </trkpt>
      <trkpt lat="43.6622" lon="3.81705">
        <ele>155.8</ele>
        <time>2017-10-17T10:29:41Z</time>
      </trkpt>
      <trkpt lat="43.6622" lon="3.81694">
        <ele>155.9</ele>
        <time>2017-10-17T10:29:43Z</time>
      </trkpt>
      <trkpt lat="43.6622" lon="3.81679">
        <ele>156</ele>
        <time>2017-10-17T10:29:46Z</time>
      </trkpt>
      <trkpt lat="43.6622" lon="3.81669">
        <ele>156.1</ele>
        <time>2017-10-17T10:29:49Z</time>
      </trkpt>
      <trkpt lat="43.66219" lon="3.81655">
        <ele>155.7</ele>
        <time>2017-10-17T10:29:51Z</time>
      </trkpt>
      <trkpt lat="43.66217" lon="3.81637">
        <ele>155.2</ele>
        <time>2017-10-17T10:29:53Z</time>
      </trkpt>
      <trkpt lat="43.6622" lon="3.81624">
        <ele>155</ele>
        <time>2017-10-17T10:29:55Z</time>
      </trkpt>
      <trkpt lat="43.66216" lon="3.81616">
        <ele>154.6</ele>
        <time>2017-10-17T10:29:57Z</time>
      </trkpt>
      <trkpt lat="43.66217" lon="3.81604">
        <ele>154.2</ele>
        <time>2017-10-17T10:29:59Z</time>
      </trkpt>
      <trkpt lat="43.66217" lon="3.81589">
        <ele>154.2</ele>
        <time>2017-10-17T10:30:02Z</time>
      </trkpt>
      <trkpt lat="43.66212" lon="3.81579">
        <ele>154.1</ele>
        <time>2017-10-17T10:30:04Z</time>
      </trkpt>
      <trkpt lat="43.66206" lon="3.81567">
        <ele>153.8</ele>
        <time>2017-10-17T10:30:09Z</time>
      </trkpt>
      <trkpt lat="43.66204" lon="3.81556">
        <ele>153.7</ele>
        <time>2017-10-17T10:30:10Z</time>
      </trkpt>
      <trkpt lat="43.66201" lon="3.81547">
        <ele>153.6</ele>
        <time>2017-10-17T10:30:12Z</time>
      </trkpt>
      <trkpt lat="43.66194" lon="3.81534">
        <ele>153.1</ele>
        <time>2017-10-17T10:30:15Z</time>
      </trkpt>
      <trkpt lat="43.66188" lon="3.81525">
        <ele>152.9</ele>
        <time>2017-10-17T10:30:17Z</time>
      </trkpt>
      <trkpt lat="43.66185" lon="3.81511">
        <ele>153.4</ele>
        <time>2017-10-17T10:30:19Z</time>
      </trkpt>
      <trkpt lat="43.66184" lon="3.81495">
        <ele>153.5</ele>
        <time>2017-10-17T10:30:21Z</time>
      </trkpt>
      <trkpt lat="43.66176" lon="3.81486">
        <ele>152.4</ele>
        <time>2017-10-17T10:30:24Z</time>
      </trkpt>
      <trkpt lat="43.66168" lon="3.81473">
        <ele>150.3</ele>
        <time>2017-10-17T10:30:27Z</time>
      </trkpt>
      <trkpt lat="43.66159" lon="3.81463">
        <ele>149.6</ele>
        <time>2017-10-17T10:30:28Z</time>
      </trkpt>
      <trkpt lat="43.66158" lon="3.81451">
        <ele>149.7</ele>
        <time>2017-10-17T10:30:30Z</time>
      </trkpt>
      <trkpt lat="43.66159" lon="3.81439">
        <ele>149</ele>
        <time>2017-10-17T10:30:32Z</time>
      </trkpt>
      <trkpt lat="43.6616" lon="3.81427">
        <ele>147.9</ele>
        <time>2017-10-17T10:30:34Z</time>
      </trkpt>
      <trkpt lat="43.66154" lon="3.81417">
        <ele>147</ele>
        <time>2017-10-17T10:30:37Z</time>
      </trkpt>
      <trkpt lat="43.66148" lon="3.81401">
        <ele>145.5</ele>
        <time>2017-10-17T10:30:38Z</time>
      </trkpt>
      <trkpt lat="43.66147" lon="3.81381">
        <ele>143.1</ele>
        <time>2017-10-17T10:30:40Z</time>
      </trkpt>
      <trkpt lat="43.66141" lon="3.81365">
        <ele>141.8</ele>
        <time>2017-10-17T10:30:42Z</time>
      </trkpt>
      <trkpt lat="43.66138" lon="3.81349">
        <ele>140.5</ele>
        <time>2017-10-17T10:30:44Z</time>
      </trkpt>
      <trkpt lat="43.66136" lon="3.81336">
        <ele>139.7</ele>
        <time>2017-10-17T10:30:46Z</time>
      </trkpt>
      <trkpt lat="43.66139" lon="3.81326">
        <ele>139.5</ele>
        <time>2017-10-17T10:30:49Z</time>
      </trkpt>
      <trkpt lat="43.66147" lon="3.81321">
        <ele>139.3</ele>
        <time>2017-10-17T10:30:53Z</time>
      </trkpt>
      <trkpt lat="43.66153" lon="3.81315">
        <ele>139.1</ele>
        <time>2017-10-17T10:30:56Z</time>
      </trkpt>
      <trkpt lat="43.6616" lon="3.8131">
        <ele>139</ele>
        <time>2017-10-17T10:30:59Z</time>
      </trkpt>
      <trkpt lat="43.66168" lon="3.81306">
        <ele>139</ele>
        <time>2017-10-17T10:31:02Z</time>
      </trkpt>
      <trkpt lat="43.66175" lon="3.81302">
        <ele>139</ele>
        <time>2017-10-17T10:31:05Z</time>
      </trkpt>
      <trkpt lat="43.66184" lon="3.81296">
        <ele>139.1</ele>
        <time>2017-10-17T10:31:09Z</time>
      </trkpt>
      <trkpt lat="43.6619" lon="3.81292">
        <ele>139.2</ele>
        <time>2017-10-17T10:31:12Z</time>
      </trkpt>
      <trkpt lat="43.66199" lon="3.81285">
        <ele>139.3</ele>
        <time>2017-10-17T10:31:16Z</time>
      </trkpt>
      <trkpt lat="43.66206" lon="3.81282">
        <ele>139.4</ele>
        <time>2017-10-17T10:31:19Z</time>
      </trkpt>
      <trkpt lat="43.66215" lon="3.81279">
        <ele>139.7</ele>
        <time>2017-10-17T10:31:23Z</time>
      </trkpt>
      <trkpt lat="43.66224" lon="3.81276">
        <ele>139.9</ele>
        <time>2017-10-17T10:31:27Z</time>
      </trkpt>
      <trkpt lat="43.66233" lon="3.8127">
        <ele>140.1</ele>
        <time>2017-10-17T10:31:31Z</time>
      </trkpt>
      <trkpt lat="43.66241" lon="3.8127">
        <ele>140.3</ele>
        <time>2017-10-17T10:31:34Z</time>
      </trkpt>
      <trkpt lat="43.66249" lon="3.8127">
        <ele>140.5</ele>
        <time>2017-10-17T10:31:37Z</time>
      </trkpt>
      <trkpt lat="43.66257" lon="3.81267">
        <ele>140.8</ele>
        <time>2017-10-17T10:31:41Z</time>
      </trkpt>
      <trkpt lat="43.66266" lon="3.81263">
        <ele>141.1</ele>
        <time>2017-10-17T10:31:45Z</time>
      </trkpt>
      <trkpt lat="43.66272" lon="3.8126">
        <ele>141.4</ele>
        <time>2017-10-17T10:31:48Z</time>
      </trkpt>
      <trkpt lat="43.66278" lon="3.81254">
        <ele>141.7</ele>
        <time>2017-10-17T10:31:51Z</time>
      </trkpt>
      <trkpt lat="43.66286" lon="3.81246">
        <ele>142.3</ele>
        <time>2017-10-17T10:31:55Z</time>
      </trkpt>
      <trkpt lat="43.66293" lon="3.81241">
        <ele>142.9</ele>
        <time>2017-10-17T10:31:59Z</time>
      </trkpt>
      <trkpt lat="43.66302" lon="3.81237">
        <ele>143.5</ele>
        <time>2017-10-17T10:32:03Z</time>
      </trkpt>
      <trkpt lat="43.66312" lon="3.81236">
        <ele>144</ele>
        <time>2017-10-17T10:32:07Z</time>
      </trkpt>
      <trkpt lat="43.66319" lon="3.81235">
        <ele>144.4</ele>
        <time>2017-10-17T10:32:10Z</time>
      </trkpt>
      <trkpt lat="43.66327" lon="3.81235">
        <ele>144.8</ele>
        <time>2017-10-17T10:32:13Z</time>
      </trkpt>
      <trkpt lat="43.66334" lon="3.81236">
        <ele>145.2</ele>
        <time>2017-10-17T10:32:16Z</time>
      </trkpt>
      <trkpt lat="43.66342" lon="3.81234">
        <ele>146</ele>
        <time>2017-10-17T10:32:21Z</time>
      </trkpt>
      <trkpt lat="43.66351" lon="3.81234">
        <ele>146.9</ele>
        <time>2017-10-17T10:32:26Z</time>
      </trkpt>
      <trkpt lat="43.66361" lon="3.81236">
        <ele>147.7</ele>
        <time>2017-10-17T10:32:30Z</time>
      </trkpt>
      <trkpt lat="43.66369" lon="3.81238">
        <ele>148.1</ele>
        <time>2017-10-17T10:32:33Z</time>
      </trkpt>
      <trkpt lat="43.66376" lon="3.81238">
        <ele>148.6</ele>
        <time>2017-10-17T10:32:36Z</time>
      </trkpt>
      <trkpt lat="43.66385" lon="3.81237">
        <ele>149.2</ele>
        <time>2017-10-17T10:32:40Z</time>
      </trkpt>
      <trkpt lat="43.66394" lon="3.81235">
        <ele>149.8</ele>
        <time>2017-10-17T10:32:44Z</time>
      </trkpt>
      <trkpt lat="43.66403" lon="3.81236">
        <ele>150.4</ele>
        <time>2017-10-17T10:32:48Z</time>
      </trkpt>
      <trkpt lat="43.6641" lon="3.81236">
        <ele>150.9</ele>
        <time>2017-10-17T10:32:51Z</time>
      </trkpt>
      <trkpt lat="43.66419" lon="3.81237">
        <ele>151.6</ele>
        <time>2017-10-17T10:32:55Z</time>
      </trkpt>
      <trkpt lat="43.66427" lon="3.81237">
        <ele>152.5</ele>
        <time>2017-10-17T10:32:59Z</time>
      </trkpt>
      <trkpt lat="43.66436" lon="3.81236">
        <ele>153.4</ele>
        <time>2017-10-17T10:33:03Z</time>
      </trkpt>
      <trkpt lat="43.66445" lon="3.81238">
        <ele>154.3</ele>
        <time>2017-10-17T10:33:07Z</time>
      </trkpt>
      <trkpt lat="43.66452" lon="3.8124">
        <ele>154.9</ele>
        <time>2017-10-17T10:33:10Z</time>
      </trkpt>
      <trkpt lat="43.66459" lon="3.8124">
        <ele>155.4</ele>
        <time>2017-10-17T10:33:13Z</time>
      </trkpt>
      <trkpt lat="43.66469" lon="3.81238">
        <ele>156.2</ele>
        <time>2017-10-17T10:33:17Z</time>
      </trkpt>
      <trkpt lat="43.66478" lon="3.81238">
        <ele>157</ele>
        <time>2017-10-17T10:33:21Z</time>
      </trkpt>
      <trkpt lat="43.66487" lon="3.81237">
        <ele>157.9</ele>
        <time>2017-10-17T10:33:25Z</time>
      </trkpt>
      <trkpt lat="43.66496" lon="3.81236">
        <ele>159</ele>
        <time>2017-10-17T10:33:29Z</time>
      </trkpt>
      <trkpt lat="43.66504" lon="3.81236">
        <ele>160.2</ele>
        <time>2017-10-17T10:33:33Z</time>
      </trkpt>
      <trkpt lat="43.66512" lon="3.81234">
        <ele>161.2</ele>
        <time>2017-10-17T10:33:36Z</time>
      </trkpt>
      <trkpt lat="43.6652" lon="3.81235">
        <ele>162.5</ele>
        <time>2017-10-17T10:33:40Z</time>
      </trkpt>
      <trkpt lat="43.66528" lon="3.81235">
        <ele>163.9</ele>
        <time>2017-10-17T10:33:44Z</time>
      </trkpt>
      <trkpt lat="43.66538" lon="3.81236">
        <ele>165.2</ele>
        <time>2017-10-17T10:33:48Z</time>
      </trkpt>
      <trkpt lat="43.66547" lon="3.81236">
        <ele>166.4</ele>
        <time>2017-10-17T10:33:52Z</time>
      </trkpt>
      <trkpt lat="43.66556" lon="3.81236">
        <ele>167.5</ele>
        <time>2017-10-17T10:33:56Z</time>
      </trkpt>
      <trkpt lat="43.66563" lon="3.81234">
        <ele>168.5</ele>
        <time>2017-10-17T10:34:00Z</time>
      </trkpt>
      <trkpt lat="43.66573" lon="3.81234">
        <ele>169.4</ele>
        <time>2017-10-17T10:34:04Z</time>
      </trkpt>
      <trkpt lat="43.66581" lon="3.81235">
        <ele>170.1</ele>
        <time>2017-10-17T10:34:07Z</time>
      </trkpt>
      <trkpt lat="43.66588" lon="3.81237">
        <ele>170.9</ele>
        <time>2017-10-17T10:34:10Z</time>
      </trkpt>
      <trkpt lat="43.66595" lon="3.81238">
        <ele>171.6</ele>
        <time>2017-10-17T10:34:13Z</time>
      </trkpt>
      <trkpt lat="43.66604" lon="3.81237">
        <ele>172.5</ele>
        <time>2017-10-17T10:34:17Z</time>
      </trkpt>
      <trkpt lat="43.66611" lon="3.81233">
        <ele>173.5</ele>
        <time>2017-10-17T10:34:21Z</time>
      </trkpt>
      <trkpt lat="43.6662" lon="3.81228">
        <ele>174.5</ele>
        <time>2017-10-17T10:34:25Z</time>
      </trkpt>
      <trkpt lat="43.66628" lon="3.81226">
        <ele>175.1</ele>
        <time>2017-10-17T10:34:28Z</time>
      </trkpt>
      <trkpt lat="43.66636" lon="3.81225">
        <ele>175.8</ele>
        <time>2017-10-17T10:34:31Z</time>
      </trkpt>
      <trkpt lat="43.66644" lon="3.81224">
        <ele>176.5</ele>
        <time>2017-10-17T10:34:34Z</time>
      </trkpt>
      <trkpt lat="43.66651" lon="3.81224">
        <ele>177.2</ele>
        <time>2017-10-17T10:34:37Z</time>
      </trkpt>
      <trkpt lat="43.66659" lon="3.81221">
        <ele>177.8</ele>
        <time>2017-10-17T10:34:40Z</time>
      </trkpt>
      <trkpt lat="43.66667" lon="3.81217">
        <ele>178.8</ele>
        <time>2017-10-17T10:34:44Z</time>
      </trkpt>
      <trkpt lat="43.66675" lon="3.81215">
        <ele>179.5</ele>
        <time>2017-10-17T10:34:47Z</time>
      </trkpt>
      <trkpt lat="43.66683" lon="3.81216">
        <ele>180.3</ele>
        <time>2017-10-17T10:34:50Z</time>
      </trkpt>
      <trkpt lat="43.66693" lon="3.81216">
        <ele>181</ele>
        <time>2017-10-17T10:34:53Z</time>
      </trkpt>
      <trkpt lat="43.66702" lon="3.8122">
        <ele>181.8</ele>
        <time>2017-10-17T10:34:56Z</time>
      </trkpt>
      <trkpt lat="43.6671" lon="3.81221">
        <ele>184.3</ele>
        <time>2017-10-17T10:34:58Z</time>
      </trkpt>
      <trkpt lat="43.6672" lon="3.81219">
        <ele>186.5</ele>
        <time>2017-10-17T10:35:01Z</time>
      </trkpt>
      <trkpt lat="43.66728" lon="3.81217">
        <ele>186.9</ele>
        <time>2017-10-17T10:35:04Z</time>
      </trkpt>
      <trkpt lat="43.66738" lon="3.81218">
        <ele>187.2</ele>
        <time>2017-10-17T10:35:07Z</time>
      </trkpt>
      <trkpt lat="43.66748" lon="3.8122">
        <ele>187.4</ele>
        <time>2017-10-17T10:35:10Z</time>
      </trkpt>
      <trkpt lat="43.66758" lon="3.81217">
        <ele>187.6</ele>
        <time>2017-10-17T10:35:13Z</time>
      </trkpt>
      <trkpt lat="43.6676" lon="3.81207">
        <ele>188</ele>
        <time>2017-10-17T10:35:17Z</time>
      </trkpt>
      <trkpt lat="43.66761" lon="3.81196">
        <ele>188.3</ele>
        <time>2017-10-17T10:35:20Z</time>
      </trkpt>
      <trkpt lat="43.6676" lon="3.81183">
        <ele>188.5</ele>
        <time>2017-10-17T10:35:23Z</time>
      </trkpt>
      <trkpt lat="43.66761" lon="3.81168">
        <ele>188.6</ele>
        <time>2017-10-17T10:35:26Z</time>
      </trkpt>
      <trkpt lat="43.6676" lon="3.81157">
        <ele>188.7</ele>
        <time>2017-10-17T10:35:28Z</time>
      </trkpt>
      <trkpt lat="43.6676" lon="3.81146">
        <ele>189.3</ele>
        <time>2017-10-17T10:35:30Z</time>
      </trkpt>
      <trkpt lat="43.66759" lon="3.81134">
        <ele>190</ele>
        <time>2017-10-17T10:35:32Z</time>
      </trkpt>
      <trkpt lat="43.66762" lon="3.81123">
        <ele>189.8</ele>
        <time>2017-10-17T10:35:34Z</time>
      </trkpt>
      <trkpt lat="43.66761" lon="3.8111">
        <ele>189.5</ele>
        <time>2017-10-17T10:35:36Z</time>
      </trkpt>
      <trkpt lat="43.66762" lon="3.81099">
        <ele>189.4</ele>
        <time>2017-10-17T10:35:38Z</time>
      </trkpt>
      <trkpt lat="43.66763" lon="3.81089">
        <ele>189.3</ele>
        <time>2017-10-17T10:35:40Z</time>
      </trkpt>
      <trkpt lat="43.66763" lon="3.81077">
        <ele>188.3</ele>
        <time>2017-10-17T10:35:42Z</time>
      </trkpt>
      <trkpt lat="43.66761" lon="3.81061">
        <ele>186.8</ele>
        <time>2017-10-17T10:35:44Z</time>
      </trkpt>
      <trkpt lat="43.6676" lon="3.81049">
        <ele>185.3</ele>
        <time>2017-10-17T10:35:46Z</time>
      </trkpt>
      <trkpt lat="43.66762" lon="3.81035">
        <ele>183.1</ele>
        <time>2017-10-17T10:35:48Z</time>
      </trkpt>
      <trkpt lat="43.66765" lon="3.8102">
        <ele>181.6</ele>
        <time>2017-10-17T10:35:50Z</time>
      </trkpt>
      <trkpt lat="43.66769" lon="3.81009">
        <ele>181</ele>
        <time>2017-10-17T10:35:52Z</time>
      </trkpt>
      <trkpt lat="43.66779" lon="3.81004">
        <ele>181.1</ele>
        <time>2017-10-17T10:35:54Z</time>
      </trkpt>
      <trkpt lat="43.66789" lon="3.81">
        <ele>182.8</ele>
        <time>2017-10-17T10:35:56Z</time>
      </trkpt>
      <trkpt lat="43.66797" lon="3.80998">
        <ele>183</ele>
        <time>2017-10-17T10:35:58Z</time>
      </trkpt>
      <trkpt lat="43.66808" lon="3.80992">
        <ele>183.3</ele>
        <time>2017-10-17T10:36:01Z</time>
      </trkpt>
      <trkpt lat="43.66816" lon="3.80987">
        <ele>183.2</ele>
        <time>2017-10-17T10:36:03Z</time>
      </trkpt>
      <trkpt lat="43.66826" lon="3.8098">
        <ele>183.1</ele>
        <time>2017-10-17T10:36:06Z</time>
      </trkpt>
      <trkpt lat="43.66834" lon="3.80976">
        <ele>183</ele>
        <time>2017-10-17T10:36:08Z</time>
      </trkpt>
      <trkpt lat="43.66841" lon="3.80971">
        <ele>182.9</ele>
        <time>2017-10-17T10:36:10Z</time>
      </trkpt>
      <trkpt lat="43.66849" lon="3.80966">
        <ele>181.7</ele>
        <time>2017-10-17T10:36:12Z</time>
      </trkpt>
      <trkpt lat="43.66857" lon="3.8096">
        <ele>180</ele>
        <time>2017-10-17T10:36:14Z</time>
      </trkpt>
      <trkpt lat="43.66867" lon="3.80951">
        <ele>178.7</ele>
        <time>2017-10-17T10:36:16Z</time>
      </trkpt>
      <trkpt lat="43.66876" lon="3.80944">
        <ele>179</ele>
        <time>2017-10-17T10:36:18Z</time>
      </trkpt>
      <trkpt lat="43.66883" lon="3.80933">
        <ele>180</ele>
        <time>2017-10-17T10:36:20Z</time>
      </trkpt>
      <trkpt lat="43.6689" lon="3.8092">
        <ele>181.1</ele>
        <time>2017-10-17T10:36:22Z</time>
      </trkpt>
      <trkpt lat="43.66898" lon="3.8091">
        <ele>181.8</ele>
        <time>2017-10-17T10:36:24Z</time>
      </trkpt>
      <trkpt lat="43.66906" lon="3.809">
        <ele>183</ele>
        <time>2017-10-17T10:36:26Z</time>
      </trkpt>
      <trkpt lat="43.6691" lon="3.80891">
        <ele>183.7</ele>
        <time>2017-10-17T10:36:27Z</time>
      </trkpt>
      <trkpt lat="43.66913" lon="3.80876">
        <ele>184.8</ele>
        <time>2017-10-17T10:36:29Z</time>
      </trkpt>
      <trkpt lat="43.66917" lon="3.80863">
        <ele>186.4</ele>
        <time>2017-10-17T10:36:31Z</time>
      </trkpt>
      <trkpt lat="43.66919" lon="3.8085">
        <ele>187.2</ele>
        <time>2017-10-17T10:36:33Z</time>
      </trkpt>
      <trkpt lat="43.6692" lon="3.80837">
        <ele>187.4</ele>
        <time>2017-10-17T10:36:35Z</time>
      </trkpt>
      <trkpt lat="43.66922" lon="3.80822">
        <ele>187.7</ele>
        <time>2017-10-17T10:36:38Z</time>
      </trkpt>
      <trkpt lat="43.66925" lon="3.80812">
        <ele>187.7</ele>
        <time>2017-10-17T10:36:40Z</time>
      </trkpt>
      <trkpt lat="43.66928" lon="3.80802">
        <ele>188.4</ele>
        <time>2017-10-17T10:36:42Z</time>
      </trkpt>
      <trkpt lat="43.66931" lon="3.80792">
        <ele>189.2</ele>
        <time>2017-10-17T10:36:44Z</time>
      </trkpt>
      <trkpt lat="43.66931" lon="3.80776">
        <ele>189.8</ele>
        <time>2017-10-17T10:36:46Z</time>
      </trkpt>
      <trkpt lat="43.66929" lon="3.80758">
        <ele>189.8</ele>
        <time>2017-10-17T10:36:48Z</time>
      </trkpt>
      <trkpt lat="43.66929" lon="3.80748">
        <ele>189.5</ele>
        <time>2017-10-17T10:36:49Z</time>
      </trkpt>
      <trkpt lat="43.66929" lon="3.80735">
        <ele>189</ele>
        <time>2017-10-17T10:36:50Z</time>
      </trkpt>
      <trkpt lat="43.66929" lon="3.80723">
        <ele>188</ele>
        <time>2017-10-17T10:36:51Z</time>
      </trkpt>
      <trkpt lat="43.66929" lon="3.80713">
        <ele>186.8</ele>
        <time>2017-10-17T10:36:52Z</time>
      </trkpt>
      <trkpt lat="43.66929" lon="3.80701">
        <ele>186.1</ele>
        <time>2017-10-17T10:36:53Z</time>
      </trkpt>
      <trkpt lat="43.66929" lon="3.80687">
        <ele>185.5</ele>
        <time>2017-10-17T10:36:54Z</time>
      </trkpt>
      <trkpt lat="43.6693" lon="3.80674">
        <ele>184.8</ele>
        <time>2017-10-17T10:36:55Z</time>
      </trkpt>
      <trkpt lat="43.66932" lon="3.8066">
        <ele>184</ele>
        <time>2017-10-17T10:36:56Z</time>
      </trkpt>
      <trkpt lat="43.66933" lon="3.80645">
        <ele>183</ele>
        <time>2017-10-17T10:36:57Z</time>
      </trkpt>
      <trkpt lat="43.66934" lon="3.8063">
        <ele>181.9</ele>
        <time>2017-10-17T10:36:58Z</time>
      </trkpt>
      <trkpt lat="43.66935" lon="3.80616">
        <ele>180.9</ele>
        <time>2017-10-17T10:36:59Z</time>
      </trkpt>
      <trkpt lat="43.66936" lon="3.80602">
        <ele>179.8</ele>
        <time>2017-10-17T10:37:00Z</time>
      </trkpt>
      <trkpt lat="43.66939" lon="3.80587">
        <ele>178.6</ele>
        <time>2017-10-17T10:37:01Z</time>
      </trkpt>
      <trkpt lat="43.66941" lon="3.80574">
        <ele>177.3</ele>
        <time>2017-10-17T10:37:02Z</time>
      </trkpt>
      <trkpt lat="43.66943" lon="3.80563">
        <ele>175.9</ele>
        <time>2017-10-17T10:37:03Z</time>
      </trkpt>
      <trkpt lat="43.66946" lon="3.80548">
        <ele>172.8</ele>
        <time>2017-10-17T10:37:05Z</time>
      </trkpt>
      <trkpt lat="43.66948" lon="3.80535">
        <ele>171</ele>
        <time>2017-10-17T10:37:07Z</time>
      </trkpt>
      <trkpt lat="43.66943" lon="3.80524">
        <ele>170.4</ele>
        <time>2017-10-17T10:37:10Z</time>
      </trkpt>
      <trkpt lat="43.66934" lon="3.80521">
        <ele>169.4</ele>
        <time>2017-10-17T10:37:14Z</time>
      </trkpt>
      <trkpt lat="43.66927" lon="3.80517">
        <ele>168.7</ele>
        <time>2017-10-17T10:37:17Z</time>
      </trkpt>
      <trkpt lat="43.66922" lon="3.80506">
        <ele>168</ele>
        <time>2017-10-17T10:37:20Z</time>
      </trkpt>
      <trkpt lat="43.66928" lon="3.80495">
        <ele>167.5</ele>
        <time>2017-10-17T10:37:23Z</time>
      </trkpt>
      <trkpt lat="43.66932" lon="3.80486">
        <ele>167</ele>
        <time>2017-10-17T10:37:25Z</time>
      </trkpt>
      <trkpt lat="43.66936" lon="3.80477">
        <ele>166.6</ele>
        <time>2017-10-17T10:37:27Z</time>
      </trkpt>
      <trkpt lat="43.66941" lon="3.80468">
        <ele>166.2</ele>
        <time>2017-10-17T10:37:29Z</time>
      </trkpt>
      <trkpt lat="43.66944" lon="3.80459">
        <ele>165.9</ele>
        <time>2017-10-17T10:37:31Z</time>
      </trkpt>
      <trkpt lat="43.66944" lon="3.80445">
        <ele>165.4</ele>
        <time>2017-10-17T10:37:34Z</time>
      </trkpt>
      <trkpt lat="43.6694" lon="3.80434">
        <ele>165</ele>
        <time>2017-10-17T10:37:37Z</time>
      </trkpt>
      <trkpt lat="43.66936" lon="3.80425">
        <ele>164.7</ele>
        <time>2017-10-17T10:37:40Z</time>
      </trkpt>
      <trkpt lat="43.66932" lon="3.80414">
        <ele>164.3</ele>
        <time>2017-10-17T10:37:43Z</time>
      </trkpt>
      <trkpt lat="43.6693" lon="3.80401">
        <ele>164.2</ele>
        <time>2017-10-17T10:37:46Z</time>
      </trkpt>
      <trkpt lat="43.66929" lon="3.80389">
        <ele>164.1</ele>
        <time>2017-10-17T10:37:49Z</time>
      </trkpt>
      <trkpt lat="43.66932" lon="3.80376">
        <ele>164</ele>
        <time>2017-10-17T10:37:52Z</time>
      </trkpt>
      <trkpt lat="43.66936" lon="3.80366">
        <ele>164</ele>
        <time>2017-10-17T10:37:54Z</time>
      </trkpt>
      <trkpt lat="43.66941" lon="3.80358">
        <ele>164.1</ele>
        <time>2017-10-17T10:37:56Z</time>
      </trkpt>
      <trkpt lat="43.66949" lon="3.80352">
        <ele>163.8</ele>
        <time>2017-10-17T10:37:58Z</time>
      </trkpt>
      <trkpt lat="43.66957" lon="3.80348">
        <ele>163.9</ele>
        <time>2017-10-17T10:38:00Z</time>
      </trkpt>
      <trkpt lat="43.66966" lon="3.80343">
        <ele>164.1</ele>
        <time>2017-10-17T10:38:03Z</time>
      </trkpt>
      <trkpt lat="43.66972" lon="3.80333">
        <ele>164.3</ele>
        <time>2017-10-17T10:38:06Z</time>
      </trkpt>
      <trkpt lat="43.66972" lon="3.80322">
        <ele>164.5</ele>
        <time>2017-10-17T10:38:09Z</time>
      </trkpt>
      <trkpt lat="43.66969" lon="3.80309">
        <ele>164.6</ele>
        <time>2017-10-17T10:38:12Z</time>
      </trkpt>
      <trkpt lat="43.66964" lon="3.803">
        <ele>164.7</ele>
        <time>2017-10-17T10:38:15Z</time>
      </trkpt>
      <trkpt lat="43.66958" lon="3.80291">
        <ele>164.9</ele>
        <time>2017-10-17T10:38:18Z</time>
      </trkpt>
      <trkpt lat="43.66951" lon="3.80282">
        <ele>165.1</ele>
        <time>2017-10-17T10:38:21Z</time>
      </trkpt>
      <trkpt lat="43.66941" lon="3.80276">
        <ele>165.2</ele>
        <time>2017-10-17T10:38:24Z</time>
      </trkpt>
      <trkpt lat="43.66933" lon="3.80272">
        <ele>165.2</ele>
        <time>2017-10-17T10:38:27Z</time>
      </trkpt>
      <trkpt lat="43.66926" lon="3.80269">
        <ele>165.3</ele>
        <time>2017-10-17T10:38:30Z</time>
      </trkpt>
      <trkpt lat="43.66917" lon="3.80264">
        <ele>165.5</ele>
        <time>2017-10-17T10:38:34Z</time>
      </trkpt>
      <trkpt lat="43.66909" lon="3.80258">
        <ele>167.2</ele>
        <time>2017-10-17T10:38:36Z</time>
      </trkpt>
      <trkpt lat="43.66902" lon="3.80253">
        <ele>167.4</ele>
        <time>2017-10-17T10:38:38Z</time>
      </trkpt>
      <trkpt lat="43.66895" lon="3.80249">
        <ele>168.9</ele>
        <time>2017-10-17T10:38:40Z</time>
      </trkpt>
      <trkpt lat="43.66887" lon="3.8024">
        <ele>170.2</ele>
        <time>2017-10-17T10:38:42Z</time>
      </trkpt>
      <trkpt lat="43.66879" lon="3.80234">
        <ele>170.8</ele>
        <time>2017-10-17T10:38:44Z</time>
      </trkpt>
      <trkpt lat="43.6687" lon="3.80229">
        <ele>171.3</ele>
        <time>2017-10-17T10:38:46Z</time>
      </trkpt>
      <trkpt lat="43.66861" lon="3.80224">
        <ele>170.7</ele>
        <time>2017-10-17T10:38:48Z</time>
      </trkpt>
      <trkpt lat="43.66852" lon="3.80223">
        <ele>170</ele>
        <time>2017-10-17T10:38:50Z</time>
      </trkpt>
      <trkpt lat="43.6684" lon="3.80224">
        <ele>169.9</ele>
        <time>2017-10-17T10:38:52Z</time>
      </trkpt>
      <trkpt lat="43.66828" lon="3.80227">
        <ele>169.2</ele>
        <time>2017-10-17T10:38:54Z</time>
      </trkpt>
      <trkpt lat="43.66817" lon="3.8023">
        <ele>168.6</ele>
        <time>2017-10-17T10:38:56Z</time>
      </trkpt>
      <trkpt lat="43.66805" lon="3.80234">
        <ele>168.7</ele>
        <time>2017-10-17T10:38:58Z</time>
      </trkpt>
      <trkpt lat="43.66793" lon="3.80229">
        <ele>168.1</ele>
        <time>2017-10-17T10:39:00Z</time>
      </trkpt>
      <trkpt lat="43.66781" lon="3.80224">
        <ele>167.9</ele>
        <time>2017-10-17T10:39:02Z</time>
      </trkpt>
      <trkpt lat="43.66774" lon="3.80219">
        <ele>167.9</ele>
        <time>2017-10-17T10:39:03Z</time>
      </trkpt>
      <trkpt lat="43.66763" lon="3.8021">
        <ele>166.8</ele>
        <time>2017-10-17T10:39:05Z</time>
      </trkpt>
      <trkpt lat="43.66752" lon="3.80202">
        <ele>165.4</ele>
        <time>2017-10-17T10:39:07Z</time>
      </trkpt>
      <trkpt lat="43.6674" lon="3.80198">
        <ele>165.4</ele>
        <time>2017-10-17T10:39:09Z</time>
      </trkpt>
      <trkpt lat="43.66729" lon="3.8019">
        <ele>166.4</ele>
        <time>2017-10-17T10:39:11Z</time>
      </trkpt>
      <trkpt lat="43.66715" lon="3.80184">
        <ele>167.1</ele>
        <time>2017-10-17T10:39:13Z</time>
      </trkpt>
      <trkpt lat="43.66708" lon="3.80182">
        <ele>167.3</ele>
        <time>2017-10-17T10:39:14Z</time>
      </trkpt>
      <trkpt lat="43.66696" lon="3.80176">
        <ele>167.1</ele>
        <time>2017-10-17T10:39:16Z</time>
      </trkpt>
      <trkpt lat="43.66685" lon="3.80166">
        <ele>167</ele>
        <time>2017-10-17T10:39:18Z</time>
      </trkpt>
      <trkpt lat="43.66673" lon="3.80159">
        <ele>166.3</ele>
        <time>2017-10-17T10:39:20Z</time>
      </trkpt>
      <trkpt lat="43.66661" lon="3.80155">
        <ele>165.8</ele>
        <time>2017-10-17T10:39:22Z</time>
      </trkpt>
      <trkpt lat="43.66653" lon="3.80153">
        <ele>165.4</ele>
        <time>2017-10-17T10:39:24Z</time>
      </trkpt>
      <trkpt lat="43.66642" lon="3.80155">
        <ele>165.2</ele>
        <time>2017-10-17T10:39:27Z</time>
      </trkpt>
      <trkpt lat="43.66633" lon="3.80155">
        <ele>165</ele>
        <time>2017-10-17T10:39:29Z</time>
      </trkpt>
      <trkpt lat="43.66622" lon="3.8015">
        <ele>165.7</ele>
        <time>2017-10-17T10:39:31Z</time>
      </trkpt>
      <trkpt lat="43.66613" lon="3.8014">
        <ele>165.7</ele>
        <time>2017-10-17T10:39:33Z</time>
      </trkpt>
      <trkpt lat="43.66606" lon="3.8013">
        <ele>165.6</ele>
        <time>2017-10-17T10:39:35Z</time>
      </trkpt>
      <trkpt lat="43.66601" lon="3.80123">
        <ele>165.5</ele>
        <time>2017-10-17T10:39:37Z</time>
      </trkpt>
      <trkpt lat="43.66597" lon="3.80111">
        <ele>165.3</ele>
        <time>2017-10-17T10:39:40Z</time>
      </trkpt>
      <trkpt lat="43.666" lon="3.80099">
        <ele>165</ele>
        <time>2017-10-17T10:39:43Z</time>
      </trkpt>
      <trkpt lat="43.66602" lon="3.80088">
        <ele>164.6</ele>
        <time>2017-10-17T10:39:45Z</time>
      </trkpt>
      <trkpt lat="43.66603" lon="3.80078">
        <ele>164.2</ele>
        <time>2017-10-17T10:39:47Z</time>
      </trkpt>
      <trkpt lat="43.666" lon="3.80068">
        <ele>163.6</ele>
        <time>2017-10-17T10:39:50Z</time>
      </trkpt>
      <trkpt lat="43.66596" lon="3.80053">
        <ele>162.4</ele>
        <time>2017-10-17T10:39:57Z</time>
      </trkpt>
      <trkpt lat="43.6659" lon="3.80045">
        <ele>161.9</ele>
        <time>2017-10-17T10:40:00Z</time>
      </trkpt>
      <trkpt lat="43.66585" lon="3.80034">
        <ele>161.5</ele>
        <time>2017-10-17T10:40:02Z</time>
      </trkpt>
      <trkpt lat="43.6658" lon="3.80023">
        <ele>161.2</ele>
        <time>2017-10-17T10:40:04Z</time>
      </trkpt>
      <trkpt lat="43.66576" lon="3.80012">
        <ele>160.2</ele>
        <time>2017-10-17T10:40:13Z</time>
      </trkpt>
      <trkpt lat="43.66573" lon="3.8001">
        <ele>159.4</ele>
        <time>2017-10-17T10:40:20Z</time>
      </trkpt>
      <trkpt lat="43.66567" lon="3.80004">
        <ele>159</ele>
        <time>2017-10-17T10:40:22Z</time>
      </trkpt>
      <trkpt lat="43.66559" lon="3.79995">
        <ele>156.7</ele>
        <time>2017-10-17T10:40:24Z</time>
      </trkpt>
      <trkpt lat="43.66553" lon="3.7999">
        <ele>156.5</ele>
        <time>2017-10-17T10:40:26Z</time>
      </trkpt>
      <trkpt lat="43.66547" lon="3.79985">
        <ele>156.2</ele>
        <time>2017-10-17T10:40:30Z</time>
      </trkpt>
      <trkpt lat="43.66541" lon="3.79975">
        <ele>156</ele>
        <time>2017-10-17T10:40:33Z</time>
      </trkpt>
      <trkpt lat="43.66535" lon="3.79969">
        <ele>155.2</ele>
        <time>2017-10-17T10:40:35Z</time>
      </trkpt>
      <trkpt lat="43.66526" lon="3.79962">
        <ele>154.3</ele>
        <time>2017-10-17T10:40:38Z</time>
      </trkpt>
      <trkpt lat="43.66512" lon="3.79954">
        <ele>152.8</ele>
        <time>2017-10-17T10:40:39Z</time>
      </trkpt>
      <trkpt lat="43.66505" lon="3.7995">
        <ele>151.8</ele>
        <time>2017-10-17T10:40:40Z</time>
      </trkpt>
      <trkpt lat="43.66494" lon="3.79943">
        <ele>149.7</ele>
        <time>2017-10-17T10:40:42Z</time>
      </trkpt>
      <trkpt lat="43.66482" lon="3.79937">
        <ele>148.2</ele>
        <time>2017-10-17T10:40:44Z</time>
      </trkpt>
      <trkpt lat="43.66474" lon="3.79931">
        <ele>147.2</ele>
        <time>2017-10-17T10:40:46Z</time>
      </trkpt>
      <trkpt lat="43.66466" lon="3.79923">
        <ele>146.3</ele>
        <time>2017-10-17T10:40:48Z</time>
      </trkpt>
      <trkpt lat="43.6646" lon="3.79909">
        <ele>145.8</ele>
        <time>2017-10-17T10:40:50Z</time>
      </trkpt>
      <trkpt lat="43.66458" lon="3.79899">
        <ele>145.7</ele>
        <time>2017-10-17T10:40:52Z</time>
      </trkpt>
      <trkpt lat="43.66454" lon="3.7989">
        <ele>145.3</ele>
        <time>2017-10-17T10:40:56Z</time>
      </trkpt>
      <trkpt lat="43.66447" lon="3.79886">
        <ele>145</ele>
        <time>2017-10-17T10:40:59Z</time>
      </trkpt>
      <trkpt lat="43.6644" lon="3.79879">
        <ele>144.7</ele>
        <time>2017-10-17T10:41:01Z</time>
      </trkpt>
      <trkpt lat="43.66432" lon="3.79874">
        <ele>144</ele>
        <time>2017-10-17T10:41:04Z</time>
      </trkpt>
      <trkpt lat="43.66424" lon="3.79867">
        <ele>143.4</ele>
        <time>2017-10-17T10:41:07Z</time>
      </trkpt>
      <trkpt lat="43.66418" lon="3.79861">
        <ele>143</ele>
        <time>2017-10-17T10:41:09Z</time>
      </trkpt>
      <trkpt lat="43.66411" lon="3.79855">
        <ele>142.5</ele>
        <time>2017-10-17T10:41:11Z</time>
      </trkpt>
      <trkpt lat="43.66405" lon="3.79849">
        <ele>142.2</ele>
        <time>2017-10-17T10:41:13Z</time>
      </trkpt>
      <trkpt lat="43.66398" lon="3.79841">
        <ele>139.6</ele>
        <time>2017-10-17T10:41:15Z</time>
      </trkpt>
      <trkpt lat="43.66391" lon="3.79834">
        <ele>139.3</ele>
        <time>2017-10-17T10:41:17Z</time>
      </trkpt>
      <trkpt lat="43.66386" lon="3.79825">
        <ele>139.1</ele>
        <time>2017-10-17T10:41:19Z</time>
      </trkpt>
      <trkpt lat="43.6638" lon="3.79818">
        <ele>138.8</ele>
        <time>2017-10-17T10:41:21Z</time>
      </trkpt>
      <trkpt lat="43.66373" lon="3.7981">
        <ele>135.8</ele>
        <time>2017-10-17T10:41:23Z</time>
      </trkpt>
      <trkpt lat="43.66365" lon="3.79802">
        <ele>134.1</ele>
        <time>2017-10-17T10:41:25Z</time>
      </trkpt>
      <trkpt lat="43.66356" lon="3.79795">
        <ele>132.7</ele>
        <time>2017-10-17T10:41:27Z</time>
      </trkpt>
      <trkpt lat="43.66348" lon="3.79788">
        <ele>131.9</ele>
        <time>2017-10-17T10:41:29Z</time>
      </trkpt>
      <trkpt lat="43.6634" lon="3.7978">
        <ele>131.7</ele>
        <time>2017-10-17T10:41:31Z</time>
      </trkpt>
      <trkpt lat="43.66331" lon="3.79773">
        <ele>131.4</ele>
        <time>2017-10-17T10:41:33Z</time>
      </trkpt>
      <trkpt lat="43.66323" lon="3.79768">
        <ele>131.4</ele>
        <time>2017-10-17T10:41:35Z</time>
      </trkpt>
      <trkpt lat="43.66316" lon="3.79764">
        <ele>131.3</ele>
        <time>2017-10-17T10:41:37Z</time>
      </trkpt>
      <trkpt lat="43.66308" lon="3.79756">
        <ele>131.2</ele>
        <time>2017-10-17T10:41:40Z</time>
      </trkpt>
      <trkpt lat="43.66302" lon="3.79749">
        <ele>131.2</ele>
        <time>2017-10-17T10:41:42Z</time>
      </trkpt>
      <trkpt lat="43.66295" lon="3.79744">
        <ele>131</ele>
        <time>2017-10-17T10:41:44Z</time>
      </trkpt>
      <trkpt lat="43.66286" lon="3.79737">
        <ele>131</ele>
        <time>2017-10-17T10:41:46Z</time>
      </trkpt>
      <trkpt lat="43.66278" lon="3.7973">
        <ele>131.1</ele>
        <time>2017-10-17T10:41:48Z</time>
      </trkpt>
      <trkpt lat="43.6627" lon="3.79723">
        <ele>131.6</ele>
        <time>2017-10-17T10:41:50Z</time>
      </trkpt>
      <trkpt lat="43.6626" lon="3.79716">
        <ele>131.6</ele>
        <time>2017-10-17T10:41:52Z</time>
      </trkpt>
      <trkpt lat="43.66251" lon="3.79709">
        <ele>132</ele>
        <time>2017-10-17T10:41:54Z</time>
      </trkpt>
      <trkpt lat="43.6624" lon="3.79702">
        <ele>132.4</ele>
        <time>2017-10-17T10:41:56Z</time>
      </trkpt>
      <trkpt lat="43.66231" lon="3.79691">
        <ele>132</ele>
        <time>2017-10-17T10:41:58Z</time>
      </trkpt>
      <trkpt lat="43.66223" lon="3.79684">
        <ele>131.7</ele>
        <time>2017-10-17T10:42:00Z</time>
      </trkpt>
      <trkpt lat="43.66214" lon="3.79675">
        <ele>131.2</ele>
        <time>2017-10-17T10:42:02Z</time>
      </trkpt>
      <trkpt lat="43.66205" lon="3.79664">
        <ele>130.3</ele>
        <time>2017-10-17T10:42:04Z</time>
      </trkpt>
      <trkpt lat="43.66196" lon="3.79656">
        <ele>130</ele>
        <time>2017-10-17T10:42:06Z</time>
      </trkpt>
      <trkpt lat="43.66187" lon="3.79647">
        <ele>129.5</ele>
        <time>2017-10-17T10:42:08Z</time>
      </trkpt>
      <trkpt lat="43.66177" lon="3.79637">
        <ele>129.3</ele>
        <time>2017-10-17T10:42:10Z</time>
      </trkpt>
      <trkpt lat="43.66166" lon="3.79628">
        <ele>129.4</ele>
        <time>2017-10-17T10:42:12Z</time>
      </trkpt>
      <trkpt lat="43.66155" lon="3.7962">
        <ele>128.5</ele>
        <time>2017-10-17T10:42:14Z</time>
      </trkpt>
      <trkpt lat="43.66145" lon="3.79613">
        <ele>127.6</ele>
        <time>2017-10-17T10:42:16Z</time>
      </trkpt>
      <trkpt lat="43.66139" lon="3.79601">
        <ele>126.6</ele>
        <time>2017-10-17T10:42:18Z</time>
      </trkpt>
      <trkpt lat="43.66139" lon="3.79583">
        <ele>125.6</ele>
        <time>2017-10-17T10:42:20Z</time>
      </trkpt>
      <trkpt lat="43.66136" lon="3.79564">
        <ele>124.7</ele>
        <time>2017-10-17T10:42:22Z</time>
      </trkpt>
      <trkpt lat="43.66134" lon="3.79555">
        <ele>124.4</ele>
        <time>2017-10-17T10:42:23Z</time>
      </trkpt>
      <trkpt lat="43.6613" lon="3.79537">
        <ele>124.1</ele>
        <time>2017-10-17T10:42:25Z</time>
      </trkpt>
      <trkpt lat="43.66124" lon="3.79523">
        <ele>124.2</ele>
        <time>2017-10-17T10:42:27Z</time>
      </trkpt>
      <trkpt lat="43.66116" lon="3.79511">
        <ele>124.2</ele>
        <time>2017-10-17T10:42:29Z</time>
      </trkpt>
      <trkpt lat="43.66108" lon="3.795">
        <ele>124.8</ele>
        <time>2017-10-17T10:42:31Z</time>
      </trkpt>
      <trkpt lat="43.661" lon="3.79491">
        <ele>125.2</ele>
        <time>2017-10-17T10:42:33Z</time>
      </trkpt>
      <trkpt lat="43.66093" lon="3.79483">
        <ele>125.3</ele>
        <time>2017-10-17T10:42:35Z</time>
      </trkpt>
      <trkpt lat="43.66084" lon="3.79475">
        <ele>125.6</ele>
        <time>2017-10-17T10:42:37Z</time>
      </trkpt>
      <trkpt lat="43.66076" lon="3.79468">
        <ele>125.8</ele>
        <time>2017-10-17T10:42:39Z</time>
      </trkpt>
      <trkpt lat="43.66068" lon="3.79463">
        <ele>125.8</ele>
        <time>2017-10-17T10:42:41Z</time>
      </trkpt>
      <trkpt lat="43.66061" lon="3.79458">
        <ele>125.8</ele>
        <time>2017-10-17T10:42:43Z</time>
      </trkpt>
      <trkpt lat="43.66055" lon="3.79454">
        <ele>125.8</ele>
        <time>2017-10-17T10:42:45Z</time>
      </trkpt>
      <trkpt lat="43.66048" lon="3.79449">
        <ele>125.8</ele>
        <time>2017-10-17T10:42:47Z</time>
      </trkpt>
      <trkpt lat="43.66041" lon="3.79443">
        <ele>125.9</ele>
        <time>2017-10-17T10:42:51Z</time>
      </trkpt>
      <trkpt lat="43.66035" lon="3.79437">
        <ele>126</ele>
        <time>2017-10-17T10:42:56Z</time>
      </trkpt>
      <trkpt lat="43.66032" lon="3.79447">
        <ele>126</ele>
        <time>2017-10-17T10:43:01Z</time>
      </trkpt>
      <trkpt lat="43.66031" lon="3.79458">
        <ele>126.2</ele>
        <time>2017-10-17T10:43:08Z</time>
      </trkpt>
      <trkpt lat="43.66031" lon="3.79468">
        <ele>126.5</ele>
        <time>2017-10-17T10:43:12Z</time>
      </trkpt>
      <trkpt lat="43.66031" lon="3.79478">
        <ele>126.8</ele>
        <time>2017-10-17T10:43:15Z</time>
      </trkpt>
      <trkpt lat="43.6603" lon="3.7949">
        <ele>127.1</ele>
        <time>2017-10-17T10:43:18Z</time>
      </trkpt>
      <trkpt lat="43.66029" lon="3.79501">
        <ele>127.5</ele>
        <time>2017-10-17T10:43:22Z</time>
      </trkpt>
      <trkpt lat="43.66028" lon="3.79513">
        <ele>128</ele>
        <time>2017-10-17T10:43:27Z</time>
      </trkpt>
      <trkpt lat="43.66028" lon="3.79525">
        <ele>128.6</ele>
        <time>2017-10-17T10:43:31Z</time>
      </trkpt>
      <trkpt lat="43.66027" lon="3.79535">
        <ele>129.1</ele>
        <time>2017-10-17T10:43:34Z</time>
      </trkpt>
      <trkpt lat="43.6603" lon="3.79547">
        <ele>129.7</ele>
        <time>2017-10-17T10:43:38Z</time>
      </trkpt>
      <trkpt lat="43.6603" lon="3.79557">
        <ele>129.9</ele>
        <time>2017-10-17T10:43:40Z</time>
      </trkpt>
      <trkpt lat="43.6603" lon="3.7957">
        <ele>130.2</ele>
        <time>2017-10-17T10:43:43Z</time>
      </trkpt>
      <trkpt lat="43.66031" lon="3.79583">
        <ele>130.6</ele>
        <time>2017-10-17T10:43:47Z</time>
      </trkpt>
      <trkpt lat="43.66032" lon="3.79593">
        <ele>131</ele>
        <time>2017-10-17T10:43:50Z</time>
      </trkpt>
      <trkpt lat="43.66031" lon="3.79603">
        <ele>131.2</ele>
        <time>2017-10-17T10:43:52Z</time>
      </trkpt>
      <trkpt lat="43.66028" lon="3.79617">
        <ele>131.5</ele>
        <time>2017-10-17T10:43:55Z</time>
      </trkpt>
      <trkpt lat="43.66026" lon="3.79629">
        <ele>131.8</ele>
        <time>2017-10-17T10:43:58Z</time>
      </trkpt>
      <trkpt lat="43.66024" lon="3.79639">
        <ele>132</ele>
        <time>2017-10-17T10:44:00Z</time>
      </trkpt>
      <trkpt lat="43.66022" lon="3.79648">
        <ele>132.2</ele>
        <time>2017-10-17T10:44:03Z</time>
      </trkpt>
      <trkpt lat="43.66019" lon="3.79662">
        <ele>132.6</ele>
        <time>2017-10-17T10:44:06Z</time>
      </trkpt>
      <trkpt lat="43.66016" lon="3.79673">
        <ele>133.1</ele>
        <time>2017-10-17T10:44:09Z</time>
      </trkpt>
      <trkpt lat="43.66015" lon="3.79684">
        <ele>133.7</ele>
        <time>2017-10-17T10:44:12Z</time>
      </trkpt>
      <trkpt lat="43.66014" lon="3.79694">
        <ele>134.3</ele>
        <time>2017-10-17T10:44:15Z</time>
      </trkpt>
      <trkpt lat="43.66012" lon="3.79704">
        <ele>134.9</ele>
        <time>2017-10-17T10:44:18Z</time>
      </trkpt>
      <trkpt lat="43.66012" lon="3.79714">
        <ele>135.8</ele>
        <time>2017-10-17T10:44:22Z</time>
      </trkpt>
      <trkpt lat="43.66011" lon="3.79726">
        <ele>136.5</ele>
        <time>2017-10-17T10:44:25Z</time>
      </trkpt>
      <trkpt lat="43.66008" lon="3.79737">
        <ele>137.2</ele>
        <time>2017-10-17T10:44:28Z</time>
      </trkpt>
      <trkpt lat="43.66006" lon="3.79748">
        <ele>138</ele>
        <time>2017-10-17T10:44:31Z</time>
      </trkpt>
      <trkpt lat="43.66004" lon="3.7976">
        <ele>138.9</ele>
        <time>2017-10-17T10:44:35Z</time>
      </trkpt>
      <trkpt lat="43.66003" lon="3.79772">
        <ele>139.8</ele>
        <time>2017-10-17T10:44:39Z</time>
      </trkpt>
      <trkpt lat="43.66002" lon="3.79783">
        <ele>141.1</ele>
        <time>2017-10-17T10:44:44Z</time>
      </trkpt>
      <trkpt lat="43.66001" lon="3.79794">
        <ele>142.3</ele>
        <time>2017-10-17T10:44:49Z</time>
      </trkpt>
      <trkpt lat="43.66001" lon="3.79806">
        <ele>143.3</ele>
        <time>2017-10-17T10:44:53Z</time>
      </trkpt>
      <trkpt lat="43.66002" lon="3.79817">
        <ele>144.8</ele>
        <time>2017-10-17T10:44:59Z</time>
      </trkpt>
      <trkpt lat="43.66004" lon="3.79826">
        <ele>145.5</ele>
        <time>2017-10-17T10:45:03Z</time>
      </trkpt>
      <trkpt lat="43.66002" lon="3.7984">
        <ele>146.1</ele>
        <time>2017-10-17T10:45:07Z</time>
      </trkpt>
      <trkpt lat="43.65999" lon="3.79852">
        <ele>146.6</ele>
        <time>2017-10-17T10:45:10Z</time>
      </trkpt>
      <trkpt lat="43.65996" lon="3.79861">
        <ele>147.1</ele>
        <time>2017-10-17T10:45:13Z</time>
      </trkpt>
      <trkpt lat="43.65992" lon="3.79874">
        <ele>148</ele>
        <time>2017-10-17T10:45:17Z</time>
      </trkpt>
      <trkpt lat="43.65989" lon="3.79885">
        <ele>148.9</ele>
        <time>2017-10-17T10:45:21Z</time>
      </trkpt>
      <trkpt lat="43.65984" lon="3.79896">
        <ele>150</ele>
        <time>2017-10-17T10:45:26Z</time>
      </trkpt>
      <trkpt lat="43.65979" lon="3.79906">
        <ele>150.9</ele>
        <time>2017-10-17T10:45:30Z</time>
      </trkpt>
      <trkpt lat="43.65974" lon="3.79914">
        <ele>151.7</ele>
        <time>2017-10-17T10:45:34Z</time>
      </trkpt>
      <trkpt lat="43.65968" lon="3.79924">
        <ele>152.5</ele>
        <time>2017-10-17T10:45:38Z</time>
      </trkpt>
      <trkpt lat="43.65961" lon="3.79931">
        <ele>153.3</ele>
        <time>2017-10-17T10:45:42Z</time>
      </trkpt>
      <trkpt lat="43.65954" lon="3.79938">
        <ele>154</ele>
        <time>2017-10-17T10:45:46Z</time>
      </trkpt>
      <trkpt lat="43.65947" lon="3.79945">
        <ele>154.5</ele>
        <time>2017-10-17T10:45:49Z</time>
      </trkpt>
      <trkpt lat="43.65941" lon="3.79954">
        <ele>155.2</ele>
        <time>2017-10-17T10:45:53Z</time>
      </trkpt>
      <trkpt lat="43.65936" lon="3.79964">
        <ele>155.8</ele>
        <time>2017-10-17T10:45:57Z</time>
      </trkpt>
      <trkpt lat="43.65929" lon="3.79972">
        <ele>156.4</ele>
        <time>2017-10-17T10:46:01Z</time>
      </trkpt>
      <trkpt lat="43.65923" lon="3.79982">
        <ele>157.1</ele>
        <time>2017-10-17T10:46:05Z</time>
      </trkpt>
      <trkpt lat="43.65919" lon="3.7999">
        <ele>157.7</ele>
        <time>2017-10-17T10:46:09Z</time>
      </trkpt>
      <trkpt lat="43.65912" lon="3.79999">
        <ele>158.4</ele>
        <time>2017-10-17T10:46:13Z</time>
      </trkpt>
      <trkpt lat="43.65904" lon="3.80004">
        <ele>159.2</ele>
        <time>2017-10-17T10:46:18Z</time>
      </trkpt>
      <trkpt lat="43.65897" lon="3.80007">
        <ele>159.8</ele>
        <time>2017-10-17T10:46:20Z</time>
      </trkpt>
      <trkpt lat="43.65888" lon="3.80009">
        <ele>160.7</ele>
        <time>2017-10-17T10:46:24Z</time>
      </trkpt>
      <trkpt lat="43.65879" lon="3.8001">
        <ele>161.5</ele>
        <time>2017-10-17T10:46:28Z</time>
      </trkpt>
      <trkpt lat="43.65872" lon="3.80012">
        <ele>162.5</ele>
        <time>2017-10-17T10:46:32Z</time>
      </trkpt>
      <trkpt lat="43.65865" lon="3.80018">
        <ele>163.3</ele>
        <time>2017-10-17T10:46:36Z</time>
      </trkpt>
      <trkpt lat="43.65856" lon="3.8002">
        <ele>164.2</ele>
        <time>2017-10-17T10:46:40Z</time>
      </trkpt>
      <trkpt lat="43.65846" lon="3.80022">
        <ele>165</ele>
        <time>2017-10-17T10:46:44Z</time>
      </trkpt>
      <trkpt lat="43.65839" lon="3.80022">
        <ele>165.6</ele>
        <time>2017-10-17T10:46:47Z</time>
      </trkpt>
      <trkpt lat="43.65831" lon="3.80022">
        <ele>166</ele>
        <time>2017-10-17T10:46:50Z</time>
      </trkpt>
      <trkpt lat="43.65824" lon="3.80023">
        <ele>166.5</ele>
        <time>2017-10-17T10:46:53Z</time>
      </trkpt>
      <trkpt lat="43.65814" lon="3.80023">
        <ele>167.3</ele>
        <time>2017-10-17T10:46:58Z</time>
      </trkpt>
      <trkpt lat="43.65805" lon="3.80024">
        <ele>167.9</ele>
        <time>2017-10-17T10:47:02Z</time>
      </trkpt>
      <trkpt lat="43.65798" lon="3.80024">
        <ele>168.4</ele>
        <time>2017-10-17T10:47:05Z</time>
      </trkpt>
      <trkpt lat="43.6579" lon="3.80024">
        <ele>169</ele>
        <time>2017-10-17T10:47:09Z</time>
      </trkpt>
      <trkpt lat="43.65781" lon="3.80025">
        <ele>169.6</ele>
        <time>2017-10-17T10:47:13Z</time>
      </trkpt>
      <trkpt lat="43.65772" lon="3.80027">
        <ele>170.2</ele>
        <time>2017-10-17T10:47:17Z</time>
      </trkpt>
      <trkpt lat="43.65764" lon="3.80031">
        <ele>171.1</ele>
        <time>2017-10-17T10:47:22Z</time>
      </trkpt>
      <trkpt lat="43.6576" lon="3.80041">
        <ele>171.9</ele>
        <time>2017-10-17T10:47:26Z</time>
      </trkpt>
      <trkpt lat="43.65768" lon="3.80045">
        <ele>172.9</ele>
        <time>2017-10-17T10:47:31Z</time>
      </trkpt>
      <trkpt lat="43.65778" lon="3.80047">
        <ele>173.8</ele>
        <time>2017-10-17T10:47:35Z</time>
      </trkpt>
      <trkpt lat="43.65785" lon="3.80051">
        <ele>174.4</ele>
        <time>2017-10-17T10:47:38Z</time>
      </trkpt>
      <trkpt lat="43.65794" lon="3.80054">
        <ele>175.4</ele>
        <time>2017-10-17T10:47:42Z</time>
      </trkpt>
      <trkpt lat="43.65803" lon="3.80057">
        <ele>176.5</ele>
        <time>2017-10-17T10:47:46Z</time>
      </trkpt>
      <trkpt lat="43.6581" lon="3.80061">
        <ele>177.8</ele>
        <time>2017-10-17T10:47:50Z</time>
      </trkpt>
      <trkpt lat="43.65809" lon="3.8005">
        <ele>178.9</ele>
        <time>2017-10-17T10:47:54Z</time>
      </trkpt>
      <trkpt lat="43.65802" lon="3.80042">
        <ele>179.3</ele>
        <time>2017-10-17T10:47:56Z</time>
      </trkpt>
      <trkpt lat="43.65795" lon="3.80031">
        <ele>182</ele>
        <time>2017-10-17T10:47:58Z</time>
      </trkpt>
      <trkpt lat="43.65788" lon="3.8002">
        <ele>182.5</ele>
        <time>2017-10-17T10:48:00Z</time>
      </trkpt>
      <trkpt lat="43.65784" lon="3.80011">
        <ele>182.5</ele>
        <time>2017-10-17T10:48:02Z</time>
      </trkpt>
      <trkpt lat="43.65785" lon="3.80001">
        <ele>182.4</ele>
        <time>2017-10-17T10:48:06Z</time>
      </trkpt>
      <trkpt lat="43.65784" lon="3.79989">
        <ele>182.2</ele>
        <time>2017-10-17T10:48:10Z</time>
      </trkpt>
      <trkpt lat="43.65783" lon="3.79979">
        <ele>182</ele>
        <time>2017-10-17T10:48:13Z</time>
      </trkpt>
      <trkpt lat="43.6578" lon="3.79968">
        <ele>181.9</ele>
        <time>2017-10-17T10:48:18Z</time>
      </trkpt>
      <trkpt lat="43.65778" lon="3.79956">
        <ele>182.3</ele>
        <time>2017-10-17T10:48:21Z</time>
      </trkpt>
      <trkpt lat="43.65776" lon="3.79945">
        <ele>182.6</ele>
        <time>2017-10-17T10:48:24Z</time>
      </trkpt>
      <trkpt lat="43.65774" lon="3.79933">
        <ele>183.1</ele>
        <time>2017-10-17T10:48:28Z</time>
      </trkpt>
      <trkpt lat="43.65772" lon="3.79919">
        <ele>183.6</ele>
        <time>2017-10-17T10:48:34Z</time>
      </trkpt>
      <trkpt lat="43.65771" lon="3.79908">
        <ele>184</ele>
        <time>2017-10-17T10:48:39Z</time>
      </trkpt>
      <trkpt lat="43.65765" lon="3.79896">
        <ele>184.2</ele>
        <time>2017-10-17T10:48:43Z</time>
      </trkpt>
      <trkpt lat="43.6576" lon="3.79886">
        <ele>184.3</ele>
        <time>2017-10-17T10:48:46Z</time>
      </trkpt>
      <trkpt lat="43.65755" lon="3.79876">
        <ele>184.4</ele>
        <time>2017-10-17T10:48:49Z</time>
      </trkpt>
      <trkpt lat="43.65751" lon="3.79868">
        <ele>184.7</ele>
        <time>2017-10-17T10:48:53Z</time>
      </trkpt>
      <trkpt lat="43.65744" lon="3.79863">
        <ele>184.9</ele>
        <time>2017-10-17T10:48:57Z</time>
      </trkpt>
      <trkpt lat="43.65736" lon="3.7986">
        <ele>185.4</ele>
        <time>2017-10-17T10:49:01Z</time>
      </trkpt>
      <trkpt lat="43.65727" lon="3.79855">
        <ele>185.7</ele>
        <time>2017-10-17T10:49:04Z</time>
      </trkpt>
      <trkpt lat="43.65718" lon="3.79851">
        <ele>186.1</ele>
        <time>2017-10-17T10:49:07Z</time>
      </trkpt>
      <trkpt lat="43.65709" lon="3.79844">
        <ele>186.8</ele>
        <time>2017-10-17T10:49:10Z</time>
      </trkpt>
      <trkpt lat="43.65702" lon="3.79839">
        <ele>186.9</ele>
        <time>2017-10-17T10:49:12Z</time>
      </trkpt>
      <trkpt lat="43.65695" lon="3.79834">
        <ele>186.9</ele>
        <time>2017-10-17T10:49:14Z</time>
      </trkpt>
      <trkpt lat="43.65687" lon="3.79829">
        <ele>187</ele>
        <time>2017-10-17T10:49:16Z</time>
      </trkpt>
      <trkpt lat="43.6568" lon="3.79823">
        <ele>187.1</ele>
        <time>2017-10-17T10:49:18Z</time>
      </trkpt>
      <trkpt lat="43.65671" lon="3.79816">
        <ele>187.7</ele>
        <time>2017-10-17T10:49:21Z</time>
      </trkpt>
      <trkpt lat="43.65661" lon="3.7981">
        <ele>187.7</ele>
        <time>2017-10-17T10:49:24Z</time>
      </trkpt>
      <trkpt lat="43.65655" lon="3.79803">
        <ele>187.5</ele>
        <time>2017-10-17T10:49:27Z</time>
      </trkpt>
      <trkpt lat="43.65646" lon="3.79796">
        <ele>184.5</ele>
        <time>2017-10-17T10:49:29Z</time>
      </trkpt>
      <trkpt lat="43.65637" lon="3.79788">
        <ele>182.4</ele>
        <time>2017-10-17T10:49:31Z</time>
      </trkpt>
      <trkpt lat="43.65628" lon="3.7978">
        <ele>181.1</ele>
        <time>2017-10-17T10:49:33Z</time>
      </trkpt>
      <trkpt lat="43.65619" lon="3.79775">
        <ele>180.5</ele>
        <time>2017-10-17T10:49:35Z</time>
      </trkpt>
      <trkpt lat="43.6561" lon="3.7977">
        <ele>180.6</ele>
        <time>2017-10-17T10:49:37Z</time>
      </trkpt>
      <trkpt lat="43.65601" lon="3.79764">
        <ele>180.5</ele>
        <time>2017-10-17T10:49:39Z</time>
      </trkpt>
      <trkpt lat="43.65591" lon="3.79759">
        <ele>180.2</ele>
        <time>2017-10-17T10:49:41Z</time>
      </trkpt>
      <trkpt lat="43.6558" lon="3.79756">
        <ele>180.1</ele>
        <time>2017-10-17T10:49:43Z</time>
      </trkpt>
      <trkpt lat="43.6557" lon="3.79751">
        <ele>179.9</ele>
        <time>2017-10-17T10:49:45Z</time>
      </trkpt>
      <trkpt lat="43.65562" lon="3.79745">
        <ele>180</ele>
        <time>2017-10-17T10:49:47Z</time>
      </trkpt>
      <trkpt lat="43.65553" lon="3.79735">
        <ele>179.6</ele>
        <time>2017-10-17T10:49:49Z</time>
      </trkpt>
      <trkpt lat="43.65543" lon="3.79721">
        <ele>179.2</ele>
        <time>2017-10-17T10:49:51Z</time>
      </trkpt>
      <trkpt lat="43.65538" lon="3.79705">
        <ele>179</ele>
        <time>2017-10-17T10:49:53Z</time>
      </trkpt>
      <trkpt lat="43.65536" lon="3.79694">
        <ele>179.4</ele>
        <time>2017-10-17T10:49:55Z</time>
      </trkpt>
      <trkpt lat="43.65533" lon="3.79682">
        <ele>180.2</ele>
        <time>2017-10-17T10:49:57Z</time>
      </trkpt>
      <trkpt lat="43.6553" lon="3.79672">
        <ele>180.3</ele>
        <time>2017-10-17T10:49:59Z</time>
      </trkpt>
      <trkpt lat="43.65528" lon="3.79663">
        <ele>181.1</ele>
        <time>2017-10-17T10:50:01Z</time>
      </trkpt>
      <trkpt lat="43.65525" lon="3.79652">
        <ele>181.2</ele>
        <time>2017-10-17T10:50:03Z</time>
      </trkpt>
      <trkpt lat="43.65523" lon="3.79641">
        <ele>182</ele>
        <time>2017-10-17T10:50:05Z</time>
      </trkpt>
      <trkpt lat="43.65519" lon="3.79629">
        <ele>182.6</ele>
        <time>2017-10-17T10:50:07Z</time>
      </trkpt>
      <trkpt lat="43.65511" lon="3.79616">
        <ele>182.8</ele>
        <time>2017-10-17T10:50:11Z</time>
      </trkpt>
      <trkpt lat="43.65505" lon="3.79609">
        <ele>183.1</ele>
        <time>2017-10-17T10:50:12Z</time>
      </trkpt>
      <trkpt lat="43.65498" lon="3.79601">
        <ele>183.7</ele>
        <time>2017-10-17T10:50:14Z</time>
      </trkpt>
      <trkpt lat="43.65492" lon="3.79593">
        <ele>184</ele>
        <time>2017-10-17T10:50:16Z</time>
      </trkpt>
      <trkpt lat="43.65486" lon="3.79586">
        <ele>184.4</ele>
        <time>2017-10-17T10:50:18Z</time>
      </trkpt>
      <trkpt lat="43.65481" lon="3.79579">
        <ele>184.4</ele>
        <time>2017-10-17T10:50:20Z</time>
      </trkpt>
      <trkpt lat="43.65476" lon="3.79571">
        <ele>184.8</ele>
        <time>2017-10-17T10:50:22Z</time>
      </trkpt>
      <trkpt lat="43.65471" lon="3.79562">
        <ele>184.8</ele>
        <time>2017-10-17T10:50:24Z</time>
      </trkpt>
      <trkpt lat="43.65466" lon="3.79553">
        <ele>184.9</ele>
        <time>2017-10-17T10:50:27Z</time>
      </trkpt>
      <trkpt lat="43.65458" lon="3.79546">
        <ele>185</ele>
        <time>2017-10-17T10:50:30Z</time>
      </trkpt>
      <trkpt lat="43.6545" lon="3.79539">
        <ele>185.2</ele>
        <time>2017-10-17T10:50:33Z</time>
      </trkpt>
      <trkpt lat="43.65444" lon="3.79535">
        <ele>185.9</ele>
        <time>2017-10-17T10:50:35Z</time>
      </trkpt>
      <trkpt lat="43.65438" lon="3.79528">
        <ele>186.2</ele>
        <time>2017-10-17T10:50:37Z</time>
      </trkpt>
      <trkpt lat="43.65429" lon="3.7952">
        <ele>186.6</ele>
        <time>2017-10-17T10:50:40Z</time>
      </trkpt>
      <trkpt lat="43.65422" lon="3.79513">
        <ele>186.9</ele>
        <time>2017-10-17T10:50:42Z</time>
      </trkpt>
      <trkpt lat="43.65414" lon="3.79505">
        <ele>187.2</ele>
        <time>2017-10-17T10:50:44Z</time>
      </trkpt>
      <trkpt lat="43.65406" lon="3.79499">
        <ele>187.2</ele>
        <time>2017-10-17T10:50:46Z</time>
      </trkpt>
      <trkpt lat="43.65393" lon="3.79494">
        <ele>186.7</ele>
        <time>2017-10-17T10:50:48Z</time>
      </trkpt>
      <trkpt lat="43.65384" lon="3.79493">
        <ele>186.5</ele>
        <time>2017-10-17T10:50:49Z</time>
      </trkpt>
      <trkpt lat="43.65377" lon="3.79493">
        <ele>186.3</ele>
        <time>2017-10-17T10:50:50Z</time>
      </trkpt>
      <trkpt lat="43.65368" lon="3.79493">
        <ele>186.1</ele>
        <time>2017-10-17T10:50:51Z</time>
      </trkpt>
      <trkpt lat="43.6536" lon="3.79494">
        <ele>186.1</ele>
        <time>2017-10-17T10:50:52Z</time>
      </trkpt>
      <trkpt lat="43.65351" lon="3.79496">
        <ele>186.1</ele>
        <time>2017-10-17T10:50:53Z</time>
      </trkpt>
      <trkpt lat="43.65342" lon="3.79496">
        <ele>186</ele>
        <time>2017-10-17T10:50:54Z</time>
      </trkpt>
      <trkpt lat="43.65332" lon="3.79495">
        <ele>186</ele>
        <time>2017-10-17T10:50:55Z</time>
      </trkpt>
      <trkpt lat="43.65323" lon="3.79496">
        <ele>186</ele>
        <time>2017-10-17T10:50:56Z</time>
      </trkpt>
      <trkpt lat="43.65314" lon="3.79497">
        <ele>185.7</ele>
        <time>2017-10-17T10:50:57Z</time>
      </trkpt>
      <trkpt lat="43.65307" lon="3.79495">
        <ele>185.8</ele>
        <time>2017-10-17T10:50:58Z</time>
      </trkpt>
      <trkpt lat="43.65299" lon="3.7949">
        <ele>185.3</ele>
        <time>2017-10-17T10:50:59Z</time>
      </trkpt>
      <trkpt lat="43.6529" lon="3.79482">
        <ele>184.8</ele>
        <time>2017-10-17T10:51:00Z</time>
      </trkpt>
      <trkpt lat="43.65282" lon="3.79474">
        <ele>184</ele>
        <time>2017-10-17T10:51:01Z</time>
      </trkpt>
      <trkpt lat="43.65275" lon="3.79463">
        <ele>183</ele>
        <time>2017-10-17T10:51:02Z</time>
      </trkpt>
      <trkpt lat="43.65269" lon="3.79453">
        <ele>182.6</ele>
        <time>2017-10-17T10:51:03Z</time>
      </trkpt>
      <trkpt lat="43.65262" lon="3.79445">
        <ele>182.2</ele>
        <time>2017-10-17T10:51:04Z</time>
      </trkpt>
      <trkpt lat="43.65254" lon="3.79439">
        <ele>181.6</ele>
        <time>2017-10-17T10:51:05Z</time>
      </trkpt>
      <trkpt lat="43.65245" lon="3.79435">
        <ele>180.9</ele>
        <time>2017-10-17T10:51:06Z</time>
      </trkpt>
      <trkpt lat="43.65237" lon="3.79429">
        <ele>180</ele>
        <time>2017-10-17T10:51:07Z</time>
      </trkpt>
      <trkpt lat="43.6523" lon="3.79422">
        <ele>179.2</ele>
        <time>2017-10-17T10:51:08Z</time>
      </trkpt>
      <trkpt lat="43.65223" lon="3.79416">
        <ele>178.3</ele>
        <time>2017-10-17T10:51:09Z</time>
      </trkpt>
      <trkpt lat="43.65217" lon="3.79408">
        <ele>177.2</ele>
        <time>2017-10-17T10:51:10Z</time>
      </trkpt>
      <trkpt lat="43.65206" lon="3.79398">
        <ele>175.1</ele>
        <time>2017-10-17T10:51:12Z</time>
      </trkpt>
      <trkpt lat="43.65199" lon="3.79384">
        <ele>173.1</ele>
        <time>2017-10-17T10:51:14Z</time>
      </trkpt>
      <trkpt lat="43.65191" lon="3.79369">
        <ele>171</ele>
        <time>2017-10-17T10:51:16Z</time>
      </trkpt>
      <trkpt lat="43.65182" lon="3.79355">
        <ele>169.4</ele>
        <time>2017-10-17T10:51:18Z</time>
      </trkpt>
      <trkpt lat="43.65175" lon="3.79341">
        <ele>167.7</ele>
        <time>2017-10-17T10:51:20Z</time>
      </trkpt>
      <trkpt lat="43.6517" lon="3.79328">
        <ele>166.2</ele>
        <time>2017-10-17T10:51:22Z</time>
      </trkpt>
      <trkpt lat="43.6517" lon="3.79314">
        <ele>166</ele>
        <time>2017-10-17T10:51:24Z</time>
      </trkpt>
      <trkpt lat="43.65174" lon="3.79296">
        <ele>164.8</ele>
        <time>2017-10-17T10:51:26Z</time>
      </trkpt>
      <trkpt lat="43.65175" lon="3.79286">
        <ele>164.2</ele>
        <time>2017-10-17T10:51:27Z</time>
      </trkpt>
      <trkpt lat="43.65177" lon="3.79276">
        <ele>164</ele>
        <time>2017-10-17T10:51:28Z</time>
      </trkpt>
      <trkpt lat="43.65178" lon="3.79264">
        <ele>164.1</ele>
        <time>2017-10-17T10:51:29Z</time>
      </trkpt>
      <trkpt lat="43.6518" lon="3.79254">
        <ele>164.2</ele>
        <time>2017-10-17T10:51:30Z</time>
      </trkpt>
      <trkpt lat="43.65187" lon="3.79242">
        <ele>164.4</ele>
        <time>2017-10-17T10:51:32Z</time>
      </trkpt>
      <trkpt lat="43.65191" lon="3.79232">
        <ele>164.5</ele>
        <time>2017-10-17T10:51:34Z</time>
      </trkpt>
      <trkpt lat="43.65194" lon="3.79222">
        <ele>164.3</ele>
        <time>2017-10-17T10:51:37Z</time>
      </trkpt>
      <trkpt lat="43.65198" lon="3.79213">
        <ele>164.1</ele>
        <time>2017-10-17T10:51:39Z</time>
      </trkpt>
      <trkpt lat="43.65205" lon="3.79204">
        <ele>163.9</ele>
        <time>2017-10-17T10:51:42Z</time>
      </trkpt>
      <trkpt lat="43.65212" lon="3.79195">
        <ele>163.3</ele>
        <time>2017-10-17T10:51:46Z</time>
      </trkpt>
      <trkpt lat="43.65219" lon="3.79189">
        <ele>162.8</ele>
        <time>2017-10-17T10:51:50Z</time>
      </trkpt>
      <trkpt lat="43.65227" lon="3.7918">
        <ele>162.1</ele>
        <time>2017-10-17T10:51:54Z</time>
      </trkpt>
      <trkpt lat="43.65231" lon="3.79168">
        <ele>161.3</ele>
        <time>2017-10-17T10:51:57Z</time>
      </trkpt>
      <trkpt lat="43.65238" lon="3.79161">
        <ele>160.7</ele>
        <time>2017-10-17T10:51:59Z</time>
      </trkpt>
      <trkpt lat="43.65245" lon="3.79155">
        <ele>159.9</ele>
        <time>2017-10-17T10:52:02Z</time>
      </trkpt>
      <trkpt lat="43.65251" lon="3.79149">
        <ele>158.7</ele>
        <time>2017-10-17T10:52:06Z</time>
      </trkpt>
      <trkpt lat="43.6525" lon="3.79137">
        <ele>157.5</ele>
        <time>2017-10-17T10:52:09Z</time>
      </trkpt>
      <trkpt lat="43.65247" lon="3.79123">
        <ele>149.9</ele>
        <time>2017-10-17T10:52:12Z</time>
      </trkpt>
      <trkpt lat="43.65243" lon="3.79111">
        <ele>145.5</ele>
        <time>2017-10-17T10:52:14Z</time>
      </trkpt>
      <trkpt lat="43.65236" lon="3.79101">
        <ele>141.5</ele>
        <time>2017-10-17T10:52:16Z</time>
      </trkpt>
      <trkpt lat="43.65225" lon="3.79092">
        <ele>139.4</ele>
        <time>2017-10-17T10:52:18Z</time>
      </trkpt>
      <trkpt lat="43.65213" lon="3.79089">
        <ele>138</ele>
        <time>2017-10-17T10:52:20Z</time>
      </trkpt>
      <trkpt lat="43.65205" lon="3.79084">
        <ele>136.9</ele>
        <time>2017-10-17T10:52:22Z</time>
      </trkpt>
      <trkpt lat="43.65196" lon="3.7908">
        <ele>136.7</ele>
        <time>2017-10-17T10:52:24Z</time>
      </trkpt>
      <trkpt lat="43.65193" lon="3.79071">
        <ele>136.4</ele>
        <time>2017-10-17T10:52:26Z</time>
      </trkpt>
      <trkpt lat="43.65188" lon="3.79063">
        <ele>135.9</ele>
        <time>2017-10-17T10:52:29Z</time>
      </trkpt>
      <trkpt lat="43.65178" lon="3.79062">
        <ele>135</ele>
        <time>2017-10-17T10:52:33Z</time>
      </trkpt>
      <trkpt lat="43.65171" lon="3.7906">
        <ele>134.5</ele>
        <time>2017-10-17T10:52:35Z</time>
      </trkpt>
      <trkpt lat="43.6516" lon="3.79059">
        <ele>133.8</ele>
        <time>2017-10-17T10:52:38Z</time>
      </trkpt>
      <trkpt lat="43.65153" lon="3.79058">
        <ele>129.6</ele>
        <time>2017-10-17T10:52:40Z</time>
      </trkpt>
      <trkpt lat="43.65142" lon="3.79058">
        <ele>129</ele>
        <time>2017-10-17T10:52:43Z</time>
      </trkpt>
      <trkpt lat="43.65135" lon="3.79057">
        <ele>126.7</ele>
        <time>2017-10-17T10:52:45Z</time>
      </trkpt>
      <trkpt lat="43.65127" lon="3.79058">
        <ele>124.5</ele>
        <time>2017-10-17T10:52:47Z</time>
      </trkpt>
      <trkpt lat="43.65117" lon="3.79062">
        <ele>121.7</ele>
        <time>2017-10-17T10:52:50Z</time>
      </trkpt>
      <trkpt lat="43.6511" lon="3.79067">
        <ele>117.8</ele>
        <time>2017-10-17T10:52:52Z</time>
      </trkpt>
      <trkpt lat="43.65103" lon="3.79071">
        <ele>115.2</ele>
        <time>2017-10-17T10:52:54Z</time>
      </trkpt>
      <trkpt lat="43.65095" lon="3.79076">
        <ele>112.6</ele>
        <time>2017-10-17T10:52:56Z</time>
      </trkpt>
      <trkpt lat="43.65088" lon="3.7908">
        <ele>111</ele>
        <time>2017-10-17T10:52:58Z</time>
      </trkpt>
      <trkpt lat="43.65079" lon="3.79087">
        <ele>110.7</ele>
        <time>2017-10-17T10:53:01Z</time>
      </trkpt>
      <trkpt lat="43.65071" lon="3.79085">
        <ele>110.3</ele>
        <time>2017-10-17T10:53:07Z</time>
      </trkpt>
      <trkpt lat="43.6507" lon="3.79072">
        <ele>110.3</ele>
        <time>2017-10-17T10:53:10Z</time>
      </trkpt>
      <trkpt lat="43.65077" lon="3.79061">
        <ele>110.4</ele>
        <time>2017-10-17T10:53:12Z</time>
      </trkpt>
      <trkpt lat="43.65085" lon="3.79046">
        <ele>110.8</ele>
        <time>2017-10-17T10:53:14Z</time>
      </trkpt>
      <trkpt lat="43.6509" lon="3.79031">
        <ele>110.7</ele>
        <time>2017-10-17T10:53:16Z</time>
      </trkpt>
      <trkpt lat="43.65092" lon="3.79018">
        <ele>110.6</ele>
        <time>2017-10-17T10:53:18Z</time>
      </trkpt>
      <trkpt lat="43.65092" lon="3.79003">
        <ele>110.1</ele>
        <time>2017-10-17T10:53:20Z</time>
      </trkpt>
      <trkpt lat="43.6509" lon="3.78989">
        <ele>110.1</ele>
        <time>2017-10-17T10:53:22Z</time>
      </trkpt>
      <trkpt lat="43.65088" lon="3.78978">
        <ele>110</ele>
        <time>2017-10-17T10:53:24Z</time>
      </trkpt>
      <trkpt lat="43.65085" lon="3.78966">
        <ele>109.9</ele>
        <time>2017-10-17T10:53:26Z</time>
      </trkpt>
      <trkpt lat="43.65082" lon="3.78956">
        <ele>109.9</ele>
        <time>2017-10-17T10:53:28Z</time>
      </trkpt>
      <trkpt lat="43.6508" lon="3.78946">
        <ele>110</ele>
        <time>2017-10-17T10:53:30Z</time>
      </trkpt>
      <trkpt lat="43.65077" lon="3.78937">
        <ele>111.1</ele>
        <time>2017-10-17T10:53:32Z</time>
      </trkpt>
      <trkpt lat="43.65074" lon="3.78927">
        <ele>111.7</ele>
        <time>2017-10-17T10:53:34Z</time>
      </trkpt>
      <trkpt lat="43.6507" lon="3.78918">
        <ele>111.8</ele>
        <time>2017-10-17T10:53:36Z</time>
      </trkpt>
      <trkpt lat="43.65066" lon="3.78904">
        <ele>113</ele>
        <time>2017-10-17T10:53:39Z</time>
      </trkpt>
      <trkpt lat="43.6506" lon="3.78895">
        <ele>114.2</ele>
        <time>2017-10-17T10:53:41Z</time>
      </trkpt>
      <trkpt lat="43.65051" lon="3.78895">
        <ele>114.4</ele>
        <time>2017-10-17T10:53:45Z</time>
      </trkpt>
      <trkpt lat="43.65043" lon="3.78902">
        <ele>114.4</ele>
        <time>2017-10-17T10:53:48Z</time>
      </trkpt>
      <trkpt lat="43.65037" lon="3.78908">
        <ele>114.3</ele>
        <time>2017-10-17T10:53:50Z</time>
      </trkpt>
      <trkpt lat="43.6503" lon="3.78912">
        <ele>114.2</ele>
        <time>2017-10-17T10:53:54Z</time>
      </trkpt>
      <trkpt lat="43.65023" lon="3.78919">
        <ele>114.1</ele>
        <time>2017-10-17T10:53:58Z</time>
      </trkpt>
      <trkpt lat="43.65019" lon="3.78927">
        <ele>114</ele>
        <time>2017-10-17T10:54:01Z</time>
      </trkpt>
      <trkpt lat="43.6501" lon="3.78928">
        <ele>113.9</ele>
        <time>2017-10-17T10:54:07Z</time>
      </trkpt>
      <trkpt lat="43.65004" lon="3.78937">
        <ele>113.9</ele>
        <time>2017-10-17T10:54:13Z</time>
      </trkpt>
      <trkpt lat="43.65" lon="3.78947">
        <ele>113.7</ele>
        <time>2017-10-17T10:54:16Z</time>
      </trkpt>
      <trkpt lat="43.64996" lon="3.78958">
        <ele>113.4</ele>
        <time>2017-10-17T10:54:22Z</time>
      </trkpt>
      <trkpt lat="43.64995" lon="3.78971">
        <ele>112.9</ele>
        <time>2017-10-17T10:54:25Z</time>
      </trkpt>
      <trkpt lat="43.64989" lon="3.7898">
        <ele>112.7</ele>
        <time>2017-10-17T10:54:27Z</time>
      </trkpt>
      <trkpt lat="43.6498" lon="3.78985">
        <ele>112.5</ele>
        <time>2017-10-17T10:54:29Z</time>
      </trkpt>
      <trkpt lat="43.64972" lon="3.78994">
        <ele>111.8</ele>
        <time>2017-10-17T10:54:31Z</time>
      </trkpt>
      <trkpt lat="43.64962" lon="3.79001">
        <ele>111.7</ele>
        <time>2017-10-17T10:54:33Z</time>
      </trkpt>
      <trkpt lat="43.64952" lon="3.79009">
        <ele>111.8</ele>
        <time>2017-10-17T10:54:35Z</time>
      </trkpt>
      <trkpt lat="43.64944" lon="3.79018">
        <ele>111.6</ele>
        <time>2017-10-17T10:54:37Z</time>
      </trkpt>
      <trkpt lat="43.64937" lon="3.79024">
        <ele>111.5</ele>
        <time>2017-10-17T10:54:39Z</time>
      </trkpt>
      <trkpt lat="43.64928" lon="3.79032">
        <ele>111.4</ele>
        <time>2017-10-17T10:54:41Z</time>
      </trkpt>
      <trkpt lat="43.6492" lon="3.79036">
        <ele>111.2</ele>
        <time>2017-10-17T10:54:43Z</time>
      </trkpt>
      <trkpt lat="43.64912" lon="3.79041">
        <ele>110.9</ele>
        <time>2017-10-17T10:54:45Z</time>
      </trkpt>
      <trkpt lat="43.64904" lon="3.79048">
        <ele>110.8</ele>
        <time>2017-10-17T10:54:48Z</time>
      </trkpt>
      <trkpt lat="43.64894" lon="3.79053">
        <ele>110.4</ele>
        <time>2017-10-17T10:54:51Z</time>
      </trkpt>
      <trkpt lat="43.64888" lon="3.79059">
        <ele>108.8</ele>
        <time>2017-10-17T10:54:53Z</time>
      </trkpt>
      <trkpt lat="43.64879" lon="3.79067">
        <ele>108.1</ele>
        <time>2017-10-17T10:54:55Z</time>
      </trkpt>
      <trkpt lat="43.64871" lon="3.79075">
        <ele>107.8</ele>
        <time>2017-10-17T10:54:57Z</time>
      </trkpt>
      <trkpt lat="43.64862" lon="3.79077">
        <ele>107.1</ele>
        <time>2017-10-17T10:54:59Z</time>
      </trkpt>
      <trkpt lat="43.64853" lon="3.79081">
        <ele>107.1</ele>
        <time>2017-10-17T10:55:01Z</time>
      </trkpt>
      <trkpt lat="43.64843" lon="3.79085">
        <ele>107.2</ele>
        <time>2017-10-17T10:55:04Z</time>
      </trkpt>
      <trkpt lat="43.64837" lon="3.79096">
        <ele>107.2</ele>
        <time>2017-10-17T10:55:07Z</time>
      </trkpt>
      <trkpt lat="43.64832" lon="3.79109">
        <ele>107.2</ele>
        <time>2017-10-17T10:55:10Z</time>
      </trkpt>
      <trkpt lat="43.64827" lon="3.79117">
        <ele>107.2</ele>
        <time>2017-10-17T10:55:12Z</time>
      </trkpt>
      <trkpt lat="43.6482" lon="3.79125">
        <ele>107.2</ele>
        <time>2017-10-17T10:55:15Z</time>
      </trkpt>
      <trkpt lat="43.64813" lon="3.79133">
        <ele>107.4</ele>
        <time>2017-10-17T10:55:18Z</time>
      </trkpt>
      <trkpt lat="43.64805" lon="3.7914">
        <ele>107.5</ele>
        <time>2017-10-17T10:55:21Z</time>
      </trkpt>
      <trkpt lat="43.64797" lon="3.79141">
        <ele>107.5</ele>
        <time>2017-10-17T10:55:23Z</time>
      </trkpt>
      <trkpt lat="43.64789" lon="3.79147">
        <ele>107.5</ele>
        <time>2017-10-17T10:55:26Z</time>
      </trkpt>
      <trkpt lat="43.6478" lon="3.7915">
        <ele>107.6</ele>
        <time>2017-10-17T10:55:29Z</time>
      </trkpt>
      <trkpt lat="43.64772" lon="3.79156">
        <ele>107.7</ele>
        <time>2017-10-17T10:55:33Z</time>
      </trkpt>
      <trkpt lat="43.64764" lon="3.79165">
        <ele>107.8</ele>
        <time>2017-10-17T10:55:36Z</time>
      </trkpt>
      <trkpt lat="43.64757" lon="3.79173">
        <ele>107.9</ele>
        <time>2017-10-17T10:55:39Z</time>
      </trkpt>
      <trkpt lat="43.6475" lon="3.79179">
        <ele>107.9</ele>
        <time>2017-10-17T10:55:41Z</time>
      </trkpt>
      <trkpt lat="43.64744" lon="3.79185">
        <ele>108</ele>
        <time>2017-10-17T10:55:43Z</time>
      </trkpt>
      <trkpt lat="43.64736" lon="3.7919">
        <ele>108.6</ele>
        <time>2017-10-17T10:55:45Z</time>
      </trkpt>
      <trkpt lat="43.64729" lon="3.79193">
        <ele>108.7</ele>
        <time>2017-10-17T10:55:47Z</time>
      </trkpt>
      <trkpt lat="43.64722" lon="3.79201">
        <ele>109.2</ele>
        <time>2017-10-17T10:55:50Z</time>
      </trkpt>
      <trkpt lat="43.64716" lon="3.79209">
        <ele>109.9</ele>
        <time>2017-10-17T10:55:54Z</time>
      </trkpt>
      <trkpt lat="43.64714" lon="3.79224">
        <ele>111.5</ele>
        <time>2017-10-17T10:55:58Z</time>
      </trkpt>
      <trkpt lat="43.64717" lon="3.79238">
        <ele>110.6</ele>
        <time>2017-10-17T10:56:00Z</time>
      </trkpt>
      <trkpt lat="43.64717" lon="3.79248">
        <ele>109.8</ele>
        <time>2017-10-17T10:56:01Z</time>
      </trkpt>
      <trkpt lat="43.64716" lon="3.79265">
        <ele>109.1</ele>
        <time>2017-10-17T10:56:03Z</time>
      </trkpt>
      <trkpt lat="43.64709" lon="3.79273">
        <ele>109</ele>
        <time>2017-10-17T10:56:05Z</time>
      </trkpt>
      <trkpt lat="43.647" lon="3.79276">
        <ele>108.6</ele>
        <time>2017-10-17T10:56:07Z</time>
      </trkpt>
      <trkpt lat="43.64691" lon="3.79281">
        <ele>108.6</ele>
        <time>2017-10-17T10:56:09Z</time>
      </trkpt>
      <trkpt lat="43.64684" lon="3.79287">
        <ele>108.7</ele>
        <time>2017-10-17T10:56:11Z</time>
      </trkpt>
      <trkpt lat="43.64679" lon="3.79297">
        <ele>108.8</ele>
        <time>2017-10-17T10:56:14Z</time>
      </trkpt>
      <trkpt lat="43.64674" lon="3.79309">
        <ele>108.9</ele>
        <time>2017-10-17T10:56:17Z</time>
      </trkpt>
      <trkpt lat="43.64669" lon="3.79321">
        <ele>108.9</ele>
        <time>2017-10-17T10:56:19Z</time>
      </trkpt>
      <trkpt lat="43.64667" lon="3.79332">
        <ele>109.6</ele>
        <time>2017-10-17T10:56:21Z</time>
      </trkpt>
      <trkpt lat="43.64666" lon="3.79343">
        <ele>110.3</ele>
        <time>2017-10-17T10:56:23Z</time>
      </trkpt>
      <trkpt lat="43.64663" lon="3.79357">
        <ele>110.9</ele>
        <time>2017-10-17T10:56:25Z</time>
      </trkpt>
      <trkpt lat="43.64659" lon="3.79366">
        <ele>110.9</ele>
        <time>2017-10-17T10:56:27Z</time>
      </trkpt>
      <trkpt lat="43.64658" lon="3.79376">
        <ele>110.1</ele>
        <time>2017-10-17T10:56:29Z</time>
      </trkpt>
      <trkpt lat="43.64653" lon="3.79388">
        <ele>109.3</ele>
        <time>2017-10-17T10:56:31Z</time>
      </trkpt>
      <trkpt lat="43.64647" lon="3.79397">
        <ele>108.9</ele>
        <time>2017-10-17T10:56:33Z</time>
      </trkpt>
      <trkpt lat="43.64641" lon="3.79407">
        <ele>108.4</ele>
        <time>2017-10-17T10:56:35Z</time>
      </trkpt>
      <trkpt lat="43.64636" lon="3.79417">
        <ele>108.8</ele>
        <time>2017-10-17T10:56:37Z</time>
      </trkpt>
      <trkpt lat="43.64627" lon="3.7943">
        <ele>109.7</ele>
        <time>2017-10-17T10:56:39Z</time>
      </trkpt>
      <trkpt lat="43.64619" lon="3.79442">
        <ele>111.4</ele>
        <time>2017-10-17T10:56:41Z</time>
      </trkpt>
      <trkpt lat="43.64613" lon="3.7945">
        <ele>111.7</ele>
        <time>2017-10-17T10:56:44Z</time>
      </trkpt>
      <trkpt lat="43.64608" lon="3.79457">
        <ele>112</ele>
        <time>2017-10-17T10:56:47Z</time>
      </trkpt>
      <trkpt lat="43.64612" lon="3.79467">
        <ele>112.2</ele>
        <time>2017-10-17T10:56:50Z</time>
      </trkpt>
      <trkpt lat="43.64612" lon="3.79479">
        <ele>112.4</ele>
        <time>2017-10-17T10:56:54Z</time>
      </trkpt>
      <trkpt lat="43.64607" lon="3.79491">
        <ele>112.4</ele>
        <time>2017-10-17T10:56:57Z</time>
      </trkpt>
      <trkpt lat="43.64602" lon="3.795">
        <ele>112.3</ele>
        <time>2017-10-17T10:56:59Z</time>
      </trkpt>
      <trkpt lat="43.64596" lon="3.7951">
        <ele>112.1</ele>
        <time>2017-10-17T10:57:01Z</time>
      </trkpt>
      <trkpt lat="43.64591" lon="3.7952">
        <ele>111.8</ele>
        <time>2017-10-17T10:57:03Z</time>
      </trkpt>
      <trkpt lat="43.64588" lon="3.79529">
        <ele>111.5</ele>
        <time>2017-10-17T10:57:05Z</time>
      </trkpt>
      <trkpt lat="43.64584" lon="3.79538">
        <ele>111.2</ele>
        <time>2017-10-17T10:57:07Z</time>
      </trkpt>
      <trkpt lat="43.6458" lon="3.79547">
        <ele>109.7</ele>
        <time>2017-10-17T10:57:09Z</time>
      </trkpt>
      <trkpt lat="43.64577" lon="3.7956">
        <ele>107.3</ele>
        <time>2017-10-17T10:57:11Z</time>
      </trkpt>
      <trkpt lat="43.64573" lon="3.79572">
        <ele>105.3</ele>
        <time>2017-10-17T10:57:13Z</time>
      </trkpt>
      <trkpt lat="43.64571" lon="3.79585">
        <ele>105.2</ele>
        <time>2017-10-17T10:57:15Z</time>
      </trkpt>
      <trkpt lat="43.64569" lon="3.79598">
        <ele>104.7</ele>
        <time>2017-10-17T10:57:17Z</time>
      </trkpt>
      <trkpt lat="43.64565" lon="3.7961">
        <ele>104.6</ele>
        <time>2017-10-17T10:57:19Z</time>
      </trkpt>
      <trkpt lat="43.6456" lon="3.79624">
        <ele>105.2</ele>
        <time>2017-10-17T10:57:22Z</time>
      </trkpt>
      <trkpt lat="43.64557" lon="3.79636">
        <ele>105.9</ele>
        <time>2017-10-17T10:57:24Z</time>
      </trkpt>
      <trkpt lat="43.64553" lon="3.79647">
        <ele>106.1</ele>
        <time>2017-10-17T10:57:27Z</time>
      </trkpt>
      <trkpt lat="43.64551" lon="3.79659">
        <ele>106.2</ele>
        <time>2017-10-17T10:57:29Z</time>
      </trkpt>
      <trkpt lat="43.64546" lon="3.79671">
        <ele>106.3</ele>
        <time>2017-10-17T10:57:32Z</time>
      </trkpt>
      <trkpt lat="43.6454" lon="3.79681">
        <ele>107.2</ele>
        <time>2017-10-17T10:57:34Z</time>
      </trkpt>
      <trkpt lat="43.64533" lon="3.79697">
        <ele>107.6</ele>
        <time>2017-10-17T10:57:36Z</time>
      </trkpt>
      <trkpt lat="43.64525" lon="3.79707">
        <ele>107.9</ele>
        <time>2017-10-17T10:57:38Z</time>
      </trkpt>
      <trkpt lat="43.64519" lon="3.79719">
        <ele>107.4</ele>
        <time>2017-10-17T10:57:40Z</time>
      </trkpt>
      <trkpt lat="43.64512" lon="3.79732">
        <ele>107.1</ele>
        <time>2017-10-17T10:57:42Z</time>
      </trkpt>
      <trkpt lat="43.64508" lon="3.79742">
        <ele>106.7</ele>
        <time>2017-10-17T10:57:44Z</time>
      </trkpt>
      <trkpt lat="43.64502" lon="3.7975">
        <ele>107.9</ele>
        <time>2017-10-17T10:57:46Z</time>
      </trkpt>
      <trkpt lat="43.64495" lon="3.79761">
        <ele>109.3</ele>
        <time>2017-10-17T10:57:48Z</time>
      </trkpt>
      <trkpt lat="43.64488" lon="3.79767">
        <ele>109.4</ele>
        <time>2017-10-17T10:57:50Z</time>
      </trkpt>
      <trkpt lat="43.64481" lon="3.79773">
        <ele>109.6</ele>
        <time>2017-10-17T10:57:52Z</time>
      </trkpt>
      <trkpt lat="43.64474" lon="3.79777">
        <ele>109.6</ele>
        <time>2017-10-17T10:57:54Z</time>
      </trkpt>
      <trkpt lat="43.64467" lon="3.79785">
        <ele>109.7</ele>
        <time>2017-10-17T10:57:56Z</time>
      </trkpt>
      <trkpt lat="43.6446" lon="3.79789">
        <ele>109.8</ele>
        <time>2017-10-17T10:57:58Z</time>
      </trkpt>
      <trkpt lat="43.64453" lon="3.79793">
        <ele>109.6</ele>
        <time>2017-10-17T10:58:00Z</time>
      </trkpt>
      <trkpt lat="43.64443" lon="3.79797">
        <ele>108</ele>
        <time>2017-10-17T10:58:02Z</time>
      </trkpt>
      <trkpt lat="43.64432" lon="3.79798">
        <ele>107.6</ele>
        <time>2017-10-17T10:58:04Z</time>
      </trkpt>
      <trkpt lat="43.6442" lon="3.79798">
        <ele>107.3</ele>
        <time>2017-10-17T10:58:06Z</time>
      </trkpt>
      <trkpt lat="43.6441" lon="3.79796">
        <ele>106.4</ele>
        <time>2017-10-17T10:58:08Z</time>
      </trkpt>
      <trkpt lat="43.644" lon="3.79791">
        <ele>105.3</ele>
        <time>2017-10-17T10:58:10Z</time>
      </trkpt>
      <trkpt lat="43.64391" lon="3.79791">
        <ele>105.4</ele>
        <time>2017-10-17T10:58:12Z</time>
      </trkpt>
      <trkpt lat="43.6438" lon="3.79793">
        <ele>106.2</ele>
        <time>2017-10-17T10:58:14Z</time>
      </trkpt>
      <trkpt lat="43.64371" lon="3.79796">
        <ele>107.5</ele>
        <time>2017-10-17T10:58:16Z</time>
      </trkpt>
      <trkpt lat="43.64361" lon="3.798">
        <ele>107.4</ele>
        <time>2017-10-17T10:58:18Z</time>
      </trkpt>
      <trkpt lat="43.64351" lon="3.79802">
        <ele>107.8</ele>
        <time>2017-10-17T10:58:20Z</time>
      </trkpt>
      <trkpt lat="43.64343" lon="3.79807">
        <ele>108.3</ele>
        <time>2017-10-17T10:58:22Z</time>
      </trkpt>
      <trkpt lat="43.64336" lon="3.79812">
        <ele>108.9</ele>
        <time>2017-10-17T10:58:24Z</time>
      </trkpt>
      <trkpt lat="43.64327" lon="3.79818">
        <ele>109.3</ele>
        <time>2017-10-17T10:58:26Z</time>
      </trkpt>
      <trkpt lat="43.64319" lon="3.79822">
        <ele>109.3</ele>
        <time>2017-10-17T10:58:28Z</time>
      </trkpt>
      <trkpt lat="43.6431" lon="3.79827">
        <ele>110.9</ele>
        <time>2017-10-17T10:58:30Z</time>
      </trkpt>
      <trkpt lat="43.64303" lon="3.79831">
        <ele>112.6</ele>
        <time>2017-10-17T10:58:32Z</time>
      </trkpt>
      <trkpt lat="43.64294" lon="3.79834">
        <ele>112.4</ele>
        <time>2017-10-17T10:58:34Z</time>
      </trkpt>
      <trkpt lat="43.64285" lon="3.79839">
        <ele>111.6</ele>
        <time>2017-10-17T10:58:37Z</time>
      </trkpt>
      <trkpt lat="43.64276" lon="3.79843">
        <ele>110.4</ele>
        <time>2017-10-17T10:58:39Z</time>
      </trkpt>
      <trkpt lat="43.64267" lon="3.79848">
        <ele>109.3</ele>
        <time>2017-10-17T10:58:41Z</time>
      </trkpt>
      <trkpt lat="43.64259" lon="3.79851">
        <ele>108.4</ele>
        <time>2017-10-17T10:58:43Z</time>
      </trkpt>
      <trkpt lat="43.64249" lon="3.79857">
        <ele>107.5</ele>
        <time>2017-10-17T10:58:45Z</time>
      </trkpt>
      <trkpt lat="43.6424" lon="3.79864">
        <ele>106.4</ele>
        <time>2017-10-17T10:58:47Z</time>
      </trkpt>
      <trkpt lat="43.64232" lon="3.79869">
        <ele>105.7</ele>
        <time>2017-10-17T10:58:49Z</time>
      </trkpt>
      <trkpt lat="43.64226" lon="3.79878">
        <ele>105.2</ele>
        <time>2017-10-17T10:58:51Z</time>
      </trkpt>
      <trkpt lat="43.64225" lon="3.79891">
        <ele>105.2</ele>
        <time>2017-10-17T10:58:54Z</time>
      </trkpt>
      <trkpt lat="43.64222" lon="3.799">
        <ele>104.9</ele>
        <time>2017-10-17T10:58:56Z</time>
      </trkpt>
      <trkpt lat="43.64214" lon="3.79902">
        <ele>104.9</ele>
        <time>2017-10-17T10:58:58Z</time>
      </trkpt>
      <trkpt lat="43.64203" lon="3.79899">
        <ele>105.2</ele>
        <time>2017-10-17T10:59:00Z</time>
      </trkpt>
      <trkpt lat="43.64192" lon="3.79903">
        <ele>105.9</ele>
        <time>2017-10-17T10:59:02Z</time>
      </trkpt>
      <trkpt lat="43.64183" lon="3.79912">
        <ele>106.8</ele>
        <time>2017-10-17T10:59:04Z</time>
      </trkpt>
      <trkpt lat="43.64171" lon="3.79921">
        <ele>106.5</ele>
        <time>2017-10-17T10:59:06Z</time>
      </trkpt>
      <trkpt lat="43.6416" lon="3.79929">
        <ele>106.3</ele>
        <time>2017-10-17T10:59:08Z</time>
      </trkpt>
      <trkpt lat="43.64149" lon="3.79937">
        <ele>106.4</ele>
        <time>2017-10-17T10:59:10Z</time>
      </trkpt>
      <trkpt lat="43.64141" lon="3.79942">
        <ele>105.2</ele>
        <time>2017-10-17T10:59:12Z</time>
      </trkpt>
      <trkpt lat="43.64132" lon="3.79949">
        <ele>103.2</ele>
        <time>2017-10-17T10:59:14Z</time>
      </trkpt>
      <trkpt lat="43.64122" lon="3.79953">
        <ele>102.8</ele>
        <time>2017-10-17T10:59:16Z</time>
      </trkpt>
      <trkpt lat="43.64113" lon="3.79958">
        <ele>103.1</ele>
        <time>2017-10-17T10:59:18Z</time>
      </trkpt>
      <trkpt lat="43.64104" lon="3.79965">
        <ele>103.3</ele>
        <time>2017-10-17T10:59:20Z</time>
      </trkpt>
      <trkpt lat="43.64097" lon="3.79973">
        <ele>104.2</ele>
        <time>2017-10-17T10:59:22Z</time>
      </trkpt>
      <trkpt lat="43.64088" lon="3.79978">
        <ele>104.7</ele>
        <time>2017-10-17T10:59:24Z</time>
      </trkpt>
      <trkpt lat="43.6408" lon="3.79982">
        <ele>105.4</ele>
        <time>2017-10-17T10:59:26Z</time>
      </trkpt>
      <trkpt lat="43.64072" lon="3.79987">
        <ele>105.8</ele>
        <time>2017-10-17T10:59:28Z</time>
      </trkpt>
      <trkpt lat="43.64064" lon="3.79992">
        <ele>106.3</ele>
        <time>2017-10-17T10:59:30Z</time>
      </trkpt>
      <trkpt lat="43.64056" lon="3.79998">
        <ele>106.5</ele>
        <time>2017-10-17T10:59:33Z</time>
      </trkpt>
      <trkpt lat="43.64047" lon="3.80003">
        <ele>107.2</ele>
        <time>2017-10-17T10:59:36Z</time>
      </trkpt>
      <trkpt lat="43.64041" lon="3.80009">
        <ele>107.3</ele>
        <time>2017-10-17T10:59:38Z</time>
      </trkpt>
      <trkpt lat="43.64035" lon="3.80015">
        <ele>107.5</ele>
        <time>2017-10-17T10:59:40Z</time>
      </trkpt>
      <trkpt lat="43.64028" lon="3.80021">
        <ele>108.3</ele>
        <time>2017-10-17T10:59:42Z</time>
      </trkpt>
      <trkpt lat="43.6402" lon="3.80024">
        <ele>109</ele>
        <time>2017-10-17T10:59:44Z</time>
      </trkpt>
      <trkpt lat="43.64012" lon="3.8003">
        <ele>110.5</ele>
        <time>2017-10-17T10:59:46Z</time>
      </trkpt>
      <trkpt lat="43.64004" lon="3.80037">
        <ele>111</ele>
        <time>2017-10-17T10:59:48Z</time>
      </trkpt>
      <trkpt lat="43.63998" lon="3.80043">
        <ele>111.1</ele>
        <time>2017-10-17T10:59:50Z</time>
      </trkpt>
      <trkpt lat="43.6399" lon="3.8005">
        <ele>112.1</ele>
        <time>2017-10-17T10:59:52Z</time>
      </trkpt>
      <trkpt lat="43.63982" lon="3.80055">
        <ele>112</ele>
        <time>2017-10-17T10:59:54Z</time>
      </trkpt>
      <trkpt lat="43.63973" lon="3.80061">
        <ele>112</ele>
        <time>2017-10-17T10:59:56Z</time>
      </trkpt>
      <trkpt lat="43.63964" lon="3.80067">
        <ele>111.6</ele>
        <time>2017-10-17T10:59:58Z</time>
      </trkpt>
      <trkpt lat="43.63955" lon="3.80072">
        <ele>110.9</ele>
        <time>2017-10-17T11:00:00Z</time>
      </trkpt>
      <trkpt lat="43.63946" lon="3.80075">
        <ele>110.4</ele>
        <time>2017-10-17T11:00:02Z</time>
      </trkpt>
      <trkpt lat="43.63939" lon="3.8008">
        <ele>110</ele>
        <time>2017-10-17T11:00:04Z</time>
      </trkpt>
      <trkpt lat="43.63931" lon="3.80085">
        <ele>109.5</ele>
        <time>2017-10-17T11:00:06Z</time>
      </trkpt>
      <trkpt lat="43.63923" lon="3.80091">
        <ele>109</ele>
        <time>2017-10-17T11:00:08Z</time>
      </trkpt>
      <trkpt lat="43.63911" lon="3.80094">
        <ele>108.9</ele>
        <time>2017-10-17T11:00:11Z</time>
      </trkpt>
      <trkpt lat="43.63904" lon="3.80097">
        <ele>108</ele>
        <time>2017-10-17T11:00:13Z</time>
      </trkpt>
      <trkpt lat="43.63896" lon="3.80099">
        <ele>107.6</ele>
        <time>2017-10-17T11:00:15Z</time>
      </trkpt>
      <trkpt lat="43.63888" lon="3.80104">
        <ele>106.4</ele>
        <time>2017-10-17T11:00:17Z</time>
      </trkpt>
      <trkpt lat="43.6388" lon="3.80108">
        <ele>106.4</ele>
        <time>2017-10-17T11:00:19Z</time>
      </trkpt>
      <trkpt lat="43.63872" lon="3.80113">
        <ele>106.7</ele>
        <time>2017-10-17T11:00:21Z</time>
      </trkpt>
      <trkpt lat="43.63864" lon="3.80122">
        <ele>107.2</ele>
        <time>2017-10-17T11:00:24Z</time>
      </trkpt>
      <trkpt lat="43.63859" lon="3.80133">
        <ele>107.2</ele>
        <time>2017-10-17T11:00:27Z</time>
      </trkpt>
      <trkpt lat="43.63853" lon="3.80141">
        <ele>106.8</ele>
        <time>2017-10-17T11:00:31Z</time>
      </trkpt>
      <trkpt lat="43.63848" lon="3.8015">
        <ele>106.6</ele>
        <time>2017-10-17T11:00:34Z</time>
      </trkpt>
      <trkpt lat="43.63842" lon="3.80161">
        <ele>106.4</ele>
        <time>2017-10-17T11:00:37Z</time>
      </trkpt>
      <trkpt lat="43.63835" lon="3.80172">
        <ele>106.2</ele>
        <time>2017-10-17T11:00:40Z</time>
      </trkpt>
      <trkpt lat="43.63833" lon="3.80185">
        <ele>106.2</ele>
        <time>2017-10-17T11:00:43Z</time>
      </trkpt>
      <trkpt lat="43.63831" lon="3.80198">
        <ele>106.1</ele>
        <time>2017-10-17T11:00:46Z</time>
      </trkpt>
      <trkpt lat="43.63832" lon="3.8021">
        <ele>106.1</ele>
        <time>2017-10-17T11:00:49Z</time>
      </trkpt>
      <trkpt lat="43.6383" lon="3.80222">
        <ele>106.1</ele>
        <time>2017-10-17T11:00:52Z</time>
      </trkpt>
      <trkpt lat="43.6383" lon="3.80234">
        <ele>106.1</ele>
        <time>2017-10-17T11:00:55Z</time>
      </trkpt>
      <trkpt lat="43.6383" lon="3.80246">
        <ele>106</ele>
        <time>2017-10-17T11:00:58Z</time>
      </trkpt>
      <trkpt lat="43.6383" lon="3.80258">
        <ele>105.8</ele>
        <time>2017-10-17T11:01:01Z</time>
      </trkpt>
      <trkpt lat="43.63838" lon="3.80263">
        <ele>105.7</ele>
        <time>2017-10-17T11:01:05Z</time>
      </trkpt>
      <trkpt lat="43.63846" lon="3.80264">
        <ele>105.6</ele>
        <time>2017-10-17T11:01:11Z</time>
      </trkpt>
      <trkpt lat="43.63852" lon="3.80274">
        <ele>105.6</ele>
        <time>2017-10-17T11:01:14Z</time>
      </trkpt>
      <trkpt lat="43.63856" lon="3.80285">
        <ele>105.6</ele>
        <time>2017-10-17T11:01:16Z</time>
      </trkpt>
      <trkpt lat="43.6386" lon="3.80295">
        <ele>105.7</ele>
        <time>2017-10-17T11:01:18Z</time>
      </trkpt>
      <trkpt lat="43.63865" lon="3.80308">
        <ele>105.7</ele>
        <time>2017-10-17T11:01:20Z</time>
      </trkpt>
      <trkpt lat="43.63868" lon="3.8032">
        <ele>105.7</ele>
        <time>2017-10-17T11:01:22Z</time>
      </trkpt>
      <trkpt lat="43.63871" lon="3.80331">
        <ele>105.7</ele>
        <time>2017-10-17T11:01:24Z</time>
      </trkpt>
      <trkpt lat="43.63874" lon="3.80342">
        <ele>106.9</ele>
        <time>2017-10-17T11:01:26Z</time>
      </trkpt>
      <trkpt lat="43.63877" lon="3.80352">
        <ele>106.9</ele>
        <time>2017-10-17T11:01:28Z</time>
      </trkpt>
      <trkpt lat="43.63882" lon="3.80363">
        <ele>107.1</ele>
        <time>2017-10-17T11:01:30Z</time>
      </trkpt>
      <trkpt lat="43.63888" lon="3.80376">
        <ele>106.8</ele>
        <time>2017-10-17T11:01:33Z</time>
      </trkpt>
      <trkpt lat="43.63893" lon="3.80387">
        <ele>106.5</ele>
        <time>2017-10-17T11:01:35Z</time>
      </trkpt>
      <trkpt lat="43.63898" lon="3.80397">
        <ele>106.4</ele>
        <time>2017-10-17T11:01:37Z</time>
      </trkpt>
      <trkpt lat="43.63903" lon="3.80411">
        <ele>106.5</ele>
        <time>2017-10-17T11:01:40Z</time>
      </trkpt>
      <trkpt lat="43.63906" lon="3.8042">
        <ele>106.7</ele>
        <time>2017-10-17T11:01:42Z</time>
      </trkpt>
      <trkpt lat="43.6391" lon="3.80434">
        <ele>106.3</ele>
        <time>2017-10-17T11:01:44Z</time>
      </trkpt>
      <trkpt lat="43.63913" lon="3.80446">
        <ele>105.2</ele>
        <time>2017-10-17T11:01:46Z</time>
      </trkpt>
      <trkpt lat="43.63913" lon="3.80456">
        <ele>104.5</ele>
        <time>2017-10-17T11:01:47Z</time>
      </trkpt>
      <trkpt lat="43.63911" lon="3.80469">
        <ele>103.9</ele>
        <time>2017-10-17T11:01:49Z</time>
      </trkpt>
      <trkpt lat="43.63908" lon="3.80488">
        <ele>103.1</ele>
        <time>2017-10-17T11:01:51Z</time>
      </trkpt>
      <trkpt lat="43.63903" lon="3.80506">
        <ele>102</ele>
        <time>2017-10-17T11:01:53Z</time>
      </trkpt>
      <trkpt lat="43.63902" lon="3.80521">
        <ele>101.6</ele>
        <time>2017-10-17T11:01:55Z</time>
      </trkpt>
      <trkpt lat="43.63901" lon="3.80538">
        <ele>102.2</ele>
        <time>2017-10-17T11:01:57Z</time>
      </trkpt>
      <trkpt lat="43.639" lon="3.80552">
        <ele>102.8</ele>
        <time>2017-10-17T11:01:59Z</time>
      </trkpt>
      <trkpt lat="43.63901" lon="3.80569">
        <ele>103.8</ele>
        <time>2017-10-17T11:02:01Z</time>
      </trkpt>
      <trkpt lat="43.63903" lon="3.80585">
        <ele>104.4</ele>
        <time>2017-10-17T11:02:03Z</time>
      </trkpt>
      <trkpt lat="43.63904" lon="3.806">
        <ele>104.9</ele>
        <time>2017-10-17T11:02:05Z</time>
      </trkpt>
      <trkpt lat="43.63904" lon="3.80615">
        <ele>104.6</ele>
        <time>2017-10-17T11:02:07Z</time>
      </trkpt>
      <trkpt lat="43.63905" lon="3.80629">
        <ele>104.7</ele>
        <time>2017-10-17T11:02:09Z</time>
      </trkpt>
      <trkpt lat="43.63906" lon="3.80642">
        <ele>103.7</ele>
        <time>2017-10-17T11:02:11Z</time>
      </trkpt>
      <trkpt lat="43.63906" lon="3.80654">
        <ele>102.8</ele>
        <time>2017-10-17T11:02:13Z</time>
      </trkpt>
      <trkpt lat="43.63905" lon="3.80666">
        <ele>102.6</ele>
        <time>2017-10-17T11:02:17Z</time>
      </trkpt>
      <trkpt lat="43.63914" lon="3.80668">
        <ele>102.6</ele>
        <time>2017-10-17T11:02:20Z</time>
      </trkpt>
      <trkpt lat="43.63924" lon="3.80667">
        <ele>102.3</ele>
        <time>2017-10-17T11:02:23Z</time>
      </trkpt>
      <trkpt lat="43.63931" lon="3.80664">
        <ele>102.1</ele>
        <time>2017-10-17T11:02:26Z</time>
      </trkpt>
      <trkpt lat="43.63939" lon="3.80663">
        <ele>102</ele>
        <time>2017-10-17T11:02:29Z</time>
      </trkpt>
      <trkpt lat="43.63947" lon="3.8066">
        <ele>102.1</ele>
        <time>2017-10-17T11:02:32Z</time>
      </trkpt>
      <trkpt lat="43.63957" lon="3.80656">
        <ele>102.2</ele>
        <time>2017-10-17T11:02:36Z</time>
      </trkpt>
      <trkpt lat="43.63966" lon="3.80653">
        <ele>102.4</ele>
        <time>2017-10-17T11:02:39Z</time>
      </trkpt>
      <trkpt lat="43.63973" lon="3.80651">
        <ele>102.6</ele>
        <time>2017-10-17T11:02:42Z</time>
      </trkpt>
      <trkpt lat="43.6398" lon="3.80649">
        <ele>102.9</ele>
        <time>2017-10-17T11:02:47Z</time>
      </trkpt>
      <trkpt lat="43.63988" lon="3.80646">
        <ele>103.2</ele>
        <time>2017-10-17T11:02:50Z</time>
      </trkpt>
      <trkpt lat="43.63997" lon="3.80641">
        <ele>103.3</ele>
        <time>2017-10-17T11:02:55Z</time>
      </trkpt>
      <trkpt lat="43.64005" lon="3.80637">
        <ele>103.4</ele>
        <time>2017-10-17T11:02:58Z</time>
      </trkpt>
      <trkpt lat="43.64014" lon="3.80633">
        <ele>103.7</ele>
        <time>2017-10-17T11:03:02Z</time>
      </trkpt>
      <trkpt lat="43.64023" lon="3.80629">
        <ele>104.2</ele>
        <time>2017-10-17T11:03:09Z</time>
      </trkpt>
      <trkpt lat="43.6403" lon="3.80622">
        <ele>104.7</ele>
        <time>2017-10-17T11:03:14Z</time>
      </trkpt>
      <trkpt lat="43.64038" lon="3.80618">
        <ele>105</ele>
        <time>2017-10-17T11:03:19Z</time>
      </trkpt>
      <trkpt lat="43.64047" lon="3.8062">
        <ele>105.9</ele>
        <time>2017-10-17T11:03:25Z</time>
      </trkpt>
      <trkpt lat="43.64054" lon="3.80623">
        <ele>106.6</ele>
        <time>2017-10-17T11:03:28Z</time>
      </trkpt>
      <trkpt lat="43.64059" lon="3.8063">
        <ele>107.9</ele>
        <time>2017-10-17T11:03:34Z</time>
      </trkpt>
      <trkpt lat="43.64068" lon="3.80634">
        <ele>109.5</ele>
        <time>2017-10-17T11:03:40Z</time>
      </trkpt>
      <trkpt lat="43.6407" lon="3.80626">
        <ele>110.7</ele>
        <time>2017-10-17T11:03:47Z</time>
      </trkpt>
      <trkpt lat="43.64072" lon="3.80616">
        <ele>111.4</ele>
        <time>2017-10-17T11:03:51Z</time>
      </trkpt>
      <trkpt lat="43.64081" lon="3.80612">
        <ele>112</ele>
        <time>2017-10-17T11:03:56Z</time>
      </trkpt>
      <trkpt lat="43.64089" lon="3.80611">
        <ele>112.4</ele>
        <time>2017-10-17T11:03:59Z</time>
      </trkpt>
      <trkpt lat="43.64096" lon="3.80605">
        <ele>113.3</ele>
        <time>2017-10-17T11:04:05Z</time>
      </trkpt>
      <trkpt lat="43.64098" lon="3.80594">
        <ele>114.1</ele>
        <time>2017-10-17T11:04:11Z</time>
      </trkpt>
      <trkpt lat="43.64103" lon="3.80583">
        <ele>115</ele>
        <time>2017-10-17T11:04:16Z</time>
      </trkpt>
      <trkpt lat="43.64112" lon="3.80588">
        <ele>116.1</ele>
        <time>2017-10-17T11:04:23Z</time>
      </trkpt>
      <trkpt lat="43.64115" lon="3.80597">
        <ele>117</ele>
        <time>2017-10-17T11:04:28Z</time>
      </trkpt>
      <trkpt lat="43.64119" lon="3.80606">
        <ele>118.1</ele>
        <time>2017-10-17T11:04:33Z</time>
      </trkpt>
      <trkpt lat="43.64127" lon="3.80612">
        <ele>119.2</ele>
        <time>2017-10-17T11:04:38Z</time>
      </trkpt>
      <trkpt lat="43.64134" lon="3.80615">
        <ele>120.6</ele>
        <time>2017-10-17T11:04:43Z</time>
      </trkpt>
      <trkpt lat="43.64141" lon="3.80622">
        <ele>122.3</ele>
        <time>2017-10-17T11:04:50Z</time>
      </trkpt>
      <trkpt lat="43.64147" lon="3.80631">
        <ele>123.2</ele>
        <time>2017-10-17T11:04:55Z</time>
      </trkpt>
      <trkpt lat="43.6415" lon="3.80641">
        <ele>123.9</ele>
        <time>2017-10-17T11:04:58Z</time>
      </trkpt>
      <trkpt lat="43.64153" lon="3.8065">
        <ele>125.3</ele>
        <time>2017-10-17T11:05:03Z</time>
      </trkpt>
      <trkpt lat="43.64156" lon="3.80661">
        <ele>126.3</ele>
        <time>2017-10-17T11:05:07Z</time>
      </trkpt>
      <trkpt lat="43.64155" lon="3.80671">
        <ele>127.8</ele>
        <time>2017-10-17T11:05:14Z</time>
      </trkpt>
      <trkpt lat="43.64159" lon="3.80683">
        <ele>128.7</ele>
        <time>2017-10-17T11:05:18Z</time>
      </trkpt>
      <trkpt lat="43.64161" lon="3.80695">
        <ele>129.2</ele>
        <time>2017-10-17T11:05:21Z</time>
      </trkpt>
      <trkpt lat="43.64164" lon="3.80705">
        <ele>130.1</ele>
        <time>2017-10-17T11:05:28Z</time>
      </trkpt>
      <trkpt lat="43.64163" lon="3.80715">
        <ele>130.6</ele>
        <time>2017-10-17T11:05:31Z</time>
      </trkpt>
      <trkpt lat="43.64162" lon="3.80725">
        <ele>131.1</ele>
        <time>2017-10-17T11:05:34Z</time>
      </trkpt>
      <trkpt lat="43.6416" lon="3.80735">
        <ele>132.5</ele>
        <time>2017-10-17T11:05:41Z</time>
      </trkpt>
      <trkpt lat="43.64162" lon="3.80747">
        <ele>133.7</ele>
        <time>2017-10-17T11:05:46Z</time>
      </trkpt>
      <trkpt lat="43.64162" lon="3.80757">
        <ele>134.6</ele>
        <time>2017-10-17T11:05:50Z</time>
      </trkpt>
      <trkpt lat="43.64164" lon="3.80768">
        <ele>135.5</ele>
        <time>2017-10-17T11:05:54Z</time>
      </trkpt>
      <trkpt lat="43.64166" lon="3.8078">
        <ele>136.5</ele>
        <time>2017-10-17T11:05:59Z</time>
      </trkpt>
      <trkpt lat="43.64166" lon="3.80789">
        <ele>137.9</ele>
        <time>2017-10-17T11:06:06Z</time>
      </trkpt>
      <trkpt lat="43.64166" lon="3.808">
        <ele>138.4</ele>
        <time>2017-10-17T11:06:11Z</time>
      </trkpt>
      <trkpt lat="43.64169" lon="3.80812">
        <ele>138.8</ele>
        <time>2017-10-17T11:06:16Z</time>
      </trkpt>
      <trkpt lat="43.64171" lon="3.80826">
        <ele>139.1</ele>
        <time>2017-10-17T11:06:21Z</time>
      </trkpt>
      <trkpt lat="43.64175" lon="3.80837">
        <ele>139.3</ele>
        <time>2017-10-17T11:06:23Z</time>
      </trkpt>
      <trkpt lat="43.64173" lon="3.80847">
        <ele>140</ele>
        <time>2017-10-17T11:06:28Z</time>
      </trkpt>
      <trkpt lat="43.64175" lon="3.80862">
        <ele>140.6</ele>
        <time>2017-10-17T11:06:33Z</time>
      </trkpt>
      <trkpt lat="43.64178" lon="3.80873">
        <ele>141.1</ele>
        <time>2017-10-17T11:06:36Z</time>
      </trkpt>
      <trkpt lat="43.64181" lon="3.80883">
        <ele>141.8</ele>
        <time>2017-10-17T11:06:40Z</time>
      </trkpt>
      <trkpt lat="43.64185" lon="3.80895">
        <ele>142.7</ele>
        <time>2017-10-17T11:06:45Z</time>
      </trkpt>
      <trkpt lat="43.64181" lon="3.8091">
        <ele>143.3</ele>
        <time>2017-10-17T11:06:51Z</time>
      </trkpt>
      <trkpt lat="43.64177" lon="3.80918">
        <ele>143.7</ele>
        <time>2017-10-17T11:06:55Z</time>
      </trkpt>
      <trkpt lat="43.64172" lon="3.80927">
        <ele>144.2</ele>
        <time>2017-10-17T11:06:59Z</time>
      </trkpt>
      <trkpt lat="43.64166" lon="3.80937">
        <ele>144.6</ele>
        <time>2017-10-17T11:07:03Z</time>
      </trkpt>
      <trkpt lat="43.6416" lon="3.80945">
        <ele>145.1</ele>
        <time>2017-10-17T11:07:06Z</time>
      </trkpt>
      <trkpt lat="43.64153" lon="3.80952">
        <ele>145.3</ele>
        <time>2017-10-17T11:07:08Z</time>
      </trkpt>
      <trkpt lat="43.64148" lon="3.8096">
        <ele>147.3</ele>
        <time>2017-10-17T11:07:10Z</time>
      </trkpt>
      <trkpt lat="43.64141" lon="3.80971">
        <ele>148.6</ele>
        <time>2017-10-17T11:07:12Z</time>
      </trkpt>
      <trkpt lat="43.64135" lon="3.80984">
        <ele>149.7</ele>
        <time>2017-10-17T11:07:14Z</time>
      </trkpt>
      <trkpt lat="43.6413" lon="3.80996">
        <ele>149.8</ele>
        <time>2017-10-17T11:07:16Z</time>
      </trkpt>
      <trkpt lat="43.64125" lon="3.81004">
        <ele>149.9</ele>
        <time>2017-10-17T11:07:18Z</time>
      </trkpt>
      <trkpt lat="43.64119" lon="3.8101">
        <ele>150.4</ele>
        <time>2017-10-17T11:07:22Z</time>
      </trkpt>
      <trkpt lat="43.64115" lon="3.81019">
        <ele>151.4</ele>
        <time>2017-10-17T11:07:28Z</time>
      </trkpt>
      <trkpt lat="43.64112" lon="3.8103">
        <ele>152.2</ele>
        <time>2017-10-17T11:07:33Z</time>
      </trkpt>
      <trkpt lat="43.64112" lon="3.81042">
        <ele>152.7</ele>
        <time>2017-10-17T11:07:36Z</time>
      </trkpt>
      <trkpt lat="43.64108" lon="3.81051">
        <ele>153.1</ele>
        <time>2017-10-17T11:07:39Z</time>
      </trkpt>
      <trkpt lat="43.64104" lon="3.8106">
        <ele>153.6</ele>
        <time>2017-10-17T11:07:42Z</time>
      </trkpt>
      <trkpt lat="43.641" lon="3.8107">
        <ele>154.4</ele>
        <time>2017-10-17T11:07:46Z</time>
      </trkpt>
      <trkpt lat="43.64094" lon="3.81079">
        <ele>155.3</ele>
        <time>2017-10-17T11:07:50Z</time>
      </trkpt>
      <trkpt lat="43.6409" lon="3.81089">
        <ele>156.2</ele>
        <time>2017-10-17T11:07:54Z</time>
      </trkpt>
      <trkpt lat="43.64089" lon="3.81099">
        <ele>157.1</ele>
        <time>2017-10-17T11:07:59Z</time>
      </trkpt>
      <trkpt lat="43.64094" lon="3.81106">
        <ele>158.2</ele>
        <time>2017-10-17T11:08:04Z</time>
      </trkpt>
      <trkpt lat="43.64102" lon="3.81115">
        <ele>159</ele>
        <time>2017-10-17T11:08:09Z</time>
      </trkpt>
      <trkpt lat="43.64107" lon="3.81122">
        <ele>159.5</ele>
        <time>2017-10-17T11:08:12Z</time>
      </trkpt>
      <trkpt lat="43.64113" lon="3.81131">
        <ele>160.1</ele>
        <time>2017-10-17T11:08:16Z</time>
      </trkpt>
      <trkpt lat="43.64121" lon="3.81139">
        <ele>161</ele>
        <time>2017-10-17T11:08:22Z</time>
      </trkpt>
      <trkpt lat="43.64128" lon="3.81148">
        <ele>161.9</ele>
        <time>2017-10-17T11:08:27Z</time>
      </trkpt>
      <trkpt lat="43.64137" lon="3.81156">
        <ele>162.5</ele>
        <time>2017-10-17T11:08:31Z</time>
      </trkpt>
      <trkpt lat="43.64143" lon="3.81162">
        <ele>162.8</ele>
        <time>2017-10-17T11:08:34Z</time>
      </trkpt>
      <trkpt lat="43.64149" lon="3.8117">
        <ele>163.3</ele>
        <time>2017-10-17T11:08:38Z</time>
      </trkpt>
      <trkpt lat="43.64155" lon="3.81179">
        <ele>163.5</ele>
        <time>2017-10-17T11:08:41Z</time>
      </trkpt>
      <trkpt lat="43.64163" lon="3.81189">
        <ele>163.9</ele>
        <time>2017-10-17T11:08:44Z</time>
      </trkpt>
      <trkpt lat="43.64169" lon="3.81197">
        <ele>164.3</ele>
        <time>2017-10-17T11:08:47Z</time>
      </trkpt>
      <trkpt lat="43.64174" lon="3.81205">
        <ele>164.6</ele>
        <time>2017-10-17T11:08:50Z</time>
      </trkpt>
      <trkpt lat="43.64181" lon="3.81213">
        <ele>165.1</ele>
        <time>2017-10-17T11:08:54Z</time>
      </trkpt>
      <trkpt lat="43.64187" lon="3.81222">
        <ele>165.5</ele>
        <time>2017-10-17T11:08:58Z</time>
      </trkpt>
      <trkpt lat="43.64193" lon="3.8123">
        <ele>165.9</ele>
        <time>2017-10-17T11:09:01Z</time>
      </trkpt>
      <trkpt lat="43.64199" lon="3.81241">
        <ele>166.5</ele>
        <time>2017-10-17T11:09:04Z</time>
      </trkpt>
      <trkpt lat="43.64205" lon="3.81249">
        <ele>167.1</ele>
        <time>2017-10-17T11:09:07Z</time>
      </trkpt>
      <trkpt lat="43.64213" lon="3.81244">
        <ele>167.4</ele>
        <time>2017-10-17T11:09:10Z</time>
      </trkpt>
      <trkpt lat="43.6422" lon="3.81239">
        <ele>168.1</ele>
        <time>2017-10-17T11:09:12Z</time>
      </trkpt>
      <trkpt lat="43.64229" lon="3.81231">
        <ele>167.6</ele>
        <time>2017-10-17T11:09:14Z</time>
      </trkpt>
      <trkpt lat="43.6424" lon="3.81218">
        <ele>166.7</ele>
        <time>2017-10-17T11:09:16Z</time>
      </trkpt>
      <trkpt lat="43.64247" lon="3.8121">
        <ele>166.6</ele>
        <time>2017-10-17T11:09:18Z</time>
      </trkpt>
      <trkpt lat="43.64253" lon="3.81206">
        <ele>166.4</ele>
        <time>2017-10-17T11:09:21Z</time>
      </trkpt>
      <trkpt lat="43.64259" lon="3.81209">
        <ele>165</ele>
        <time>2017-10-17T11:09:28Z</time>
      </trkpt>
      <trkpt lat="43.64268" lon="3.81209">
        <ele>164.3</ele>
        <time>2017-10-17T11:09:32Z</time>
      </trkpt>
      <trkpt lat="43.64275" lon="3.81211">
        <ele>163.6</ele>
        <time>2017-10-17T11:09:36Z</time>
      </trkpt>
      <trkpt lat="43.64283" lon="3.81214">
        <ele>162.8</ele>
        <time>2017-10-17T11:09:40Z</time>
      </trkpt>
      <trkpt lat="43.64289" lon="3.81219">
        <ele>162.3</ele>
        <time>2017-10-17T11:09:43Z</time>
      </trkpt>
      <trkpt lat="43.64298" lon="3.81223">
        <ele>161.5</ele>
        <time>2017-10-17T11:09:47Z</time>
      </trkpt>
      <trkpt lat="43.64305" lon="3.81226">
        <ele>160.9</ele>
        <time>2017-10-17T11:09:50Z</time>
      </trkpt>
      <trkpt lat="43.64309" lon="3.81235">
        <ele>160.4</ele>
        <time>2017-10-17T11:09:53Z</time>
      </trkpt>
      <trkpt lat="43.6431" lon="3.81246">
        <ele>159.8</ele>
        <time>2017-10-17T11:09:56Z</time>
      </trkpt>
      <trkpt lat="43.64313" lon="3.81256">
        <ele>159.2</ele>
        <time>2017-10-17T11:10:00Z</time>
      </trkpt>
      <trkpt lat="43.64316" lon="3.81265">
        <ele>158.9</ele>
        <time>2017-10-17T11:10:02Z</time>
      </trkpt>
      <trkpt lat="43.64321" lon="3.81274">
        <ele>158.2</ele>
        <time>2017-10-17T11:10:07Z</time>
      </trkpt>
      <trkpt lat="43.64326" lon="3.81283">
        <ele>157.3</ele>
        <time>2017-10-17T11:10:13Z</time>
      </trkpt>
      <trkpt lat="43.64331" lon="3.81293">
        <ele>157</ele>
        <time>2017-10-17T11:10:16Z</time>
      </trkpt>
      <trkpt lat="43.64336" lon="3.81302">
        <ele>156.6</ele>
        <time>2017-10-17T11:10:22Z</time>
      </trkpt>
      <trkpt lat="43.6434" lon="3.81313">
        <ele>156.6</ele>
        <time>2017-10-17T11:10:27Z</time>
      </trkpt>
      <trkpt lat="43.64344" lon="3.81321">
        <ele>156.6</ele>
        <time>2017-10-17T11:10:30Z</time>
      </trkpt>
      <trkpt lat="43.64349" lon="3.8133">
        <ele>156.6</ele>
        <time>2017-10-17T11:10:33Z</time>
      </trkpt>
      <trkpt lat="43.64354" lon="3.81339">
        <ele>156.7</ele>
        <time>2017-10-17T11:10:37Z</time>
      </trkpt>
      <trkpt lat="43.64358" lon="3.81347">
        <ele>156.9</ele>
        <time>2017-10-17T11:10:41Z</time>
      </trkpt>
      <trkpt lat="43.64363" lon="3.81356">
        <ele>157.3</ele>
        <time>2017-10-17T11:10:45Z</time>
      </trkpt>
      <trkpt lat="43.64369" lon="3.81365">
        <ele>157.7</ele>
        <time>2017-10-17T11:10:50Z</time>
      </trkpt>
      <trkpt lat="43.64372" lon="3.81375">
        <ele>158</ele>
        <time>2017-10-17T11:10:56Z</time>
      </trkpt>
      <trkpt lat="43.64376" lon="3.81384">
        <ele>158.1</ele>
        <time>2017-10-17T11:11:00Z</time>
      </trkpt>
      <trkpt lat="43.64381" lon="3.81393">
        <ele>157.3</ele>
        <time>2017-10-17T11:11:14Z</time>
      </trkpt>
      <trkpt lat="43.64382" lon="3.81403">
        <ele>156.2</ele>
        <time>2017-10-17T11:11:21Z</time>
      </trkpt>
      <trkpt lat="43.64387" lon="3.81413">
        <ele>155.6</ele>
        <time>2017-10-17T11:11:26Z</time>
      </trkpt>
      <trkpt lat="43.64393" lon="3.81419">
        <ele>155.2</ele>
        <time>2017-10-17T11:11:29Z</time>
      </trkpt>
      <trkpt lat="43.64399" lon="3.81428">
        <ele>154.9</ele>
        <time>2017-10-17T11:11:33Z</time>
      </trkpt>
      <trkpt lat="43.64405" lon="3.81437">
        <ele>154.7</ele>
        <time>2017-10-17T11:11:36Z</time>
      </trkpt>
      <trkpt lat="43.64412" lon="3.81449">
        <ele>154.5</ele>
        <time>2017-10-17T11:11:39Z</time>
      </trkpt>
      <trkpt lat="43.64417" lon="3.81464">
        <ele>154.5</ele>
        <time>2017-10-17T11:11:41Z</time>
      </trkpt>
      <trkpt lat="43.64419" lon="3.81475">
        <ele>154.5</ele>
        <time>2017-10-17T11:11:43Z</time>
      </trkpt>
      <trkpt lat="43.64427" lon="3.81486">
        <ele>154.6</ele>
        <time>2017-10-17T11:11:46Z</time>
      </trkpt>
      <trkpt lat="43.64435" lon="3.81497">
        <ele>154.2</ele>
        <time>2017-10-17T11:11:48Z</time>
      </trkpt>
      <trkpt lat="43.64444" lon="3.81515">
        <ele>153.8</ele>
        <time>2017-10-17T11:11:50Z</time>
      </trkpt>
      <trkpt lat="43.64448" lon="3.81528">
        <ele>153.8</ele>
        <time>2017-10-17T11:11:51Z</time>
      </trkpt>
      <trkpt lat="43.64454" lon="3.81544">
        <ele>154.5</ele>
        <time>2017-10-17T11:11:53Z</time>
      </trkpt>
      <trkpt lat="43.64458" lon="3.81553">
        <ele>154.6</ele>
        <time>2017-10-17T11:11:54Z</time>
      </trkpt>
      <trkpt lat="43.64463" lon="3.81565">
        <ele>154.6</ele>
        <time>2017-10-17T11:11:56Z</time>
      </trkpt>
      <trkpt lat="43.64466" lon="3.81581">
        <ele>154.2</ele>
        <time>2017-10-17T11:11:59Z</time>
      </trkpt>
      <trkpt lat="43.64467" lon="3.81591">
        <ele>154.1</ele>
        <time>2017-10-17T11:12:01Z</time>
      </trkpt>
      <trkpt lat="43.64468" lon="3.81602">
        <ele>153.9</ele>
        <time>2017-10-17T11:12:04Z</time>
      </trkpt>
      <trkpt lat="43.64472" lon="3.81612">
        <ele>153.4</ele>
        <time>2017-10-17T11:12:07Z</time>
      </trkpt>
      <trkpt lat="43.64475" lon="3.81624">
        <ele>152.9</ele>
        <time>2017-10-17T11:12:10Z</time>
      </trkpt>
      <trkpt lat="43.64479" lon="3.81635">
        <ele>151.8</ele>
        <time>2017-10-17T11:12:15Z</time>
      </trkpt>
      <trkpt lat="43.64482" lon="3.81646">
        <ele>150.9</ele>
        <time>2017-10-17T11:12:19Z</time>
      </trkpt>
      <trkpt lat="43.64485" lon="3.81656">
        <ele>150.1</ele>
        <time>2017-10-17T11:12:22Z</time>
      </trkpt>
      <trkpt lat="43.64488" lon="3.81666">
        <ele>149.1</ele>
        <time>2017-10-17T11:12:26Z</time>
      </trkpt>
      <trkpt lat="43.64493" lon="3.81677">
        <ele>148.4</ele>
        <time>2017-10-17T11:12:30Z</time>
      </trkpt>
      <trkpt lat="43.64496" lon="3.81687">
        <ele>148</ele>
        <time>2017-10-17T11:12:34Z</time>
      </trkpt>
      <trkpt lat="43.64498" lon="3.81697">
        <ele>147.7</ele>
        <time>2017-10-17T11:12:37Z</time>
      </trkpt>
      <trkpt lat="43.645" lon="3.81707">
        <ele>147.4</ele>
        <time>2017-10-17T11:12:40Z</time>
      </trkpt>
      <trkpt lat="43.64501" lon="3.81718">
        <ele>147</ele>
        <time>2017-10-17T11:12:44Z</time>
      </trkpt>
      <trkpt lat="43.64501" lon="3.81729">
        <ele>146.7</ele>
        <time>2017-10-17T11:12:47Z</time>
      </trkpt>
      <trkpt lat="43.64499" lon="3.81741">
        <ele>146.6</ele>
        <time>2017-10-17T11:12:50Z</time>
      </trkpt>
      <trkpt lat="43.64497" lon="3.81754">
        <ele>146.5</ele>
        <time>2017-10-17T11:12:53Z</time>
      </trkpt>
      <trkpt lat="43.64494" lon="3.81765">
        <ele>146.6</ele>
        <time>2017-10-17T11:12:56Z</time>
      </trkpt>
      <trkpt lat="43.6449" lon="3.81777">
        <ele>146.8</ele>
        <time>2017-10-17T11:13:00Z</time>
      </trkpt>
      <trkpt lat="43.64488" lon="3.81788">
        <ele>147</ele>
        <time>2017-10-17T11:13:03Z</time>
      </trkpt>
      <trkpt lat="43.64486" lon="3.81798">
        <ele>147.1</ele>
        <time>2017-10-17T11:13:05Z</time>
      </trkpt>
      <trkpt lat="43.64485" lon="3.81812">
        <ele>147.5</ele>
        <time>2017-10-17T11:13:08Z</time>
      </trkpt>
      <trkpt lat="43.64484" lon="3.81824">
        <ele>147.9</ele>
        <time>2017-10-17T11:13:11Z</time>
      </trkpt>
      <trkpt lat="43.64482" lon="3.81837">
        <ele>148.2</ele>
        <time>2017-10-17T11:13:14Z</time>
      </trkpt>
      <trkpt lat="43.64481" lon="3.81849">
        <ele>148.3</ele>
        <time>2017-10-17T11:13:17Z</time>
      </trkpt>
      <trkpt lat="43.64478" lon="3.81861">
        <ele>148.6</ele>
        <time>2017-10-17T11:13:20Z</time>
      </trkpt>
      <trkpt lat="43.64476" lon="3.81871">
        <ele>148.9</ele>
        <time>2017-10-17T11:13:24Z</time>
      </trkpt>
      <trkpt lat="43.64474" lon="3.81883">
        <ele>149.1</ele>
        <time>2017-10-17T11:13:28Z</time>
      </trkpt>
      <trkpt lat="43.64474" lon="3.81896">
        <ele>149.2</ele>
        <time>2017-10-17T11:13:31Z</time>
      </trkpt>
      <trkpt lat="43.64472" lon="3.8191">
        <ele>149.3</ele>
        <time>2017-10-17T11:13:34Z</time>
      </trkpt>
      <trkpt lat="43.64468" lon="3.8192">
        <ele>149.3</ele>
        <time>2017-10-17T11:13:37Z</time>
      </trkpt>
      <trkpt lat="43.64466" lon="3.81932">
        <ele>149.5</ele>
        <time>2017-10-17T11:13:44Z</time>
      </trkpt>
      <trkpt lat="43.64461" lon="3.81944">
        <ele>149.6</ele>
        <time>2017-10-17T11:13:47Z</time>
      </trkpt>
      <trkpt lat="43.64456" lon="3.81953">
        <ele>149.8</ele>
        <time>2017-10-17T11:13:49Z</time>
      </trkpt>
      <trkpt lat="43.64451" lon="3.8196">
        <ele>149.9</ele>
        <time>2017-10-17T11:13:51Z</time>
      </trkpt>
      <trkpt lat="43.64445" lon="3.8197">
        <ele>151.5</ele>
        <time>2017-10-17T11:13:53Z</time>
      </trkpt>
      <trkpt lat="43.64438" lon="3.8198">
        <ele>151.9</ele>
        <time>2017-10-17T11:13:55Z</time>
      </trkpt>
      <trkpt lat="43.64432" lon="3.81988">
        <ele>152.4</ele>
        <time>2017-10-17T11:13:57Z</time>
      </trkpt>
      <trkpt lat="43.64426" lon="3.81999">
        <ele>153</ele>
        <time>2017-10-17T11:13:59Z</time>
      </trkpt>
      <trkpt lat="43.6442" lon="3.82009">
        <ele>153.6</ele>
        <time>2017-10-17T11:14:01Z</time>
      </trkpt>
      <trkpt lat="43.64414" lon="3.82019">
        <ele>154.7</ele>
        <time>2017-10-17T11:14:03Z</time>
      </trkpt>
      <trkpt lat="43.64407" lon="3.8203">
        <ele>155.3</ele>
        <time>2017-10-17T11:14:05Z</time>
      </trkpt>
      <trkpt lat="43.64399" lon="3.8204">
        <ele>156.2</ele>
        <time>2017-10-17T11:14:07Z</time>
      </trkpt>
      <trkpt lat="43.64394" lon="3.8205">
        <ele>156.3</ele>
        <time>2017-10-17T11:14:09Z</time>
      </trkpt>
      <trkpt lat="43.64389" lon="3.82061">
        <ele>156.4</ele>
        <time>2017-10-17T11:14:11Z</time>
      </trkpt>
      <trkpt lat="43.64384" lon="3.82072">
        <ele>156.5</ele>
        <time>2017-10-17T11:14:13Z</time>
      </trkpt>
      <trkpt lat="43.64378" lon="3.8208">
        <ele>156.4</ele>
        <time>2017-10-17T11:14:15Z</time>
      </trkpt>
      <trkpt lat="43.64372" lon="3.82092">
        <ele>156.2</ele>
        <time>2017-10-17T11:14:17Z</time>
      </trkpt>
      <trkpt lat="43.64365" lon="3.82103">
        <ele>156.2</ele>
        <time>2017-10-17T11:14:19Z</time>
      </trkpt>
      <trkpt lat="43.64361" lon="3.82114">
        <ele>156.7</ele>
        <time>2017-10-17T11:14:21Z</time>
      </trkpt>
      <trkpt lat="43.64358" lon="3.82123">
        <ele>156.7</ele>
        <time>2017-10-17T11:14:23Z</time>
      </trkpt>
      <trkpt lat="43.6435" lon="3.82128">
        <ele>157</ele>
        <time>2017-10-17T11:14:27Z</time>
      </trkpt>
      <trkpt lat="43.64344" lon="3.82137">
        <ele>157.1</ele>
        <time>2017-10-17T11:14:32Z</time>
      </trkpt>
      <trkpt lat="43.64342" lon="3.82147">
        <ele>156.9</ele>
        <time>2017-10-17T11:14:36Z</time>
      </trkpt>
      <trkpt lat="43.64345" lon="3.82157">
        <ele>156.4</ele>
        <time>2017-10-17T11:14:40Z</time>
      </trkpt>
      <trkpt lat="43.64345" lon="3.8216">
        <ele>156</ele>
        <time>2017-10-17T11:14:47Z</time>
      </trkpt>
      <trkpt lat="43.64342" lon="3.82173">
        <ele>155.8</ele>
        <time>2017-10-17T11:14:49Z</time>
      </trkpt>
      <trkpt lat="43.64341" lon="3.82189">
        <ele>155.7</ele>
        <time>2017-10-17T11:14:51Z</time>
      </trkpt>
      <trkpt lat="43.64338" lon="3.82202">
        <ele>155.4</ele>
        <time>2017-10-17T11:14:54Z</time>
      </trkpt>
      <trkpt lat="43.6434" lon="3.82212">
        <ele>154.4</ele>
        <time>2017-10-17T11:14:56Z</time>
      </trkpt>
      <trkpt lat="43.64342" lon="3.82223">
        <ele>153.8</ele>
        <time>2017-10-17T11:14:58Z</time>
      </trkpt>
      <trkpt lat="43.64344" lon="3.82232">
        <ele>153.3</ele>
        <time>2017-10-17T11:15:00Z</time>
      </trkpt>
      <trkpt lat="43.6435" lon="3.82243">
        <ele>152.9</ele>
        <time>2017-10-17T11:15:03Z</time>
      </trkpt>
      <trkpt lat="43.64355" lon="3.82252">
        <ele>152.8</ele>
        <time>2017-10-17T11:15:07Z</time>
      </trkpt>
      <trkpt lat="43.64354" lon="3.82262">
        <ele>152.7</ele>
        <time>2017-10-17T11:15:10Z</time>
      </trkpt>
      <trkpt lat="43.64349" lon="3.82274">
        <ele>152.5</ele>
        <time>2017-10-17T11:15:15Z</time>
      </trkpt>
      <trkpt lat="43.64345" lon="3.82282">
        <ele>152.3</ele>
        <time>2017-10-17T11:15:17Z</time>
      </trkpt>
      <trkpt lat="43.64335" lon="3.82288">
        <ele>152.1</ele>
        <time>2017-10-17T11:15:20Z</time>
      </trkpt>
      <trkpt lat="43.64328" lon="3.82291">
        <ele>152</ele>
        <time>2017-10-17T11:15:22Z</time>
      </trkpt>
      <trkpt lat="43.64319" lon="3.82296">
        <ele>151</ele>
        <time>2017-10-17T11:15:24Z</time>
      </trkpt>
      <trkpt lat="43.64307" lon="3.82299">
        <ele>149.5</ele>
        <time>2017-10-17T11:15:26Z</time>
      </trkpt>
      <trkpt lat="43.64299" lon="3.82297">
        <ele>149.4</ele>
        <time>2017-10-17T11:15:28Z</time>
      </trkpt>
      <trkpt lat="43.64292" lon="3.82308">
        <ele>147.5</ele>
        <time>2017-10-17T11:15:31Z</time>
      </trkpt>
      <trkpt lat="43.64282" lon="3.82315">
        <ele>147.8</ele>
        <time>2017-10-17T11:15:34Z</time>
      </trkpt>
      <trkpt lat="43.64273" lon="3.8231">
        <ele>148.6</ele>
        <time>2017-10-17T11:15:36Z</time>
      </trkpt>
      <trkpt lat="43.64266" lon="3.82308">
        <ele>149.3</ele>
        <time>2017-10-17T11:15:38Z</time>
      </trkpt>
      <trkpt lat="43.64254" lon="3.82311">
        <ele>150.1</ele>
        <time>2017-10-17T11:15:40Z</time>
      </trkpt>
      <trkpt lat="43.64247" lon="3.82314">
        <ele>150.4</ele>
        <time>2017-10-17T11:15:42Z</time>
      </trkpt>
      <trkpt lat="43.64239" lon="3.82311">
        <ele>150.5</ele>
        <time>2017-10-17T11:15:45Z</time>
      </trkpt>
      <trkpt lat="43.64232" lon="3.8231">
        <ele>150.5</ele>
        <time>2017-10-17T11:15:47Z</time>
      </trkpt>
      <trkpt lat="43.64221" lon="3.82315">
        <ele>151</ele>
        <time>2017-10-17T11:15:51Z</time>
      </trkpt>
      <trkpt lat="43.64213" lon="3.82319">
        <ele>151.3</ele>
        <time>2017-10-17T11:15:53Z</time>
      </trkpt>
      <trkpt lat="43.64205" lon="3.82322">
        <ele>150.6</ele>
        <time>2017-10-17T11:15:55Z</time>
      </trkpt>
      <trkpt lat="43.64198" lon="3.82329">
        <ele>150.4</ele>
        <time>2017-10-17T11:15:58Z</time>
      </trkpt>
      <trkpt lat="43.64192" lon="3.82338">
        <ele>150.3</ele>
        <time>2017-10-17T11:16:01Z</time>
      </trkpt>
      <trkpt lat="43.64194" lon="3.82351">
        <ele>150.3</ele>
        <time>2017-10-17T11:16:05Z</time>
      </trkpt>
      <trkpt lat="43.64188" lon="3.8236">
        <ele>150.2</ele>
        <time>2017-10-17T11:16:07Z</time>
      </trkpt>
      <trkpt lat="43.64183" lon="3.82366">
        <ele>149.7</ele>
        <time>2017-10-17T11:16:11Z</time>
      </trkpt>
      <trkpt lat="43.64178" lon="3.82378">
        <ele>149.1</ele>
        <time>2017-10-17T11:16:14Z</time>
      </trkpt>
      <trkpt lat="43.64176" lon="3.82388">
        <ele>147.9</ele>
        <time>2017-10-17T11:16:16Z</time>
      </trkpt>
      <trkpt lat="43.6417" lon="3.82401">
        <ele>145.7</ele>
        <time>2017-10-17T11:16:18Z</time>
      </trkpt>
      <trkpt lat="43.64163" lon="3.82415">
        <ele>145.1</ele>
        <time>2017-10-17T11:16:20Z</time>
      </trkpt>
      <trkpt lat="43.64162" lon="3.82426">
        <ele>145.1</ele>
        <time>2017-10-17T11:16:22Z</time>
      </trkpt>
      <trkpt lat="43.64156" lon="3.82438">
        <ele>144.8</ele>
        <time>2017-10-17T11:16:26Z</time>
      </trkpt>
      <trkpt lat="43.64157" lon="3.8245">
        <ele>144.6</ele>
        <time>2017-10-17T11:16:28Z</time>
      </trkpt>
      <trkpt lat="43.64153" lon="3.82465">
        <ele>145</ele>
        <time>2017-10-17T11:16:30Z</time>
      </trkpt>
      <trkpt lat="43.64145" lon="3.82476">
        <ele>145.1</ele>
        <time>2017-10-17T11:16:32Z</time>
      </trkpt>
      <trkpt lat="43.64144" lon="3.8249">
        <ele>145.2</ele>
        <time>2017-10-17T11:16:34Z</time>
      </trkpt>
      <trkpt lat="43.64137" lon="3.82505">
        <ele>144.4</ele>
        <time>2017-10-17T11:16:36Z</time>
      </trkpt>
      <trkpt lat="43.64128" lon="3.82515">
        <ele>143.5</ele>
        <time>2017-10-17T11:16:38Z</time>
      </trkpt>
      <trkpt lat="43.64122" lon="3.82532">
        <ele>142.9</ele>
        <time>2017-10-17T11:16:40Z</time>
      </trkpt>
      <trkpt lat="43.64118" lon="3.82542">
        <ele>142.7</ele>
        <time>2017-10-17T11:16:41Z</time>
      </trkpt>
      <trkpt lat="43.64115" lon="3.82553">
        <ele>142.5</ele>
        <time>2017-10-17T11:16:42Z</time>
      </trkpt>
      <trkpt lat="43.64112" lon="3.82563">
        <ele>142.1</ele>
        <time>2017-10-17T11:16:43Z</time>
      </trkpt>
      <trkpt lat="43.64106" lon="3.82574">
        <ele>141.6</ele>
        <time>2017-10-17T11:16:44Z</time>
      </trkpt>
      <trkpt lat="43.64103" lon="3.82585">
        <ele>141.4</ele>
        <time>2017-10-17T11:16:45Z</time>
      </trkpt>
      <trkpt lat="43.64098" lon="3.82594">
        <ele>141.3</ele>
        <time>2017-10-17T11:16:46Z</time>
      </trkpt>
      <trkpt lat="43.64096" lon="3.82604">
        <ele>141.1</ele>
        <time>2017-10-17T11:16:47Z</time>
      </trkpt>
      <trkpt lat="43.64093" lon="3.82616">
        <ele>140.8</ele>
        <time>2017-10-17T11:16:48Z</time>
      </trkpt>
      <trkpt lat="43.6409" lon="3.82626">
        <ele>140.6</ele>
        <time>2017-10-17T11:16:49Z</time>
      </trkpt>
      <trkpt lat="43.64088" lon="3.82636">
        <ele>140.5</ele>
        <time>2017-10-17T11:16:50Z</time>
      </trkpt>
      <trkpt lat="43.64088" lon="3.82647">
        <ele>140.5</ele>
        <time>2017-10-17T11:16:51Z</time>
      </trkpt>
      <trkpt lat="43.64084" lon="3.82659">
        <ele>140.4</ele>
        <time>2017-10-17T11:16:52Z</time>
      </trkpt>
      <trkpt lat="43.64081" lon="3.82668">
        <ele>140.3</ele>
        <time>2017-10-17T11:16:53Z</time>
      </trkpt>
      <trkpt lat="43.64077" lon="3.82678">
        <ele>140.5</ele>
        <time>2017-10-17T11:16:54Z</time>
      </trkpt>
      <trkpt lat="43.64073" lon="3.82689">
        <ele>140.6</ele>
        <time>2017-10-17T11:16:55Z</time>
      </trkpt>
      <trkpt lat="43.64069" lon="3.82699">
        <ele>140.5</ele>
        <time>2017-10-17T11:16:56Z</time>
      </trkpt>
      <trkpt lat="43.64067" lon="3.8271">
        <ele>140.1</ele>
        <time>2017-10-17T11:16:57Z</time>
      </trkpt>
      <trkpt lat="43.64063" lon="3.82719">
        <ele>139.5</ele>
        <time>2017-10-17T11:16:58Z</time>
      </trkpt>
      <trkpt lat="43.64058" lon="3.82729">
        <ele>139</ele>
        <time>2017-10-17T11:16:59Z</time>
      </trkpt>
      <trkpt lat="43.64052" lon="3.82737">
        <ele>138.8</ele>
        <time>2017-10-17T11:17:00Z</time>
      </trkpt>
      <trkpt lat="43.64046" lon="3.82745">
        <ele>138.3</ele>
        <time>2017-10-17T11:17:01Z</time>
      </trkpt>
      <trkpt lat="43.64041" lon="3.82753">
        <ele>137.9</ele>
        <time>2017-10-17T11:17:02Z</time>
      </trkpt>
      <trkpt lat="43.64037" lon="3.82763">
        <ele>137.4</ele>
        <time>2017-10-17T11:17:03Z</time>
      </trkpt>
      <trkpt lat="43.64032" lon="3.8277">
        <ele>136.9</ele>
        <time>2017-10-17T11:17:04Z</time>
      </trkpt>
      <trkpt lat="43.64025" lon="3.82782">
        <ele>136</ele>
        <time>2017-10-17T11:17:06Z</time>
      </trkpt>
      <trkpt lat="43.6402" lon="3.82793">
        <ele>135.1</ele>
        <time>2017-10-17T11:17:08Z</time>
      </trkpt>
      <trkpt lat="43.64012" lon="3.82797">
        <ele>134.1</ele>
        <time>2017-10-17T11:17:10Z</time>
      </trkpt>
      <trkpt lat="43.64001" lon="3.82795">
        <ele>132.5</ele>
        <time>2017-10-17T11:17:12Z</time>
      </trkpt>
      <trkpt lat="43.63989" lon="3.82796">
        <ele>131.1</ele>
        <time>2017-10-17T11:17:14Z</time>
      </trkpt>
      <trkpt lat="43.63978" lon="3.828">
        <ele>130.2</ele>
        <time>2017-10-17T11:17:16Z</time>
      </trkpt>
      <trkpt lat="43.63972" lon="3.82805">
        <ele>129.5</ele>
        <time>2017-10-17T11:17:17Z</time>
      </trkpt>
      <trkpt lat="43.63965" lon="3.8281">
        <ele>128.8</ele>
        <time>2017-10-17T11:17:18Z</time>
      </trkpt>
      <trkpt lat="43.63954" lon="3.82818">
        <ele>127.3</ele>
        <time>2017-10-17T11:17:20Z</time>
      </trkpt>
      <trkpt lat="43.63942" lon="3.82823">
        <ele>125.5</ele>
        <time>2017-10-17T11:17:22Z</time>
      </trkpt>
      <trkpt lat="43.63931" lon="3.82828">
        <ele>123.8</ele>
        <time>2017-10-17T11:17:24Z</time>
      </trkpt>
      <trkpt lat="43.63922" lon="3.82826">
        <ele>122.7</ele>
        <time>2017-10-17T11:17:26Z</time>
      </trkpt>
      <trkpt lat="43.63913" lon="3.82816">
        <ele>120.7</ele>
        <time>2017-10-17T11:17:28Z</time>
      </trkpt>
      <trkpt lat="43.63906" lon="3.8281">
        <ele>119.6</ele>
        <time>2017-10-17T11:17:30Z</time>
      </trkpt>
      <trkpt lat="43.63895" lon="3.82806">
        <ele>119.3</ele>
        <time>2017-10-17T11:17:32Z</time>
      </trkpt>
      <trkpt lat="43.63889" lon="3.82795">
        <ele>119.5</ele>
        <time>2017-10-17T11:17:34Z</time>
      </trkpt>
      <trkpt lat="43.63883" lon="3.82783">
        <ele>119.3</ele>
        <time>2017-10-17T11:17:36Z</time>
      </trkpt>
      <trkpt lat="43.63874" lon="3.82782">
        <ele>118.9</ele>
        <time>2017-10-17T11:17:38Z</time>
      </trkpt>
      <trkpt lat="43.63866" lon="3.82792">
        <ele>118.7</ele>
        <time>2017-10-17T11:17:40Z</time>
      </trkpt>
      <trkpt lat="43.63856" lon="3.828">
        <ele>117.8</ele>
        <time>2017-10-17T11:17:42Z</time>
      </trkpt>
      <trkpt lat="43.63847" lon="3.82806">
        <ele>117.4</ele>
        <time>2017-10-17T11:17:44Z</time>
      </trkpt>
      <trkpt lat="43.63837" lon="3.82804">
        <ele>117.2</ele>
        <time>2017-10-17T11:17:46Z</time>
      </trkpt>
      <trkpt lat="43.63826" lon="3.82803">
        <ele>117.6</ele>
        <time>2017-10-17T11:17:48Z</time>
      </trkpt>
      <trkpt lat="43.63814" lon="3.82808">
        <ele>117.9</ele>
        <time>2017-10-17T11:17:50Z</time>
      </trkpt>
      <trkpt lat="43.63802" lon="3.82811">
        <ele>118.4</ele>
        <time>2017-10-17T11:17:52Z</time>
      </trkpt>
      <trkpt lat="43.63792" lon="3.82817">
        <ele>119</ele>
        <time>2017-10-17T11:17:54Z</time>
      </trkpt>
      <trkpt lat="43.63784" lon="3.82821">
        <ele>119.5</ele>
        <time>2017-10-17T11:17:56Z</time>
      </trkpt>
      <trkpt lat="43.63778" lon="3.82829">
        <ele>119.7</ele>
        <time>2017-10-17T11:18:01Z</time>
      </trkpt>
      <trkpt lat="43.63783" lon="3.82839">
        <ele>120</ele>
        <time>2017-10-17T11:18:05Z</time>
      </trkpt>
      <trkpt lat="43.63787" lon="3.82845">
        <ele>120.8</ele>
        <time>2017-10-17T11:18:12Z</time>
      </trkpt>
      <trkpt lat="43.63781" lon="3.82855">
        <ele>121.3</ele>
        <time>2017-10-17T11:18:15Z</time>
      </trkpt>
      <trkpt lat="43.63772" lon="3.8285">
        <ele>123</ele>
        <time>2017-10-17T11:18:27Z</time>
      </trkpt>
    </trkseg>
  </trk>
</gpx>